
Distance (Route):
Temperature : 14.7°C
Humidity : 50.6%
Pressure : 809.5hPa| Receiver | Frames | First received | Last received |
|---|---|---|---|
| PETON7-10 | 314 | 2026-08-31 11:38:43 | 2026-08-31 13:02:40 |
| OM5KV | 135 | 2026-08-31 11:23:45 | 2026-08-31 11:43:45 |
| OE5DRO-10 | 97 | 2026-08-31 12:13:06 | 2026-08-31 12:54:58 |
| GYPAP8-17 | 75 | 2026-08-31 11:39:37 | 2026-08-31 13:12:54 |
| SQ9EZE-16 | 68 | 2026-08-31 12:14:43 | 2026-08-31 12:54:06 |
| ATIDSZ-14 | 51 | 2026-08-31 11:26:44 | 2026-08-31 11:46:31 |
| OE3JTB-15 | 45 | 2026-08-31 11:43:23 | 2026-08-31 13:07:26 |
| SP9KGR-15 | 43 | 2026-08-31 12:36:01 | 2026-08-31 12:50:47 |
| LZ4TU-5 | 26 | 2026-08-31 12:16:18 | 2026-08-31 12:53:03 |
| SQ9EZE-15 | 24 | 2026-08-31 12:16:05 | 2026-08-31 12:53:28 |
| S52SK | 23 | 2026-08-31 11:41:00 | 2026-08-31 11:51:41 |
| OE3OSB-13 | 23 | 2026-08-31 11:42:27 | 2026-08-31 11:56:57 |
| OE5DXL-15 | 16 | 2026-08-31 12:34:34 | 2026-08-31 12:48:17 |
| SQ9EZE-14 | 3 | 2026-08-31 12:15:04 | 2026-08-31 12:36:55 |
| Receiver | Date | Latitude | Longitude | Direction | Speed | Altitude | Climb | Temperature | Humidity | Pressure | Voltage | Killtimer | Uptime | BKT | XDATA |
|---|---|---|---|---|---|---|---|---|---|---|---|---|---|---|---|
| GYPAP8-17 | 2026-08-31 13:12:54 | 47.57950 | 20.08709 | 45° | 16km/h | 1993m | -14.0m/s | 14.7°C | 50.6% | 809.5hPa | 2.5V | 00:00:00 | 00:00:00 | 00:00:00 | |
| GYPAP8-17 | 2026-08-31 13:12:10 | 47.57816 | 20.08480 | 52° | 22km/h | 2562m | -15.3m/s | 9.3°C | 65.6% | 756.2hPa | 2.5V | 00:00:00 | 00:00:00 | 00:00:00 | |
| GYPAP8-17 | 2026-08-31 13:11:26 | 47.57663 | 20.08264 | 47° | 15km/h | 3116m | -11.7m/s | 4.4°C | 77.1% | 707.2hPa | 2.5V | 00:00:00 | 00:00:00 | 00:00:00 | |
| GYPAP8-17 | 2026-08-31 13:10:42 | 47.57571 | 20.08075 | 53° | 22km/h | 3627m | -12.8m/s | 2.8°C | 24.5% | 663.6hPa | 2.5V | 00:00:00 | 00:00:00 | 00:00:00 | |
| GYPAP8-17 | 2026-08-31 13:09:58 | 47.57421 | 20.07815 | 42° | 29km/h | 4205m | -14.5m/s | -1.5°C | 40.0% | 617.9hPa | 2.5V | 00:00:00 | 00:00:00 | 00:00:00 | |
| GYPAP8-17 | 2026-08-31 13:09:13 | 47.57241 | 20.07347 | 62° | 42km/h | 4861m | -15.3m/s | -6.7°C | 82.1% | 569.0hPa | 2.5V | 08:08:00 | 00:00:00 | 00:00:00 | |
| GYPAP8-17 | 2026-08-31 13:08:28 | 47.57026 | 20.06544 | 77° | 53km/h | 5521m | -15.2m/s | -6.2°C | 8.3% | 522.8hPa | 2.5V | 08:09:00 | 00:00:00 | 00:00:00 | |
| GYPAP8-17 | 2026-08-31 13:07:44 | 47.56862 | 20.05719 | 75° | 51km/h | 6130m | -14.3m/s | -10.7°C | 28.9% | 483.2hPa | 2.5V | 00:00:00 | 00:00:00 | 00:00:00 | |
| OE3JTB-15 | 2026-08-31 13:07:26 | 47.56777 | 20.05357 | 68° | 57km/h | 6402m | -14.0m/s | -13.0°C | 36.2% | 466.5hPa | 2.5V | 00:00:00 | 00:00:00 | 00:00:00 | |
| GYPAP8-17 | 2026-08-31 13:06:59 | 47.56620 | 20.04840 | 65° | 58km/h | 6770m | -14.2m/s | -16.0°C | 37.0% | 444.3hPa | 2.6V | 00:00:00 | 00:00:00 | 00:00:00 | |
| OE3JTB-15 | 2026-08-31 13:06:50 | 47.56553 | 20.04637 | 63° | 62km/h | 6908m | -14.4m/s | -17.2°C | 39.2% | 436.1hPa | 2.6V | 00:00:00 | 00:00:00 | 00:00:00 | |
| OE3JTB-15 | 2026-08-31 13:06:15 | 47.56335 | 20.03894 | 67° | 66km/h | 7412m | -14.4m/s | -20.4°C | 22.5% | 407.7hPa | 2.6V | 00:00:00 | 02:11:56 | 00:00:00 | |
| OE3JTB-15 | 2026-08-31 13:05:46 | 47.56175 | 20.03206 | 74° | 88km/h | 7827m | -14.0m/s | -23.7°C | 15.9% | 385.4hPa | 2.6V | 00:00:00 | 00:00:00 | 00:00:00 | |
| GYPAP8-17 | 2026-08-31 13:05:42 | 47.56159 | 20.03133 | 75° | 69km/h | 7866m | -14.8m/s | -24.1°C | 15.0% | 383.4hPa | 2.6V | 00:00:00 | 00:00:00 | 00:00:00 | |
| GYPAP8-17 | 2026-08-31 13:04:47 | 47.55857 | 20.01719 | 75° | 77km/h | 8628m | -15.0m/s | -29.6°C | 35.1% | 345.0hPa | 2.6V | 00:00:00 | 00:00:00 | 00:00:00 | |
| GYPAP8-17 | 2026-08-31 13:03:53 | 47.55628 | 20.00211 | 81° | 84km/h | 9389m | -15.8m/s | -35.5°C | 17.8% | 309.6hPa | 2.6V | 00:00:00 | 00:00:00 | 00:00:00 | |
| GYPAP8-17 | 2026-08-31 13:02:59 | 47.55521 | 19.98146 | 85° | 120km/h | 10197m | -16.7m/s | -41.6°C | 28.5% | 275.2hPa | 2.6V | 00:00:00 | 00:00:00 | 00:00:00 | |
| PETON7-10 | 2026-08-31 13:02:40 | 47.55475 | 19.97264 | 88° | 122km/h | 10504m | -15.4m/s | -44.0°C | 32.0% | 263.2hPa | 2.6V | 00:00:00 | 00:00:00 | 00:00:00 | |
| PETON7-10 | 2026-08-31 13:02:17 | 47.55438 | 19.96219 | 88° | 128km/h | 10862m | -15.7m/s | -46.7°C | 37.5% | 249.5hPa | 2.5V | 00:00:00 | 00:00:00 | 00:00:00 | |
| PETON7-10 | 2026-08-31 13:02:02 | 47.55421 | 19.95497 | 89° | 131km/h | 11102m | -16.3m/s | -48.7°C | 37.1% | 240.5hPa | 2.5V | 00:00:00 | 02:07:43 | 00:00:00 | |
| GYPAP8-17 | 2026-08-31 13:01:54 | 47.55422 | 19.95153 | 91° | 131km/h | 11205m | -15.7m/s | -49.4°C | 26.9% | 236.8hPa | 2.5V | 00:00:00 | 00:00:00 | 00:00:00 | |
| PETON7-10 | 2026-08-31 13:01:47 | 47.55425 | 19.94763 | 90° | 124km/h | 11332m | -13.9m/s | -50.2°C | 26.9% | 232.2hPa | 2.5V | 00:00:00 | 00:00:00 | 00:00:00 | |
| PETON7-10 | 2026-08-31 13:01:32 | 47.55429 | 19.94063 | 90° | 128km/h | 11562m | -16.9m/s | -51.7°C | 26.8% | 224.2hPa | 2.5V | 00:00:00 | 00:00:00 | 00:00:00 | |
| OE3JTB-15 | 2026-08-31 13:01:21 | 47.55438 | 19.93543 | 92° | 117km/h | 11740m | -18.1m/s | -52.9°C | 26.9% | 218.0hPa | 2.5V | 00:00:00 | 00:00:00 | 00:00:00 | |
| PETON7-10 | 2026-08-31 13:01:17 | 47.55442 | 19.93350 | 94° | 130km/h | 11806m | -15.9m/s | -53.3°C | 26.7% | 215.8hPa | 2.5V | 00:00:00 | 02:06:58 | 00:00:00 | |
| GYPAP8-17 | 2026-08-31 13:00:37 | 47.55522 | 19.91580 | 96° | 117km/h | 12450m | -17.6m/s | -56.8°C | 14.8% | 195.2hPa | 2.5V | 00:00:00 | 00:00:00 | 00:00:00 | |
| PETON7-10 | 2026-08-31 13:00:36 | 47.55527 | 19.91493 | 96° | 111km/h | 12483m | -16.3m/s | -56.9°C | 20.3% | 194.1hPa | 2.5V | 08:16:00 | 00:00:00 | 00:00:00 | |
| PETON7-10 | 2026-08-31 13:00:21 | 47.55562 | 19.90870 | 94° | 108km/h | 12739m | -17.6m/s | -57.5°C | 17.0% | 186.5hPa | 2.5V | 00:00:00 | 00:00:00 | 00:00:00 | |
| PETON7-10 | 2026-08-31 13:00:06 | 47.55596 | 19.90267 | 93° | 106km/h | 12994m | -16.3m/s | -58.6°C | 16.8% | 179.1hPa | 2.5V | 00:00:00 | 02:05:47 | 00:00:00 | |
| PETON7-10 | 2026-08-31 12:59:50 | 47.55621 | 19.89641 | 93° | 104km/h | 13264m | -19.0m/s | -59.6°C | 15.3% | 171.4hPa | 2.5V | 00:00:00 | 00:00:00 | 00:00:00 | |
| GYPAP8-17 | 2026-08-31 12:59:41 | 47.55633 | 19.89327 | 95° | 102km/h | 13398m | -16.6m/s | -60.1°C | 8.6% | 167.7hPa | 2.6V | 00:00:00 | 00:00:00 | 00:00:00 | |
| OE3JTB-15 | 2026-08-31 12:59:29 | 47.55666 | 19.88825 | 97° | 77km/h | 13627m | -18.4m/s | -61.0°C | 12.0% | 161.9hPa | 2.6V | 00:00:00 | 02:05:10 | 00:00:00 | |
| PETON7-10 | 2026-08-31 12:59:20 | 47.55681 | 19.88510 | 92° | 86km/h | 13786m | -17.5m/s | -61.2°C | 11.0% | 157.7hPa | 2.6V | 00:00:00 | 02:05:01 | 00:00:00 | |
| PETON7-10 | 2026-08-31 12:59:05 | 47.55699 | 19.88030 | 96° | 66km/h | 14049m | -17.9m/s | -59.8°C | 7.8% | 151.2hPa | 2.6V | 00:00:00 | 00:00:00 | 00:00:00 | |
| OE3JTB-15 | 2026-08-31 12:58:56 | 47.55709 | 19.87760 | 87° | 68km/h | 14241m | -19.3m/s | -58.8°C | 6.3% | 146.7hPa | 2.5V | 08:18:00 | 00:00:00 | 00:00:00 | |
| PETON7-10 | 2026-08-31 12:58:50 | 47.55705 | 19.87664 | 85° | 66km/h | 14317m | -18.4m/s | -58.6°C | 6.1% | 144.9hPa | 2.6V | 00:00:00 | 00:00:00 | 00:00:00 | |
| GYPAP8-17 | 2026-08-31 12:58:45 | 47.55697 | 19.87566 | 81° | 66km/h | 14395m | -19.0m/s | -58.3°C | 2.4% | 143.3hPa | 2.6V | 00:00:00 | 00:00:00 | 00:00:00 | |
| PETON7-10 | 2026-08-31 12:58:35 | 47.55650 | 19.87300 | 74° | 71km/h | 14595m | -19.6m/s | -59.3°C | 6.1% | 138.5hPa | 2.6V | 00:00:00 | 02:04:16 | 00:00:00 | |
| OE3JTB-15 | 2026-08-31 12:58:27 | 47.55625 | 19.87087 | 87° | 55km/h | 14749m | -17.9m/s | -59.0°C | 5.8% | 135.2hPa | 2.6V | 00:00:00 | 00:00:00 | 00:00:00 | |
| PETON7-10 | 2026-08-31 12:58:19 | 47.55624 | 19.86877 | 93° | 53km/h | 14901m | -20.2m/s | -58.6°C | 5.4% | 132.1hPa | 2.6V | 08:19:00 | 00:00:00 | 00:00:00 | |
| PETON7-10 | 2026-08-31 12:58:04 | 47.55626 | 19.86584 | 76° | 40km/h | 15191m | -20.2m/s | -58.7°C | 5.3% | 126.2hPa | 2.6V | 00:00:00 | 00:00:00 | 00:00:00 | |
| OE3JTB-15 | 2026-08-31 12:57:58 | 47.55609 | 19.86500 | 71° | 47km/h | 15313m | -21.5m/s | -58.4°C | 5.0% | 123.7hPa | 2.6V | 00:00:00 | 02:03:39 | 00:00:00 | |
| GYPAP8-17 | 2026-08-31 12:57:52 | 47.55591 | 19.86429 | 67° | 44km/h | 15416m | -19.9m/s | -58.7°C | 1.6% | 121.8hPa | 2.6V | 00:00:00 | 00:00:00 | 00:00:00 | |
| PETON7-10 | 2026-08-31 12:57:49 | 47.55574 | 19.86373 | 65° | 47km/h | 15498m | -20.8m/s | -58.6°C | 4.8% | 120.1hPa | 2.6V | 00:00:00 | 02:03:30 | 00:00:00 | |
| PETON7-10 | 2026-08-31 12:57:34 | 47.55495 | 19.86132 | 74° | 57km/h | 15798m | -21.6m/s | -58.5°C | 4.5% | 114.6hPa | 2.6V | 00:00:00 | 00:00:00 | 00:00:00 | |
| OE3JTB-15 | 2026-08-31 12:57:29 | 47.55471 | 19.86038 | 73° | 53km/h | 15898m | -20.1m/s | -58.7°C | 4.6% | 112.8hPa | 2.6V | 00:00:00 | 00:00:00 | 00:00:00 | |
| PETON7-10 | 2026-08-31 12:57:19 | 47.55426 | 19.85832 | 73° | 53km/h | 16106m | -21.2m/s | -58.9°C | 4.6% | 109.0hPa | 2.6V | 00:00:00 | 00:00:00 | 00:00:00 | |
| PETON7-10 | 2026-08-31 12:57:05 | 47.55395 | 19.85547 | 89° | 31km/h | 16403m | -18.8m/s | -58.2°C | 4.4% | 103.9hPa | 2.6V | 00:00:00 | 02:02:45 | 00:00:00 | |
| OE3JTB-15 | 2026-08-31 12:57:00 | 47.55395 | 19.85472 | 96° | 33km/h | 16501m | -19.9m/s | -57.7°C | 4.1% | 102.4hPa | 2.6V | 00:00:00 | 00:00:00 | 00:00:00 | |
| PETON7-10 | 2026-08-31 12:56:49 | 47.55380 | 19.85374 | 65° | 38km/h | 16698m | -17.0m/s | -56.5°C | 3.8% | 99.1hPa | 2.6V | 00:00:00 | 00:00:00 | 00:00:00 | |
| PETON7-10 | 2026-08-31 12:56:34 | 47.55319 | 19.85180 | 70° | 33km/h | 17002m | -21.6m/s | -56.3°C | 3.7% | 94.6hPa | 2.6V | 00:00:00 | 00:00:00 | 00:00:00 | |
| OE3JTB-15 | 2026-08-31 12:56:31 | 47.55307 | 19.85125 | 70° | 27km/h | 17107m | -20.9m/s | -56.4°C | 3.7% | 93.0hPa | 2.6V | 00:00:00 | 02:02:10 | 00:00:00 | |
| PETON7-10 | 2026-08-31 12:56:19 | 47.55276 | 19.85014 | 71° | 33km/h | 17310m | -20.6m/s | -56.2°C | 3.7% | 90.2hPa | 2.6V | 00:00:00 | 02:02:00 | 00:00:00 | |
| PETON7-10 | 2026-08-31 12:56:04 | 47.55262 | 19.84836 | 90° | 13km/h | 17610m | -22.4m/s | -55.2°C | 3.3% | 86.0hPa | 2.6V | 08:21:00 | 00:00:00 | 00:00:00 | |
| OE3JTB-15 | 2026-08-31 12:55:58 | 47.55256 | 19.84800 | 30° | 24km/h | 17803m | -21.8m/s | -55.8°C | 3.7% | 83.5hPa | 2.6V | 00:00:00 | 00:00:00 | 00:00:00 | |
| PETON7-10 | 2026-08-31 12:55:49 | 47.55234 | 19.84791 | 17° | 24km/h | 17929m | -19.9m/s | -56.6°C | 3.9% | 81.8hPa | 2.6V | 00:00:00 | 00:00:00 | 00:00:00 | |
| GYPAP8-17 | 2026-08-31 12:55:45 | 47.55219 | 19.84786 | 19° | 24km/h | 17983m | -14.8m/s | -57.1°C | 0.6% | 81.1hPa | 2.6V | 00:00:00 | 00:00:00 | 00:00:00 | |
| PETON7-10 | 2026-08-31 12:55:34 | 47.55145 | 19.84762 | 4° | 27km/h | 18231m | -22.1m/s | -55.4°C | 3.5% | 77.9hPa | 2.6V | 00:00:00 | 02:01:15 | 00:00:00 | |
| OE3JTB-15 | 2026-08-31 12:55:28 | 47.55089 | 19.84731 | 43° | 24km/h | 18402m | -25.0m/s | -55.0°C | 3.5% | 76.0hPa | 2.6V | 00:00:00 | 00:00:00 | 00:00:00 | |
| PETON7-10 | 2026-08-31 12:55:19 | 47.55057 | 19.84689 | 44° | 24km/h | 18573m | -28.2m/s | -55.0°C | 3.4% | 74.1hPa | 2.6V | 00:00:00 | 00:00:00 | 00:00:00 | |
| PETON7-10 | 2026-08-31 12:55:04 | 47.54977 | 19.84620 | 36° | 18km/h | 18921m | -21.9m/s | -54.6°C | 3.2% | 70.0hPa | 2.7V | 00:00:00 | 00:00:00 | 00:00:00 | |
| OE5DRO-10 | 2026-08-31 12:54:58 | 47.54954 | 19.84591 | 44° | 16km/h | 19054m | -21.1m/s | -55.2°C | 3.4% | 68.5hPa | 2.7V | 00:00:00 | 00:00:00 | 00:00:00 | |
| PETON7-10 | 2026-08-31 12:54:49 | 47.54923 | 19.84550 | 63° | 11km/h | 19254m | -21.2m/s | -55.7°C | 3.7% | 66.4hPa | 2.7V | 00:00:00 | 02:00:30 | 00:00:00 | |
| GYPAP8-17 | 2026-08-31 12:54:42 | 47.54920 | 19.84522 | 96° | 11km/h | 19390m | -22.5m/s | -55.9°C | 0.5% | 65.2hPa | 2.7V | 00:00:00 | 00:00:00 | 00:00:00 | |
| PETON7-10 | 2026-08-31 12:54:34 | 47.54919 | 19.84489 | 83° | 13km/h | 19601m | -24.0m/s | -54.7°C | 3.3% | 63.0hPa | 2.7V | 00:00:00 | 00:00:00 | 00:00:00 | |
| OE3JTB-15 | 2026-08-31 12:54:30 | 47.54917 | 19.84474 | 76° | 15km/h | 19692m | -22.9m/s | -54.6°C | 3.4% | 62.0hPa | 2.6V | 08:22:00 | 00:00:00 | 00:00:00 | |
| PETON7-10 | 2026-08-31 12:54:19 | 47.54893 | 19.84429 | 39° | 16km/h | 19963m | -22.3m/s | -55.1°C | 3.5% | 59.5hPa | 2.7V | 00:00:00 | 00:00:00 | 00:00:00 | |
| SQ9EZE-16 | 2026-08-31 12:54:06 | 47.54869 | 19.84363 | 102° | 11km/h | 20227m | -23.5m/s | 0°C | 0% | 57.1hPa | 2.7V | 00:00:00 | 00:00:00 | 00:00:00 | |
| PETON7-10 | 2026-08-31 12:54:04 | 47.54871 | 19.84351 | 109° | 9km/h | 20296m | -24.8m/s | -54.1°C | 3.3% | 56.4hPa | 2.7V | 00:00:00 | 01:59:45 | 00:00:00 | |
| OE5DRO-10 | 2026-08-31 12:54:02 | 47.54874 | 19.84344 | 124° | 13km/h | 20342m | -22.8m/s | -54.2°C | 3.3% | 56.1hPa | 2.7V | 08:23:00 | 00:00:00 | 00:00:00 | |
| OE3JTB-15 | 2026-08-31 12:54:01 | 47.54875 | 19.84342 | 151° | 13km/h | 20364m | -20.4m/s | -54.3°C | 3.3% | 55.7hPa | 2.7V | 00:00:00 | 00:00:00 | 00:00:00 | |
| SQ9EZE-16 | 2026-08-31 12:53:51 | 47.54876 | 19.84361 | 305° | 15km/h | 20582m | -24.7m/s | 0°C | 0% | 0hPa | 2.7V | 00:00:00 | 00:00:00 | 00:00:00 | |
| PETON7-10 | 2026-08-31 12:53:49 | 47.54868 | 19.84372 | 328° | 15km/h | 20659m | -25.0m/s | -54.2°C | 3.3% | 53.3hPa | 2.7V | 08:23:00 | 00:00:00 | 00:00:00 | |
| GYPAP8-17 | 2026-08-31 12:53:39 | 47.54839 | 19.84364 | 24° | 15km/h | 20871m | -21.7m/s | -54.3°C | 0.4% | 51.6hPa | 2.7V | 00:00:00 | 00:00:00 | 00:00:00 | |
| SQ9EZE-16 | 2026-08-31 12:53:36 | 47.54827 | 19.84364 | 341° | 16km/h | 20970m | -27.6m/s | 0°C | 0% | 0hPa | 2.7V | 00:00:00 | 00:00:00 | 00:00:00 | |
| PETON7-10 | 2026-08-31 12:53:34 | 47.54820 | 19.84369 | 328° | 16km/h | 21023m | -25.3m/s | -54.0°C | 3.3% | 50.4hPa | 2.7V | 00:00:00 | 00:00:00 | 00:00:00 | |
| OE3JTB-15 | 2026-08-31 12:53:32 | 47.54812 | 19.84375 | 340° | 13km/h | 21075m | -26.1m/s | -53.9°C | 3.4% | 50.0hPa | 2.7V | 00:00:00 | 01:59:13 | 00:00:00 | |
| SQ9EZE-15 | 2026-08-31 12:53:28 | 47.54797 | 19.84383 | 342° | 18km/h | 21151m | -23.1m/s | -54.3°C | 0.4% | 49.4hPa | 2.7V | 08:24:00 | 00:00:00 | 00:00:00 | |
| PETON7-10 | 2026-08-31 12:53:19 | 47.54760 | 19.84382 | 10° | 11km/h | 21381m | -20.9m/s | -53.9°C | 3.4% | 47.6hPa | 2.7V | 00:00:00 | 01:59:00 | 00:00:00 | |
| OE5DRO-10 | 2026-08-31 12:53:17 | 47.54755 | 19.84381 | 15° | 11km/h | 21426m | -23.8m/s | -53.7°C | 3.3% | 47.3hPa | 2.7V | 00:00:00 | 00:00:00 | 00:00:00 | |
| SQ9EZE-15 | 2026-08-31 12:53:07 | 47.54743 | 19.84357 | 116° | 9km/h | 21661m | -25.1m/s | -53.1°C | 0.4% | 45.7hPa | 2.7V | 08:25:00 | 00:00:00 | 00:00:00 | |
| PETON7-10 | 2026-08-31 12:53:04 | 47.54751 | 19.84347 | 150° | 11km/h | 21755m | -23.6m/s | -53.1°C | 3.1% | 44.9hPa | 2.7V | 00:00:00 | 00:00:00 | 00:00:00 | |
| LZ4TU-5 | 2026-08-31 12:53:03 | 47.54755 | 19.84345 | 166° | 15km/h | 21779m | -24.2m/s | -53.2°C | 0.4% | 44.7hPa | 2.7V | 00:00:00 | 00:00:00 | 00:00:00 | |
| OE5DRO-10 | 2026-08-31 12:52:58 | 47.54768 | 19.84341 | 168° | 15km/h | 21897m | -24.1m/s | -53.2°C | 3.2% | 43.9hPa | 2.7V | 00:00:00 | 00:00:00 | 00:00:00 | |
| PETON7-10 | 2026-08-31 12:52:50 | 47.54768 | 19.84369 | 296° | 22km/h | 22128m | -24.9m/s | -53.5°C | 3.3% | 42.5hPa | 2.6V | 00:00:00 | 00:00:00 | 00:00:00 | |
| SQ9EZE-15 | 2026-08-31 12:52:47 | 47.54766 | 19.84374 | 310° | 16km/h | 22153m | -24.1m/s | -53.4°C | 0.4% | 42.3hPa | 2.6V | 08:25:00 | 00:00:00 | 00:00:00 | |
| SQ9EZE-16 | 2026-08-31 12:52:45 | 47.54759 | 19.84381 | 336° | 20km/h | 22200m | -26.3m/s | -53.3°C | 0% | 42.0hPa | 2.6V | 08:25:00 | 00:00:00 | 00:00:00 | |
| OE5DRO-10 | 2026-08-31 12:52:39 | 47.54718 | 19.84396 | 347° | 16km/h | 22356m | -23.0m/s | -53.0°C | 3.2% | 40.9hPa | 2.6V | 00:00:00 | 00:00:00 | 00:00:00 | |
| PETON7-10 | 2026-08-31 12:52:34 | 47.54692 | 19.84405 | 357° | 13km/h | 22463m | -23.0m/s | -52.9°C | 3.1% | 40.2hPa | 2.6V | 00:00:00 | 01:58:15 | 00:00:00 | |
| SQ9EZE-16 | 2026-08-31 12:52:30 | 47.54682 | 19.84402 | 34° | 16km/h | 22535m | -27.0m/s | 0°C | 0% | 39.8hPa | 2.6V | 08:25:00 | 00:00:00 | 00:00:00 | |
| SQ9EZE-15 | 2026-08-31 12:52:27 | 47.54673 | 19.84392 | 34° | 16km/h | 22606m | -21.3m/s | -52.8°C | 0.3% | 39.4hPa | 2.6V | 08:25:00 | 00:00:00 | 00:00:00 | |
| PETON7-10 | 2026-08-31 12:52:19 | 47.54647 | 19.84373 | 360° | 13km/h | 22827m | -26.4m/s | -53.2°C | 3.2% | 38.1hPa | 2.6V | 00:00:00 | 00:00:00 | 00:00:00 | |
| SQ9EZE-16 | 2026-08-31 12:52:13 | 47.54634 | 19.84375 | 327° | 13km/h | 22952m | -24.8m/s | 0°C | 0% | 0hPa | 2.7V | 00:00:00 | 00:00:00 | 00:00:00 | |
| PETON7-10 | 2026-08-31 12:52:04 | 47.54609 | 19.84407 | 13° | 13km/h | 23225m | -27.8m/s | -53.0°C | 3.2% | 35.8hPa | 2.7V | 00:00:00 | 00:00:00 | 00:00:00 | |
| SQ9EZE-16 | 2026-08-31 12:51:59 | 47.54593 | 19.84388 | 56° | 20km/h | 23337m | -21.6m/s | 0°C | 0% | 0hPa | 2.7V | 00:00:00 | 00:00:00 | 00:00:00 | |
| PETON7-10 | 2026-08-31 12:51:49 | 47.54580 | 19.84354 | 356° | 5km/h | 23604m | -32.1m/s | -52.9°C | 3.3% | 33.8hPa | 2.7V | 00:00:00 | 01:57:30 | 00:00:00 | |
| SQ9EZE-16 | 2026-08-31 12:51:41 | 47.54572 | 19.84345 | 70° | 5km/h | 23817m | -30.3m/s | 0°C | 0% | 0hPa | 2.7V | 00:00:00 | 00:00:00 | 00:00:00 | |
| PETON7-10 | 2026-08-31 12:51:35 | 47.54567 | 19.84347 | 330° | 9km/h | 24045m | -29.0m/s | -51.8°C | 3.1% | 31.6hPa | 2.7V | 08:25:00 | 00:00:00 | 00:00:00 | |
| OE5DRO-10 | 2026-08-31 12:51:31 | 47.54562 | 19.84347 | 54° | 11km/h | 24130m | -26.7m/s | -51.8°C | 3.1% | 31.1hPa | 2.6V | 00:00:00 | 00:00:00 | 00:00:00 | |
| OE3JTB-15 | 2026-08-31 12:51:26 | 47.54555 | 19.84338 | 354° | 11km/h | 24302m | -24.8m/s | -51.1°C | 3.0% | 30.2hPa | 2.6V | 00:00:00 | 00:00:00 | 00:00:00 | |
| PETON7-10 | 2026-08-31 12:51:19 | 47.54534 | 19.84345 | 346° | 15km/h | 24421m | -24.0m/s | -50.5°C | 2.8% | 29.7hPa | 2.7V | 00:00:00 | 00:00:00 | 00:00:00 | |
| OE5DRO-10 | 2026-08-31 12:51:12 | 47.54516 | 19.84349 | 31° | 18km/h | 24623m | -28.8m/s | -50.1°C | 2.8% | 28.8hPa | 2.7V | 00:00:00 | 00:00:00 | 00:00:00 | |
| PETON7-10 | 2026-08-31 12:51:04 | 47.54483 | 19.84339 | 2° | 18km/h | 24854m | -29.3m/s | -50.0°C | 2.7% | 27.8hPa | 2.7V | 00:00:00 | 01:56:45 | 00:00:00 | |
| OE5DRO-10 | 2026-08-31 12:50:53 | 47.54447 | 19.84286 | 72° | 11km/h | 25179m | -26.7m/s | -49.9°C | 2.6% | 26.5hPa | 2.7V | 00:00:00 | 00:00:00 | 00:00:00 | |
| GYPAP8-17 | 2026-08-31 12:50:50 | 47.54445 | 19.84274 | 79° | 15km/h | 25238m | -29.9m/s | -50.1°C | 0.2% | 26.3hPa | 2.7V | 00:00:00 | 00:00:00 | 00:00:00 | |
| PETON7-10 | 2026-08-31 12:50:49 | 47.54443 | 19.84265 | 84° | 9km/h | 25297m | -30.9m/s | -50.2°C | 2.8% | 26.0hPa | 2.7V | 00:00:00 | 00:00:00 | 00:00:00 | |
| SQ9EZE-15 | 2026-08-31 12:50:48 | 47.54443 | 19.84265 | 84° | 13km/h | 25297m | -31.0m/s | -50.2°C | 0.2% | 26.1hPa | 2.6V | 08:26:00 | 00:00:00 | 00:00:00 | |
| SP9KGR-15 | 2026-08-31 12:50:47 | 47.54443 | 19.84259 | 86° | 4km/h | 25358m | -29.2m/s | -50.6°C | 0.3% | 25.8hPa | 2.6V | 00:00:00 | 00:00:00 | 00:00:00 | |
| PETON7-10 | 2026-08-31 12:50:34 | 47.54419 | 19.84243 | 70° | 15km/h | 25763m | -33.8m/s | -50.1°C | 2.8% | 24.2hPa | 2.6V | 00:00:00 | 00:00:00 | 00:00:00 | |
| SP9KGR-15 | 2026-08-31 12:50:30 | 47.54418 | 19.84224 | 94° | 18km/h | 25862m | -32.5m/s | -49.8°C | 0.2% | 23.9hPa | 2.6V | 08:27:00 | 00:00:00 | 00:00:00 | |
| PETON7-10 | 2026-08-31 12:50:19 | 47.54438 | 19.84179 | 87° | 4km/h | 26220m | -27.4m/s | -49.6°C | 2.6% | 22.5hPa | 2.6V | 00:00:00 | 01:56:00 | 00:00:00 | |
| OE5DRO-10 | 2026-08-31 12:50:15 | 47.54438 | 19.84175 | 246° | 5km/h | 26330m | -26.2m/s | -49.9°C | 2.7% | 22.2hPa | 2.6V | 00:00:00 | 00:00:00 | 00:00:00 | |
| SP9KGR-15 | 2026-08-31 12:50:11 | 47.54437 | 19.84180 | 288° | 4km/h | 26441m | -30.1m/s | -50.1°C | 0.2% | 21.8hPa | 2.6V | 08:27:00 | 00:00:00 | 00:00:00 | |
| PETON7-10 | 2026-08-31 12:50:04 | 47.54435 | 19.84180 | 130° | 9km/h | 26634m | -28.1m/s | -50.3°C | 2.9% | 21.1hPa | 2.6V | 00:00:00 | 00:00:00 | 00:00:00 | |
| OE5DRO-10 | 2026-08-31 12:49:56 | 47.54437 | 19.84167 | 3° | 11km/h | 26852m | -27.2m/s | -49.8°C | 2.8% | 20.4hPa | 2.6V | 00:00:00 | 00:00:00 | 00:00:00 | |
| SP9KGR-15 | 2026-08-31 12:49:54 | 47.54435 | 19.84166 | 29° | 9km/h | 26879m | -25.7m/s | -49.8°C | 0.3% | 20.4hPa | 2.6V | 08:27:00 | 00:00:00 | 00:00:00 | |
| OE5DRO-10 | 2026-08-31 12:49:37 | 47.54418 | 19.84112 | 23° | 11km/h | 27396m | -24.8m/s | -48.8°C | 2.8% | 18.8hPa | 2.6V | 00:00:00 | 00:00:00 | 00:00:00 | |
| PETON7-10 | 2026-08-31 12:49:33 | 47.54405 | 19.84095 | 51° | 9km/h | 27503m | -26.7m/s | -48.5°C | 2.8% | 18.5hPa | 2.6V | 00:00:00 | 01:55:14 | 00:00:00 | |
| SP9KGR-15 | 2026-08-31 12:49:29 | 47.54402 | 19.84076 | 110° | 13km/h | 27612m | -29.3m/s | -47.8°C | 0.2% | 18.2hPa | 2.6V | 00:00:00 | 00:00:00 | 00:00:00 | |
| GYPAP8-17 | 2026-08-31 12:49:27 | 47.54403 | 19.84072 | 123° | 9km/h | 27642m | -31.5m/s | -47.5°C | 0.2% | 18.2hPa | 2.6V | 00:00:00 | 00:00:00 | 00:00:00 | |
| PETON7-10 | 2026-08-31 12:49:18 | 47.54412 | 19.84051 | 64° | 16km/h | 27941m | -28.2m/s | -46.2°C | 2.3% | 17.2hPa | 2.6V | 08:28:00 | 00:00:00 | 00:00:00 | |
| PETON7-10 | 2026-08-31 12:49:03 | 47.54433 | 19.83963 | 86° | 13km/h | 28320m | -24.6m/s | -45.8°C | 2.4% | 16.3hPa | 2.6V | 00:00:00 | 00:00:00 | 00:00:00 | |
| SP9KGR-15 | 2026-08-31 12:49:02 | 47.54433 | 19.83963 | 86° | 13km/h | 28320m | -24.6m/s | -45.8°C | 0.2% | 16.4hPa | 2.6V | 08:29:00 | 00:00:00 | 00:00:00 | |
| OE5DRO-10 | 2026-08-31 12:48:59 | 47.54430 | 19.83949 | 75° | 15km/h | 28432m | -28.3m/s | -45.8°C | 2.3% | 16.1hPa | 2.6V | 00:00:00 | 00:00:00 | 00:00:00 | |
| SQ9EZE-15 | 2026-08-31 12:48:50 | 47.54436 | 19.83912 | 77° | 15km/h | 28652m | -30.0m/s | -45.1°C | 0.1% | 15.6hPa | 2.6V | 00:00:00 | 00:00:00 | 00:00:00 | |
| PETON7-10 | 2026-08-31 12:48:48 | 47.54432 | 19.83896 | 62° | 16km/h | 28731m | -25.9m/s | -44.8°C | 2.3% | 15.3hPa | 2.6V | 00:00:00 | 01:54:29 | 00:00:00 | |
| SP9KGR-15 | 2026-08-31 12:48:43 | 47.54423 | 19.83872 | 71° | 16km/h | 28841m | -31.8m/s | -44.7°C | 0.1% | 15.1hPa | 2.6V | 08:29:00 | 00:00:00 | 00:00:00 | |
| OE5DRO-10 | 2026-08-31 12:48:40 | 47.54419 | 19.83856 | 56° | 16km/h | 28973m | -33.4m/s | -44.1°C | 2.2% | 14.8hPa | 2.6V | 00:00:00 | 00:00:00 | 00:00:00 | |
| PETON7-10 | 2026-08-31 12:48:33 | 47.54394 | 19.83827 | 44° | 15km/h | 29210m | -32.7m/s | -42.6°C | 2.0% | 14.3hPa | 2.7V | 00:00:00 | 00:00:00 | 00:00:00 | |
| OE5DRO-10 | 2026-08-31 12:48:21 | 47.54374 | 19.83764 | 69° | 13km/h | 29638m | -36.0m/s | -43.3°C | 2.1% | 13.5hPa | 2.6V | 00:00:00 | 00:00:00 | 00:00:00 | |
| SP9KGR-15 | 2026-08-31 12:48:20 | 47.54374 | 19.83764 | 70° | 9km/h | 29638m | -36.0m/s | -43.4°C | 0.1% | 13.5hPa | 2.6V | 08:29:00 | 00:00:00 | 00:00:00 | |
| PETON7-10 | 2026-08-31 12:48:18 | 47.54371 | 19.83752 | 66° | 13km/h | 29750m | -37.2m/s | -42.9°C | 2.1% | 13.1hPa | 2.6V | 00:00:00 | 00:00:00 | 00:00:00 | |
| OE5DXL-15 | 2026-08-31 12:48:17 | 47.54369 | 19.83734 | 92° | 13km/h | 29896m | -38.2m/s | -42.1°C | 2.0% | 12.9hPa | 2.6V | 00:00:00 | 00:00:00 | 00:00:00 | |
| GYPAP8-17 | 2026-08-31 12:48:06 | 47.54363 | 19.83699 | 76° | 16km/h | 30189m | -42.3m/s | -41.1°C | 0.0% | 12.4hPa | 2.6V | 00:00:00 | 00:00:00 | 00:00:00 | |
| SP9KGR-15 | 2026-08-31 12:48:04 | 47.54362 | 19.83693 | 72° | 18km/h | 30231m | -43.6m/s | -41.2°C | 0.0% | 12.4hPa | 2.6V | 00:00:00 | 00:00:00 | 00:00:00 | |
| PETON7-10 | 2026-08-31 12:48:03 | 47.54359 | 19.83680 | 80° | 13km/h | 30319m | -42.4m/s | -41.4°C | 1.8% | 12.1hPa | 2.6V | 00:00:00 | 01:53:44 | 00:00:00 | |
| OE5DRO-10 | 2026-08-31 12:48:02 | 47.54358 | 19.83673 | 83° | 9km/h | 30362m | -43.0m/s | -41.4°C | 1.9% | 12.0hPa | 2.6V | 00:00:00 | 00:00:00 | 00:00:00 | |
| PETON7-10 | 2026-08-31 12:47:48 | 47.54343 | 19.83622 | 46° | 13km/h | 30921m | -43.9m/s | -41.3°C | 1.8% | 11.1hPa | 2.6V | 00:00:00 | 00:00:00 | 00:00:00 | |
| OE5DXL-15 | 2026-08-31 12:47:46 | 47.54343 | 19.83623 | 280° | 13km/h | 31092m | -38.2m/s | -41.9°C | 1.9% | 10.8hPa | 2.7V | 00:00:00 | 00:00:00 | 00:00:00 | |
| OE5DRO-10 | 2026-08-31 12:47:43 | 47.54343 | 19.83624 | 212° | 22km/h | 31130m | -37.4m/s | -42.0°C | 2.0% | 10.7hPa | 2.7V | 00:00:00 | 00:00:00 | 08:30:00 | |
| LZ4TU-5 | 2026-08-31 12:47:38 | 47.54341 | 19.83620 | 41° | 16km/h | 31276m | -38.4m/s | -42.1°C | 0.0% | 10.6hPa | 2.7V | 00:00:00 | 00:00:00 | 00:00:00 | |
| PETON7-10 | 2026-08-31 12:47:34 | 47.54305 | 19.83596 | 18° | 26km/h | 31501m | -43.4m/s | -41.3°C | 1.9% | 10.2hPa | 2.7V | 00:00:00 | 00:00:00 | 00:00:00 | |
| SP9KGR-15 | 2026-08-31 12:47:30 | 47.54293 | 19.83591 | 17° | 22km/h | 31584m | -40.7m/s | -40.8°C | 0.0% | 10.1hPa | 2.7V | 00:00:00 | 00:00:00 | 00:00:00 | |
| OE5DRO-10 | 2026-08-31 12:47:24 | 47.54276 | 19.83531 | 80° | 35km/h | 31867m | -40.5m/s | -39.5°C | 1.7% | 9.6hPa | 2.7V | 00:00:00 | 00:00:00 | 00:00:00 | |
| PETON7-10 | 2026-08-31 12:47:18 | 47.54261 | 19.83481 | 18° | 24km/h | 32111m | -38.2m/s | -38.9°C | 1.6% | 9.2hPa | 2.7V | 00:00:00 | 01:52:59 | 00:00:00 | |
| SP9KGR-15 | 2026-08-31 12:47:14 | 47.54256 | 19.83491 | 277° | 18km/h | 32224m | -39.6m/s | -38.6°C | 0.0% | 9.2hPa | 2.7V | 00:00:00 | 00:00:00 | 00:00:00 | |
| PETON7-10 | 2026-08-31 12:47:03 | 47.54238 | 19.83397 | 41° | 11km/h | 32650m | -41.2m/s | -38.2°C | 1.5% | 8.5hPa | 2.7V | 00:00:00 | 00:00:00 | 08:30:00 | |
| OE5DRO-10 | 2026-08-31 12:46:56 | 47.54226 | 19.83396 | 54° | 20km/h | 32724m | 6.4m/s | -38.4°C | 1.6% | 8.4hPa | 2.7V | 00:00:00 | 00:00:00 | 00:00:00 | |
| PETON7-10 | 2026-08-31 12:46:48 | 47.54223 | 19.83360 | 62° | 15km/h | 32680m | 8.7m/s | -38.1°C | 1.5% | 8.5hPa | 2.7V | 00:00:00 | 00:00:00 | 00:00:00 | |
| OE5DXL-15 | 2026-08-31 12:46:43 | 47.54210 | 19.83335 | 120° | 18km/h | 32628m | 7.3m/s | -38.0°C | 1.5% | 8.5hPa | 2.7V | 00:00:00 | 00:00:00 | 00:00:00 | |
| SP9KGR-15 | 2026-08-31 12:46:40 | 47.54210 | 19.83335 | 120° | 15km/h | 32628m | 7.4m/s | -38.0°C | 0.0% | 8.6hPa | 2.7V | 00:00:00 | 00:00:00 | 00:00:00 | |
| PETON7-10 | 2026-08-31 12:46:33 | 47.54224 | 19.83308 | 174° | 15km/h | 32569m | 6.8m/s | -38.4°C | 1.6% | 8.6hPa | 2.7V | 00:00:00 | 01:52:14 | 00:00:00 | |
| PETON7-10 | 2026-08-31 12:46:18 | 47.54235 | 19.83249 | 317° | 18km/h | 32459m | 6.7m/s | -38.8°C | 1.6% | 8.7hPa | 2.7V | 00:00:00 | 00:00:00 | 00:00:00 | |
| SP9KGR-15 | 2026-08-31 12:46:17 | 47.54235 | 19.83249 | 318° | 7km/h | 32459m | 6.7m/s | -38.8°C | 0.0% | 8.8hPa | 2.7V | 00:00:00 | 00:00:00 | 00:00:00 | |
| OE5DXL-15 | 2026-08-31 12:46:12 | 47.54208 | 19.83226 | 96° | 24km/h | 32401m | 7.4m/s | -38.5°C | 1.6% | 8.8hPa | 2.7V | 00:00:00 | 00:00:00 | 00:00:00 | |
| PETON7-10 | 2026-08-31 12:46:03 | 47.54194 | 19.83196 | 347° | 24km/h | 32348m | 6.5m/s | -38.5°C | 1.6% | 8.9hPa | 2.7V | 00:00:00 | 00:00:00 | 00:00:00 | |
| SP9KGR-15 | 2026-08-31 12:45:57 | 47.54168 | 19.83186 | 51° | 26km/h | 32313m | 6.9m/s | -38.8°C | 0.0% | 9.0hPa | 2.7V | 00:00:00 | 00:00:00 | 00:00:00 | |
| PETON7-10 | 2026-08-31 12:45:48 | 47.54131 | 19.83123 | 344° | 20km/h | 32239m | 5.7m/s | -38.6°C | 1.6% | 9.0hPa | 2.7V | 00:00:00 | 01:51:29 | 00:00:00 | |
| LZ4TU-5 | 2026-08-31 12:45:43 | 47.54113 | 19.83119 | 47° | 20km/h | 32211m | 6.0m/s | -38.5°C | 0% | 9.1hPa | 2.7V | 00:00:00 | 00:00:00 | 00:00:00 | |
| OE5DRO-10 | 2026-08-31 12:45:41 | 47.54110 | 19.83097 | 101° | 24km/h | 32187m | 6.5m/s | -38.5°C | 1.5% | 9.1hPa | 2.7V | 00:00:00 | 00:00:00 | 00:00:00 | |
| OE5DXL-15 | 2026-08-31 12:45:39 | 47.54109 | 19.83061 | 68° | 22km/h | 32159m | 4.9m/s | -38.8°C | 1.6% | 9.1hPa | 2.6V | 00:00:00 | 00:00:00 | 08:30:00 | |
| SP9KGR-15 | 2026-08-31 12:45:35 | 47.54106 | 19.83050 | 70° | 9km/h | 32145m | 9.0m/s | -38.8°C | 0.0% | 9.2hPa | 2.6V | 00:00:00 | 00:00:00 | 00:00:00 | |
| PETON7-10 | 2026-08-31 12:45:33 | 47.54105 | 19.83046 | 63° | 24km/h | 32130m | 6.4m/s | -38.7°C | 1.6% | 9.2hPa | 2.6V | 00:00:00 | 00:00:00 | 00:00:00 | |
| OE5DRO-10 | 2026-08-31 12:45:21 | 47.54106 | 19.82943 | 85° | 29km/h | 32041m | 8.2m/s | -39.2°C | 1.7% | 9.3hPa | 2.6V | 00:00:00 | 00:00:00 | 00:00:00 | |
| PETON7-10 | 2026-08-31 12:45:19 | 47.54105 | 19.82919 | 81° | 27km/h | 32020m | 6.0m/s | -39.3°C | 1.6% | 9.3hPa | 2.6V | 00:00:00 | 00:00:00 | 00:00:00 | |
| OE5DRO-10 | 2026-08-31 12:45:02 | 47.54085 | 19.82763 | 71° | 29km/h | 31906m | 10.0m/s | -39.5°C | 1.6% | 9.5hPa | 2.6V | 00:00:00 | 00:00:00 | 00:00:00 | |
| SQ9EZE-15 | 2026-08-31 12:44:59 | 47.54079 | 19.82749 | 56° | 22km/h | 31892m | 5.7m/s | -39.7°C | 0.0% | 9.6hPa | 2.6V | 00:00:00 | 00:00:00 | 00:00:00 | |
| SQ9EZE-16 | 2026-08-31 12:44:52 | 47.54065 | 19.82663 | 84° | 46km/h | 31842m | 5.8m/s | -39.9°C | 0.0% | 9.6hPa | 2.6V | 00:00:00 | 00:00:00 | 00:00:00 | |
| GYPAP8-17 | 2026-08-31 12:44:49 | 47.54064 | 19.82621 | 89° | 27km/h | 31821m | 5.5m/s | -40.0°C | 0.0% | 9.6hPa | 2.6V | 00:00:00 | 00:00:00 | 00:00:00 | |
| OE5DRO-10 | 2026-08-31 12:44:43 | 47.54043 | 19.82587 | 49° | 31km/h | 31770m | 6.4m/s | -40.2°C | 1.7% | 9.7hPa | 2.6V | 00:00:00 | 00:00:00 | 00:00:00 | |
| SQ9EZE-16 | 2026-08-31 12:44:35 | 47.54013 | 19.82512 | 53° | 22km/h | 31721m | 5.0m/s | -40.7°C | 0.0% | 9.8hPa | 2.7V | 00:00:00 | 00:00:00 | 00:00:00 | |
| PETON7-10 | 2026-08-31 12:44:33 | 47.53997 | 19.82502 | 3° | 31km/h | 31699m | 7.5m/s | -40.7°C | 1.8% | 9.8hPa | 2.7V | 00:00:00 | 00:00:00 | 00:00:00 | |
| SP9KGR-15 | 2026-08-31 12:44:30 | 47.53980 | 19.82502 | 3° | 31km/h | 31685m | 7.6m/s | -40.8°C | 0.0% | 9.9hPa | 2.7V | 00:00:00 | 00:00:00 | 00:00:00 | |
| OE5DRO-10 | 2026-08-31 12:44:24 | 47.53925 | 19.82468 | 36° | 26km/h | 31635m | 8.4m/s | -40.5°C | 1.7% | 9.8hPa | 2.7V | 00:00:00 | 00:00:00 | 00:00:00 | |
| SQ9EZE-16 | 2026-08-31 12:44:20 | 47.53908 | 19.82450 | 24° | 26km/h | 31614m | 6.2m/s | -40.9°C | 0.0% | 10.0hPa | 2.7V | 00:00:00 | 00:00:00 | 00:00:00 | |
| PETON7-10 | 2026-08-31 12:44:18 | 47.53885 | 19.82447 | 353° | 26km/h | 31592m | 5.7m/s | -40.7°C | 1.7% | 9.9hPa | 2.7V | 00:00:00 | 01:49:59 | 00:00:00 | |
| OE5DXL-15 | 2026-08-31 12:44:16 | 47.53857 | 19.82449 | 10° | 24km/h | 31563m | 6.8m/s | -41.5°C | 1.9% | 10.0hPa | 2.7V | 00:00:00 | 00:00:00 | 00:00:00 | |
| SP9KGR-15 | 2026-08-31 12:44:13 | 47.53856 | 19.82449 | 10° | 26km/h | 31563m | 6.8m/s | -41.5°C | 0.1% | 10.0hPa | 2.7V | 00:00:00 | 00:00:00 | 00:00:00 | |
| OE5DRO-10 | 2026-08-31 12:44:05 | 47.53812 | 19.82412 | 356° | 22km/h | 31502m | 8.6m/s | -41.3°C | 1.8% | 10.1hPa | 2.7V | 00:00:00 | 00:00:00 | 00:00:00 | |
| SQ9EZE-16 | 2026-08-31 12:44:04 | 47.53812 | 19.82412 | 357° | 22km/h | 31502m | 8.6m/s | -41.3°C | 0.1% | 10.1hPa | 2.7V | 00:00:00 | 00:00:00 | 00:00:00 | |
| PETON7-10 | 2026-08-31 12:44:03 | 47.53800 | 19.82418 | 331° | 22km/h | 31487m | 6.4m/s | -41.2°C | 1.8% | 10.1hPa | 2.7V | 00:00:00 | 00:00:00 | 00:00:00 | |
| SP9KGR-15 | 2026-08-31 12:43:57 | 47.53781 | 19.82427 | 30° | 18km/h | 31454m | 8.0m/s | -41.5°C | 0.1% | 10.2hPa | 2.6V | 00:00:00 | 00:00:00 | 00:00:00 | |
| PETON7-10 | 2026-08-31 12:43:48 | 47.53751 | 19.82358 | 14° | 15km/h | 31386m | 6.7m/s | -41.9°C | 1.9% | 10.3hPa | 2.6V | 00:00:00 | 00:00:00 | 00:00:00 | |
| OE5DXL-15 | 2026-08-31 12:43:47 | 47.53741 | 19.82358 | 345° | 11km/h | 31365m | 5.6m/s | -41.6°C | 1.8% | 10.2hPa | 2.6V | 00:00:00 | 00:00:00 | 00:00:00 | |
| OE5DRO-10 | 2026-08-31 12:43:46 | 47.53741 | 19.82358 | 345° | 13km/h | 31365m | 5.6m/s | -41.6°C | 1.8% | 10.2hPa | 2.6V | 00:00:00 | 00:00:00 | 08:30:00 | |
| LZ4TU-5 | 2026-08-31 12:43:45 | 47.53741 | 19.82358 | 345° | 11km/h | 31365m | 5.6m/s | -41.7°C | 0% | 10.3hPa | 2.7V | 00:00:00 | 00:00:00 | 00:00:00 | |
| SP9KGR-15 | 2026-08-31 12:43:40 | 47.53728 | 19.82352 | 47° | 18km/h | 31339m | 6.0m/s | -42.0°C | 0.0% | 10.4hPa | 2.7V | 00:00:00 | 00:00:00 | 00:00:00 | |
| PETON7-10 | 2026-08-31 12:43:33 | 47.53711 | 19.82348 | 310° | 13km/h | 31283m | 6.6m/s | -42.2°C | 1.9% | 10.4hPa | 2.7V | 00:00:00 | 01:49:14 | 00:00:00 | |
| SQ9EZE-16 | 2026-08-31 12:43:30 | 47.53706 | 19.82361 | 290° | 16km/h | 31269m | 6.6m/s | -42.3°C | 0.1% | 10.5hPa | 2.7V | 00:00:00 | 00:00:00 | 00:00:00 | |
| OE5DRO-10 | 2026-08-31 12:43:27 | 47.53701 | 19.82368 | 54° | 15km/h | 31241m | 5.2m/s | -42.2°C | 1.9% | 10.5hPa | 2.7V | 00:00:00 | 00:00:00 | 00:00:00 | |
| SP9KGR-15 | 2026-08-31 12:43:25 | 47.53699 | 19.82365 | 75° | 9km/h | 31236m | 4.4m/s | -42.3°C | 0.1% | 10.5hPa | 2.7V | 00:00:00 | 00:00:00 | 00:00:00 | |
| GYPAP8-17 | 2026-08-31 12:43:23 | 47.53700 | 19.82360 | 168° | 4km/h | 31222m | 7.5m/s | -42.1°C | 0.1% | 10.6hPa | 2.7V | 00:00:00 | 00:00:00 | 00:00:00 | |
| PETON7-10 | 2026-08-31 12:43:18 | 47.53689 | 19.82391 | 307° | 13km/h | 31181m | 7.0m/s | -42.0°C | 1.9% | 10.6hPa | 2.7V | 00:00:00 | 00:00:00 | 00:00:00 | |
| OE5DXL-15 | 2026-08-31 12:43:16 | 47.53686 | 19.82388 | 83° | 11km/h | 31154m | 8.5m/s | -42.1°C | 2.0% | 10.6hPa | 2.7V | 00:00:00 | 00:00:00 | 00:00:00 | |
| SQ9EZE-16 | 2026-08-31 12:43:12 | 47.53685 | 19.82381 | 85° | 22km/h | 31146m | 6.8m/s | -42.0°C | 0.1% | 10.7hPa | 2.7V | 00:00:00 | 00:00:00 | 00:00:00 | |
| SP9KGR-15 | 2026-08-31 12:43:09 | 47.53688 | 19.82359 | 129° | 16km/h | 31126m | 7.4m/s | -41.9°C | 0.1% | 10.7hPa | 2.7V | 00:00:00 | 00:00:00 | 00:00:00 | |
| OE5DRO-10 | 2026-08-31 12:43:08 | 47.53692 | 19.82356 | 221° | 13km/h | 31114m | 5.6m/s | -41.9°C | 1.9% | 10.7hPa | 2.7V | 00:00:00 | 00:00:00 | 00:00:00 | |
| PETON7-10 | 2026-08-31 12:43:03 | 47.53682 | 19.82366 | 5° | 13km/h | 31080m | 7.0m/s | -41.7°C | 1.9% | 10.8hPa | 2.7V | 00:00:00 | 00:00:00 | 00:00:00 | |
| SQ9EZE-16 | 2026-08-31 12:42:56 | 47.53686 | 19.82336 | 99° | 18km/h | 31036m | 6.1m/s | -41.6°C | 0.1% | 10.9hPa | 2.7V | 00:00:00 | 00:00:00 | 00:00:00 | |
| SP9KGR-15 | 2026-08-31 12:42:53 | 47.53689 | 19.82324 | 171° | 7km/h | 31016m | 7.0m/s | -41.6°C | 0.1% | 10.8hPa | 2.7V | 00:00:00 | 00:00:00 | 00:00:00 | |
| OE5DRO-10 | 2026-08-31 12:42:49 | 47.53682 | 19.82330 | 20° | 7km/h | 30981m | 4.4m/s | 0°C | 0% | 0hPa | 2.7V | 00:00:00 | 00:00:00 | 00:00:00 | |
| PETON7-10 | 2026-08-31 12:42:48 | 47.53680 | 19.82328 | 40° | 7km/h | 30975m | 7.9m/s | -41.5°C | 1.9% | 10.9hPa | 2.6V | 00:00:00 | 01:48:29 | 00:00:00 | |
| OE5DXL-15 | 2026-08-31 12:42:45 | 47.53680 | 19.82321 | 43° | 9km/h | 30938m | 7.3m/s | -41.3°C | 1.8% | 10.9hPa | 2.6V | 00:00:00 | 00:00:00 | 00:00:00 | |
| SP9KGR-15 | 2026-08-31 12:42:37 | 47.53677 | 19.82322 | 326° | 9km/h | 30904m | 7.2m/s | -41.4°C | 0.1% | 11.0hPa | 2.6V | 00:00:00 | 00:00:00 | 00:00:00 | |
| PETON7-10 | 2026-08-31 12:42:33 | 47.53661 | 19.82331 | 335° | 7km/h | 30867m | 6.0m/s | -41.2°C | 1.8% | 11.1hPa | 2.6V | 00:00:00 | 00:00:00 | 08:30:00 | |
| OE5DRO-10 | 2026-08-31 12:42:30 | 47.53658 | 19.82332 | 25° | 15km/h | 30846m | 8.3m/s | -41.3°C | 1.8% | 11.1hPa | 2.6V | 00:00:00 | 00:00:00 | 00:00:00 | |
| SP9KGR-15 | 2026-08-31 12:42:21 | 47.53653 | 19.82316 | 2° | 15km/h | 30787m | 5.8m/s | -41.5°C | 0.1% | 11.3hPa | 2.6V | 00:00:00 | 00:00:00 | 00:00:00 | |
| PETON7-10 | 2026-08-31 12:42:18 | 47.53643 | 19.82311 | 71° | 16km/h | 30760m | 6.3m/s | -41.5°C | 1.9% | 11.2hPa | 2.6V | 00:00:00 | 00:00:00 | 00:00:00 | |
| SQ9EZE-16 | 2026-08-31 12:42:17 | 47.53642 | 19.82306 | 73° | 18km/h | 30753m | 8.5m/s | -41.5°C | 0.1% | 11.3hPa | 2.6V | 00:00:00 | 00:00:00 | 00:00:00 | |
| OE5DXL-15 | 2026-08-31 12:42:11 | 47.53641 | 19.82251 | 49° | 22km/h | 30691m | 8.2m/s | -41.5°C | 1.9% | 11.4hPa | 2.6V | 00:00:00 | 00:00:00 | 00:00:00 | |
| SP9KGR-15 | 2026-08-31 12:42:07 | 47.53636 | 19.82245 | 31° | 15km/h | 30677m | 6.8m/s | 0°C | 0% | 11.5hPa | 2.6V | 00:00:00 | 00:00:00 | 00:00:00 | |
| PETON7-10 | 2026-08-31 12:42:03 | 47.53626 | 19.82234 | 44° | 26km/h | 30649m | 8.3m/s | -41.4°C | 1.9% | 11.5hPa | 2.6V | 00:00:00 | 01:47:44 | 00:00:00 | |
| OE5DRO-10 | 2026-08-31 12:42:01 | 47.53619 | 19.82223 | 58° | 26km/h | 30633m | 6.3m/s | -41.4°C | 1.9% | 11.5hPa | 2.6V | 00:00:00 | 00:00:00 | 00:00:00 | |
| SP9KGR-15 | 2026-08-31 12:41:50 | 47.53610 | 19.82125 | 74° | 20km/h | 30560m | 8.1m/s | 0°C | 0% | 11.7hPa | 2.6V | 00:00:00 | 00:00:00 | 00:00:00 | |
| PETON7-10 | 2026-08-31 12:41:47 | 47.53599 | 19.82100 | 49° | 24km/h | 30530m | 6.3m/s | -40.9°C | 1.8% | 11.6hPa | 2.6V | 00:00:00 | 00:00:00 | 00:00:00 | |
| OE5DRO-10 | 2026-08-31 12:41:42 | 47.53590 | 19.82050 | 92° | 26km/h | 30494m | 6.9m/s | -40.7°C | 1.8% | 11.7hPa | 2.7V | 00:00:00 | 00:00:00 | 00:00:00 | |
| SQ9EZE-16 | 2026-08-31 12:41:41 | 47.53590 | 19.82050 | 93° | 33km/h | 30494m | 7.0m/s | -40.8°C | 0.0% | 11.8hPa | 2.7V | 00:00:00 | 00:00:00 | 00:00:00 | |
| SP9KGR-15 | 2026-08-31 12:41:36 | 47.53582 | 19.81998 | 40° | 13km/h | 30449m | 5.2m/s | 0°C | 0% | 11.8hPa | 2.7V | 00:00:00 | 00:00:00 | 00:00:00 | |
| PETON7-10 | 2026-08-31 12:41:32 | 47.53564 | 19.81990 | 21° | 22km/h | 30421m | 5.9m/s | -40.5°C | 1.7% | 11.8hPa | 2.7V | 00:00:00 | 00:00:00 | 00:00:00 | |
| SQ9EZE-16 | 2026-08-31 12:41:25 | 47.53553 | 19.81925 | 88° | 38km/h | 30370m | 5.4m/s | -40.8°C | 0.1% | 12.0hPa | 2.7V | 00:00:00 | 00:00:00 | 00:00:00 | |
| SP9KGR-15 | 2026-08-31 12:41:19 | 47.53547 | 19.81892 | 358° | 16km/h | 30334m | 10.3m/s | 0°C | 0% | 12.1hPa | 2.7V | 00:00:00 | 00:00:00 | 00:00:00 | |
| PETON7-10 | 2026-08-31 12:41:17 | 47.53531 | 19.81895 | 355° | 24km/h | 30311m | 6.9m/s | -41.0°C | 1.9% | 12.0hPa | 2.7V | 00:00:00 | 01:46:58 | 00:00:00 | |
| GYPAP8-17 | 2026-08-31 12:41:11 | 47.53522 | 19.81865 | 93° | 35km/h | 30272m | 7.8m/s | -41.1°C | 0.0% | 12.2hPa | 2.7V | 00:00:00 | 00:00:00 | 00:00:00 | |
| SQ9EZE-16 | 2026-08-31 12:41:09 | 47.53523 | 19.81840 | 100° | 31km/h | 30257m | 7.4m/s | -41.0°C | 0.1% | 12.2hPa | 2.7V | 00:00:00 | 00:00:00 | 00:00:00 | |
| SP9KGR-15 | 2026-08-31 12:41:04 | 47.53513 | 19.81818 | 8° | 26km/h | 30221m | 7.7m/s | 0°C | 0% | 12.2hPa | 2.7V | 00:00:00 | 00:00:00 | 00:00:00 | |
| PETON7-10 | 2026-08-31 12:41:02 | 47.53494 | 19.81812 | 22° | 18km/h | 30201m | 7.0m/s | -40.7°C | 1.8% | 12.2hPa | 2.7V | 00:00:00 | 00:00:00 | 00:00:00 | |
| OE5DRO-10 | 2026-08-31 12:40:57 | 47.53490 | 19.81787 | 98° | 16km/h | 30164m | 7.4m/s | -40.6°C | 1.8% | 12.3hPa | 2.6V | 00:00:00 | 00:00:00 | 00:00:00 | |
| SQ9EZE-16 | 2026-08-31 12:40:53 | 47.53494 | 19.81764 | 120° | 20km/h | 30143m | 8.5m/s | -40.6°C | 0.1% | 12.4hPa | 2.6V | 00:00:00 | 00:00:00 | 00:00:00 | |
| PETON7-10 | 2026-08-31 12:40:47 | 47.53488 | 19.81727 | 30° | 15km/h | 30091m | 9.6m/s | -40.6°C | 1.8% | 12.4hPa | 2.6V | 00:00:00 | 00:00:00 | 00:00:00 | |
| SP9KGR-15 | 2026-08-31 12:40:42 | 47.53484 | 19.81708 | 109° | 16km/h | 30055m | 5.8m/s | 0°C | 0% | 12.5hPa | 2.6V | 00:00:00 | 00:00:00 | 00:00:00 | |
| OE5DRO-10 | 2026-08-31 12:40:38 | 47.53491 | 19.81689 | 104° | 16km/h | 30026m | 7.9m/s | -40.7°C | 1.7% | 12.6hPa | 2.6V | 00:00:00 | 00:00:00 | 00:00:00 | |
| PETON7-10 | 2026-08-31 12:40:32 | 47.53483 | 19.81656 | 82° | 16km/h | 29984m | 5.6m/s | -41.0°C | 1.8% | 12.7hPa | 2.6V | 00:00:00 | 01:46:13 | 00:00:00 | |
| SQ9EZE-16 | 2026-08-31 12:40:27 | 47.53485 | 19.81626 | 108° | 22km/h | 29954m | 7.0m/s | -41.1°C | 0.1% | 12.7hPa | 2.6V | 00:00:00 | 00:00:00 | 00:00:00 | |
| SP9KGR-15 | 2026-08-31 12:40:23 | 47.53487 | 19.81605 | 70° | 15km/h | 29923m | 9.4m/s | 0°C | 0% | 12.8hPa | 2.6V | 00:00:00 | 00:00:00 | 00:00:00 | |
| PETON7-10 | 2026-08-31 12:40:17 | 47.53474 | 19.81573 | 100° | 20km/h | 29871m | 8.5m/s | -41.1°C | 1.8% | 12.9hPa | 2.6V | 00:00:00 | 00:00:00 | 08:30:00 | |
| OE5DRO-10 | 2026-08-31 12:40:16 | 47.53475 | 19.81564 | 109° | 18km/h | 29864m | 6.9m/s | -41.2°C | 1.8% | 12.9hPa | 2.6V | 00:00:00 | 00:00:00 | 08:30:00 | |
| SQ9EZE-15 | 2026-08-31 12:40:13 | 47.53480 | 19.81549 | 120° | 20km/h | 29849m | 8.6m/s | -41.3°C | 0.1% | 12.9hPa | 2.7V | 00:00:00 | 00:00:00 | 00:00:00 | |
| SQ9EZE-16 | 2026-08-31 12:40:11 | 47.53483 | 19.81538 | 91° | 13km/h | 29836m | 5.0m/s | -41.4°C | 0.1% | 13.0hPa | 2.7V | 00:00:00 | 00:00:00 | 00:00:00 | |
| SP9KGR-15 | 2026-08-31 12:40:07 | 47.53473 | 19.81515 | 37° | 24km/h | 29806m | 7.5m/s | 0°C | 0% | 0hPa | 2.7V | 00:00:00 | 00:00:00 | 00:00:00 | |
| PETON7-10 | 2026-08-31 12:40:02 | 47.53450 | 19.81489 | 79° | 16km/h | 29762m | 6.3m/s | -42.0°C | 1.9% | 13.1hPa | 2.7V | 00:00:00 | 00:00:00 | 00:00:00 | |
| GYPAP8-17 | 2026-08-31 12:39:59 | 47.53450 | 19.81477 | 102° | 13km/h | 29747m | 7.8m/s | -42.0°C | 0.1% | 13.1hPa | 2.7V | 00:00:00 | 00:00:00 | 00:00:00 | |
| SQ9EZE-16 | 2026-08-31 12:39:52 | 47.53438 | 19.81431 | 56° | 24km/h | 29701m | 6.4m/s | -42.2°C | 0.1% | 13.3hPa | 2.7V | 00:00:00 | 00:00:00 | 00:00:00 | |
| OE5DRO-10 | 2026-08-31 12:39:50 | 47.53434 | 19.81415 | 129° | 16km/h | 29674m | 5.9m/s | -42.2°C | 1.9% | 13.3hPa | 2.7V | 00:00:00 | 00:00:00 | 00:00:00 | |
| PETON7-10 | 2026-08-31 12:39:47 | 47.53438 | 19.81406 | 114° | 16km/h | 29660m | 7.0m/s | -42.2°C | 1.9% | 13.3hPa | 2.7V | 00:00:00 | 01:45:28 | 00:00:00 | |
| SQ9EZE-16 | 2026-08-31 12:39:37 | 47.53432 | 19.81359 | 100° | 15km/h | 29597m | 7.6m/s | -42.8°C | 0.1% | 13.4hPa | 2.7V | 00:00:00 | 00:00:00 | 00:00:00 | |
| SP9KGR-15 | 2026-08-31 12:39:34 | 47.53439 | 19.81348 | 146° | 18km/h | 29576m | 6.4m/s | 0°C | 0% | 0hPa | 2.7V | 00:00:00 | 00:00:00 | 00:00:00 | |
| PETON7-10 | 2026-08-31 12:39:32 | 47.53451 | 19.81330 | 128° | 20km/h | 29554m | 5.1m/s | -42.7°C | 2.0% | 13.5hPa | 2.7V | 00:00:00 | 00:00:00 | 00:00:00 | |
| OE5DRO-10 | 2026-08-31 12:39:30 | 47.53457 | 19.81317 | 114° | 20km/h | 29541m | 6.9m/s | -42.6°C | 2.0% | 13.5hPa | 2.6V | 00:00:00 | 00:00:00 | 00:00:00 | |
| SQ9EZE-16 | 2026-08-31 12:39:21 | 47.53437 | 19.81263 | 84° | 15km/h | 29487m | 7.2m/s | -42.5°C | 0.1% | 13.7hPa | 2.6V | 00:00:00 | 00:00:00 | 00:00:00 | |
| SP9KGR-15 | 2026-08-31 12:39:19 | 47.53439 | 19.81254 | 126° | 15km/h | 29474m | 6.2m/s | 0°C | 0% | 0hPa | 2.6V | 00:00:00 | 00:00:00 | 00:00:00 | |
| PETON7-10 | 2026-08-31 12:39:17 | 47.53443 | 19.81235 | 81° | 22km/h | 29455m | 5.3m/s | -42.4°C | 1.9% | 13.7hPa | 2.6V | 00:00:00 | 00:00:00 | 00:00:00 | |
| LZ4TU-5 | 2026-08-31 12:39:15 | 47.53442 | 19.81229 | 62° | 20km/h | 29449m | 6.7m/s | -42.5°C | 0% | 13.8hPa | 2.6V | 00:00:00 | 00:00:00 | 00:00:00 | |
| OE5DRO-10 | 2026-08-31 12:39:11 | 47.53423 | 19.81198 | 65° | 24km/h | 29415m | 6.1m/s | -42.5°C | 1.9% | 13.8hPa | 2.6V | 00:00:00 | 00:00:00 | 00:00:00 | |
| LZ4TU-5 | 2026-08-31 12:39:10 | 47.53423 | 19.81198 | 65° | 20km/h | 29415m | 6.1m/s | -42.5°C | 0% | 13.8hPa | 2.7V | 00:00:00 | 00:00:00 | 00:00:00 | |
| SQ9EZE-16 | 2026-08-31 12:39:05 | 47.53413 | 19.81171 | 64° | 22km/h | 29381m | 8.7m/s | -42.5°C | 0.1% | 13.9hPa | 2.7V | 00:00:00 | 00:00:00 | 00:00:00 | |
| OE5DXL-15 | 2026-08-31 12:39:04 | 47.53395 | 19.81134 | 42° | 15km/h | 29354m | 9.9m/s | -42.4°C | 1.9% | 13.9hPa | 2.7V | 00:00:00 | 00:00:00 | 00:00:00 | |
| PETON7-10 | 2026-08-31 12:39:02 | 47.53395 | 19.81134 | 42° | 26km/h | 29354m | 9.9m/s | -42.4°C | 1.9% | 13.9hPa | 2.7V | 00:00:00 | 01:44:43 | 00:00:00 | |
| SP9KGR-15 | 2026-08-31 12:39:01 | 47.53395 | 19.81134 | 43° | 33km/h | 29354m | 9.9m/s | 0°C | 0% | 0hPa | 2.7V | 00:00:00 | 00:00:00 | 00:00:00 | |
| GYPAP8-17 | 2026-08-31 12:38:56 | 47.53374 | 19.81105 | 56° | 22km/h | 29321m | 4.6m/s | -42.4°C | 0.1% | 14.0hPa | 2.7V | 00:00:00 | 00:00:00 | 00:00:00 | |
| OE5DRO-10 | 2026-08-31 12:38:52 | 47.53351 | 19.81067 | 55° | 20km/h | 29285m | 9.5m/s | -42.5°C | 1.9% | 14.0hPa | 2.7V | 00:00:00 | 00:00:00 | 00:00:00 | |
| SQ9EZE-16 | 2026-08-31 12:38:49 | 47.53344 | 19.81051 | 54° | 22km/h | 29272m | 5.6m/s | -42.5°C | 0.1% | 14.1hPa | 2.7V | 00:00:00 | 00:00:00 | 00:00:00 | |
| PETON7-10 | 2026-08-31 12:38:47 | 47.53332 | 19.81038 | 21° | 18km/h | 29250m | 3.8m/s | -42.4°C | 1.9% | 14.1hPa | 2.7V | 00:00:00 | 00:00:00 | 00:00:00 | |
| SP9KGR-15 | 2026-08-31 12:38:43 | 47.53323 | 19.81029 | 59° | 15km/h | 29229m | 5.1m/s | 0°C | 0% | 0hPa | 2.7V | 00:00:00 | 00:00:00 | 00:00:00 | |
| SQ9EZE-16 | 2026-08-31 12:38:34 | 47.53295 | 19.80973 | 39° | 15km/h | 29167m | 8.6m/s | -42.9°C | 0.1% | 14.4hPa | 2.7V | 00:00:00 | 00:00:00 | 00:00:00 | |
| OE5DRO-10 | 2026-08-31 12:38:33 | 47.53290 | 19.80970 | 6° | 13km/h | 29154m | 6.4m/s | -42.9°C | 1.9% | 14.2hPa | 2.7V | 00:00:00 | 00:00:00 | 00:00:00 | |
| PETON7-10 | 2026-08-31 12:38:32 | 47.53289 | 19.80970 | 350° | 15km/h | 29146m | 9.0m/s | -43.0°C | 1.9% | 14.4hPa | 2.7V | 00:00:00 | 00:00:00 | 00:00:00 | |
| SP9KGR-15 | 2026-08-31 12:38:25 | 47.53284 | 19.80958 | 75° | 18km/h | 29103m | 8.3m/s | 0°C | 0% | 0hPa | 2.7V | 00:00:00 | 00:00:00 | 00:00:00 | |
| PETON7-10 | 2026-08-31 12:38:17 | 47.53269 | 19.80894 | 71° | 16km/h | 29043m | 5.8m/s | -43.9°C | 2.1% | 14.6hPa | 2.7V | 00:00:00 | 01:43:58 | 00:00:00 | |
| SQ9EZE-16 | 2026-08-31 12:38:15 | 47.53268 | 19.80893 | 14° | 5km/h | 29036m | 7.9m/s | -44.1°C | 0.1% | 14.6hPa | 2.7V | 00:00:00 | 00:00:00 | 00:00:00 | |
| OE5DRO-10 | 2026-08-31 12:38:14 | 47.53264 | 19.80893 | 354° | 11km/h | 29021m | 5.4m/s | -44.2°C | 2.1% | 14.6hPa | 2.7V | 00:00:00 | 00:00:00 | 00:00:00 | |
| SP9KGR-15 | 2026-08-31 12:38:10 | 47.53256 | 19.80890 | 59° | 13km/h | 28999m | 7.4m/s | 0°C | 0% | 0hPa | 2.6V | 00:00:00 | 00:00:00 | 00:00:00 | |
| PETON7-10 | 2026-08-31 12:38:02 | 47.53235 | 19.80832 | 118° | 13km/h | 28937m | 7.0m/s | -44.7°C | 2.1% | 14.8hPa | 2.6V | 00:00:00 | 00:00:00 | 08:30:00 | |
| SQ9EZE-16 | 2026-08-31 12:37:57 | 47.53231 | 19.80827 | 22° | 11km/h | 28910m | 6.1m/s | -44.9°C | 0.1% | 14.9hPa | 2.6V | 00:00:00 | 00:00:00 | 00:00:00 | |
| OE5DRO-10 | 2026-08-31 12:37:54 | 47.53224 | 19.80817 | 49° | 15km/h | 28881m | 7.5m/s | -44.8°C | 2.2% | 14.9hPa | 2.6V | 00:00:00 | 00:00:00 | 00:00:00 | |
| GYPAP8-17 | 2026-08-31 12:37:51 | 47.53218 | 19.80808 | 48° | 20km/h | 28866m | 5.6m/s | -44.8°C | 0.1% | 15.0hPa | 2.6V | 00:00:00 | 00:00:00 | 00:00:00 | |
| PETON7-10 | 2026-08-31 12:37:47 | 47.53214 | 19.80780 | 97° | 15km/h | 28833m | 7.1m/s | -44.8°C | 2.1% | 15.0hPa | 2.6V | 00:00:00 | 00:00:00 | 00:00:00 | |
| SQ9EZE-16 | 2026-08-31 12:37:43 | 47.53212 | 19.80766 | 75° | 4km/h | 28805m | 8.4m/s | -45.0°C | 0.1% | 15.1hPa | 2.6V | 00:00:00 | 00:00:00 | 00:00:00 | |
| OE5DXL-15 | 2026-08-31 12:37:42 | 47.53214 | 19.80761 | 97° | 16km/h | 28786m | 6.1m/s | -44.9°C | 0% | 15.1hPa | 2.6V | 00:00:00 | 00:00:00 | 00:00:00 | |
| OE5DRO-10 | 2026-08-31 12:37:36 | 47.53210 | 19.80723 | 92° | 13km/h | 28750m | 7.3m/s | -45.1°C | 2.2% | 15.2hPa | 2.6V | 00:00:00 | 00:00:00 | 00:00:00 | |
| PETON7-10 | 2026-08-31 12:37:33 | 47.53211 | 19.80707 | 91° | 13km/h | 28730m | 7.9m/s | -45.2°C | 2.2% | 15.3hPa | 2.6V | 00:00:00 | 01:43:13 | 00:00:00 | |
| SQ9EZE-16 | 2026-08-31 12:37:27 | 47.53213 | 19.80689 | 122° | 18km/h | 28701m | 8.3m/s | -45.4°C | 0.2% | 15.4hPa | 2.6V | 00:00:00 | 00:00:00 | 00:00:00 | |
| SP9KGR-15 | 2026-08-31 12:37:26 | 47.53215 | 19.80682 | 117° | 20km/h | 28694m | 5.6m/s | 0°C | 0% | 0hPa | 2.6V | 00:00:00 | 00:00:00 | 00:00:00 | |
| SQ9EZE-15 | 2026-08-31 12:37:21 | 47.53214 | 19.80649 | 58° | 11km/h | 28661m | 8.6m/s | -45.5°C | 0.1% | 15.4hPa | 2.6V | 00:00:00 | 00:00:00 | 00:00:00 | |
| PETON7-10 | 2026-08-31 12:37:17 | 47.53211 | 19.80641 | 109° | 15km/h | 28623m | 5.6m/s | -45.5°C | 2.3% | 15.4hPa | 2.6V | 00:00:00 | 00:00:00 | 00:00:00 | |
| OE5DRO-10 | 2026-08-31 12:37:16 | 47.53212 | 19.80639 | 134° | 15km/h | 28617m | 7.1m/s | -45.7°C | 2.2% | 15.5hPa | 2.6V | 00:00:00 | 00:00:00 | 08:30:00 | |
| SQ9EZE-16 | 2026-08-31 12:37:12 | 47.53223 | 19.80621 | 107° | 18km/h | 28589m | 7.8m/s | -45.9°C | 0.2% | 15.6hPa | 2.6V | 00:00:00 | 00:00:00 | 00:00:00 | |
| OE5DXL-15 | 2026-08-31 12:37:10 | 47.53219 | 19.80598 | 51° | 15km/h | 28562m | 7.8m/s | 0°C | 0% | 0hPa | 2.6V | 00:00:00 | 00:00:00 | 00:00:00 | |
| LZ4TU-5 | 2026-08-31 12:37:06 | 47.53217 | 19.80597 | 357° | 7km/h | 28555m | 6.3m/s | -46.1°C | 0% | 15.8hPa | 2.6V | 00:00:00 | 00:00:00 | 00:00:00 | |
| PETON7-10 | 2026-08-31 12:37:02 | 47.53201 | 19.80612 | 300° | 11km/h | 28520m | 8.6m/s | -46.0°C | 2.3% | 15.8hPa | 2.6V | 00:00:00 | 00:00:00 | 00:00:00 | |
| OE5DRO-10 | 2026-08-31 12:36:57 | 47.53214 | 19.80594 | 129° | 18km/h | 28483m | 5.4m/s | -46.0°C | 2.3% | 15.9hPa | 2.6V | 00:00:00 | 00:00:00 | 00:00:00 | |
| SQ9EZE-16 | 2026-08-31 12:36:56 | 47.53214 | 19.80594 | 130° | 20km/h | 28483m | 5.4m/s | -46.0°C | 0.1% | 15.9hPa | 2.6V | 00:00:00 | 00:00:00 | 00:00:00 | |
| SQ9EZE-14 | 2026-08-31 12:36:55 | 47.53217 | 19.80589 | 138° | 18km/h | 28476m | 7.6m/s | 0°C | 0% | 0hPa | 2.6V | 00:00:00 | 00:00:00 | 00:00:00 | |
| SP9KGR-15 | 2026-08-31 12:36:54 | 47.53220 | 19.80585 | 151° | 16km/h | 28468m | 8.7m/s | 0°C | 0% | 0hPa | 2.6V | 00:00:00 | 00:00:00 | 00:00:00 | |
| GYPAP8-17 | 2026-08-31 12:36:48 | 47.53219 | 19.80589 | 336° | 4km/h | 28425m | 7.7m/s | -46.0°C | 0.2% | 16.0hPa | 2.6V | 00:00:00 | 00:00:00 | 00:00:00 | |
| PETON7-10 | 2026-08-31 12:36:47 | 47.53220 | 19.80586 | 131° | 20km/h | 28411m | 6.5m/s | -45.9°C | 2.3% | 16.1hPa | 2.6V | 00:00:00 | 01:42:28 | 00:00:00 | |
| SQ9EZE-16 | 2026-08-31 12:36:39 | 47.53251 | 19.80525 | 137° | 29km/h | 28361m | 5.1m/s | -45.9°C | 0.2% | 16.2hPa | 2.6V | 00:00:00 | 00:00:00 | 00:00:00 | |
| OE5DRO-10 | 2026-08-31 12:36:38 | 47.53258 | 19.80512 | 110° | 16km/h | 28347m | 8.3m/s | -45.9°C | 2.3% | 16.2hPa | 2.6V | 00:00:00 | 00:00:00 | 00:00:00 | |
| SP9KGR-15 | 2026-08-31 12:36:35 | 47.53257 | 19.80505 | 73° | 5km/h | 28332m | 6.8m/s | 0°C | 0% | 0hPa | 2.6V | 00:00:00 | 00:00:00 | 00:00:00 | |
| PETON7-10 | 2026-08-31 12:36:32 | 47.53259 | 19.80490 | 93° | 18km/h | 28306m | 8.7m/s | -45.9°C | 2.3% | 16.2hPa | 2.6V | 00:00:00 | 00:00:00 | 00:00:00 | |
| SQ9EZE-16 | 2026-08-31 12:36:24 | 47.53281 | 19.80442 | 129° | 20km/h | 28254m | 7.7m/s | -45.9°C | 0.2% | 16.4hPa | 2.6V | 00:00:00 | 00:00:00 | 00:00:00 | |
| SP9KGR-15 | 2026-08-31 12:36:20 | 47.53286 | 19.80426 | 84° | 9km/h | 28224m | 6.6m/s | 0°C | 0% | 0hPa | 2.6V | 00:00:00 | 00:00:00 | 00:00:00 | |
| OE5DRO-10 | 2026-08-31 12:36:19 | 47.53283 | 19.80418 | 48° | 18km/h | 28210m | 8.1m/s | -45.9°C | 2.3% | 16.5hPa | 2.6V | 00:00:00 | 00:00:00 | 00:00:00 | |
| PETON7-10 | 2026-08-31 12:36:17 | 47.53277 | 19.80406 | 67° | 20km/h | 28198m | 5.2m/s | -45.9°C | 2.3% | 16.5hPa | 2.7V | 00:00:00 | 00:00:00 | 00:00:00 | |
| SQ9EZE-16 | 2026-08-31 12:36:08 | 47.53295 | 19.80342 | 120° | 22km/h | 28140m | 7.5m/s | -46.1°C | 0.2% | 16.7hPa | 2.7V | 00:00:00 | 00:00:00 | 00:00:00 | |
| OE5DXL-15 | 2026-08-31 12:36:05 | 47.53281 | 19.80331 | 345° | 13km/h | 28100m | 8.1m/s | 0°C | 0% | 0hPa | 2.7V | 00:00:00 | 00:00:00 | 00:00:00 | |
| PETON7-10 | 2026-08-31 12:36:02 | 47.53278 | 19.80333 | 327° | 11km/h | 28091m | 8.3m/s | -46.1°C | 2.3% | 16.8hPa | 2.7V | 00:00:00 | 01:41:43 | 00:00:00 | |
| SP9KGR-15 | 2026-08-31 12:36:01 | 47.53278 | 19.80333 | 327° | 9km/h | 28091m | 8.3m/s | 0°C | 0% | 0hPa | 2.7V | 00:00:00 | 00:00:00 | 00:00:00 | |
| OE5DRO-10 | 2026-08-31 12:36:00 | 47.53278 | 19.80334 | 158° | 11km/h | 28079m | 7.2m/s | -46.1°C | 2.3% | 16.8hPa | 2.7V | 00:00:00 | 00:00:00 | 00:00:00 | |
| SQ9EZE-16 | 2026-08-31 12:35:52 | 47.53296 | 19.80308 | 92° | 16km/h | 28027m | 9.1m/s | -46.0°C | 0.2% | 17.0hPa | 2.7V | 00:00:00 | 00:00:00 | 00:00:00 | |
| PETON7-10 | 2026-08-31 12:35:47 | 47.53287 | 19.80301 | 252° | 9km/h | 27985m | 8.4m/s | -46.1°C | 2.3% | 17.1hPa | 2.7V | 00:00:00 | 00:00:00 | 08:30:00 | |
| GYPAP8-17 | 2026-08-31 12:35:44 | 47.53290 | 19.80302 | 184° | 11km/h | 27970m | 5.9m/s | -46.2°C | 0.2% | 17.2hPa | 2.7V | 00:00:00 | 00:00:00 | 00:00:00 | |
| SQ9EZE-16 | 2026-08-31 12:35:37 | 47.53297 | 19.80290 | 50° | 13km/h | 27922m | 7.1m/s | -46.3°C | 0.2% | 17.3hPa | 2.7V | 00:00:00 | 00:00:00 | 00:00:00 | |
| OE5DRO-10 | 2026-08-31 12:35:36 | 47.53295 | 19.80285 | 75° | 9km/h | 27907m | 5.2m/s | -46.2°C | 2.3% | 17.3hPa | 2.7V | 00:00:00 | 00:00:00 | 00:00:00 | |
| SQ9EZE-15 | 2026-08-31 12:35:35 | 47.53294 | 19.80285 | 75° | 5km/h | 27907m | 5.2m/s | -46.3°C | 0.2% | 17.4hPa | 2.7V | 00:00:00 | 00:00:00 | 00:00:00 | |
| PETON7-10 | 2026-08-31 12:35:32 | 47.53297 | 19.80277 | 175° | 9km/h | 27881m | 6.6m/s | -46.3°C | 2.3% | 17.4hPa | 2.7V | 00:00:00 | 00:00:00 | 00:00:00 | |
| SQ9EZE-16 | 2026-08-31 12:35:21 | 47.53314 | 19.80261 | 86° | 9km/h | 27810m | 6.9m/s | -46.3°C | 0.2% | 17.6hPa | 2.7V | 00:00:00 | 00:00:00 | 00:00:00 | |
| PETON7-10 | 2026-08-31 12:35:17 | 47.53314 | 19.80253 | 220° | 15km/h | 27773m | 6.1m/s | -46.5°C | 2.3% | 17.6hPa | 2.7V | 00:00:00 | 01:40:58 | 00:00:00 | |
| SQ9EZE-16 | 2026-08-31 12:35:05 | 47.53327 | 19.80207 | 85° | 22km/h | 27698m | 8.0m/s | -47.2°C | 0% | 0hPa | 2.7V | 00:00:00 | 00:00:00 | 00:00:00 | |
| OE5DXL-15 | 2026-08-31 12:35:04 | 47.53332 | 19.80191 | 137° | 20km/h | 27671m | 6.7m/s | 0°C | 0% | 0hPa | 2.7V | 00:00:00 | 01:40:43 | 00:00:00 | |
| LZ4TU-5 | 2026-08-31 12:35:02 | 47.53332 | 19.80191 | 137° | 11km/h | 27671m | 6.8m/s | -47.2°C | 0% | 17.9hPa | 2.7V | 00:00:00 | 00:00:00 | 00:00:00 | |
| OE5DRO-10 | 2026-08-31 12:34:58 | 47.53338 | 19.80168 | 96° | 18km/h | 27645m | 5.9m/s | -47.3°C | 2.4% | 18.0hPa | 2.7V | 00:00:00 | 00:00:00 | 00:00:00 | |
| LZ4TU-5 | 2026-08-31 12:34:56 | 47.53338 | 19.80161 | 88° | 16km/h | 27638m | 7.9m/s | -47.3°C | 0% | 18.1hPa | 2.7V | 00:00:00 | 00:00:00 | 00:00:00 | |
| SQ9EZE-16 | 2026-08-31 12:34:50 | 47.53325 | 19.80133 | 45° | 16km/h | 27598m | 5.6m/s | -47.7°C | 0% | 0hPa | 2.7V | 00:00:00 | 00:00:00 | 00:00:00 | |
| PETON7-10 | 2026-08-31 12:34:47 | 47.53313 | 19.80123 | 28° | 24km/h | 27571m | 8.0m/s | -47.8°C | 2.5% | 18.2hPa | 2.7V | 00:00:00 | 00:00:00 | 00:00:00 | |
| GYPAP8-17 | 2026-08-31 12:34:41 | 47.53298 | 19.80092 | 48° | 26km/h | 27537m | 6.0m/s | -48.0°C | 0.2% | 18.3hPa | 2.7V | 00:00:00 | 00:00:00 | 00:00:00 | |
| OE5DRO-10 | 2026-08-31 12:34:39 | 47.53283 | 19.80071 | 41° | 16km/h | 27514m | 7.1m/s | -48.0°C | 2.5% | 18.3hPa | 2.7V | 00:00:00 | 00:00:00 | 00:00:00 | |
| SQ9EZE-16 | 2026-08-31 12:34:35 | 47.53265 | 19.80058 | 15° | 27km/h | 27494m | 7.9m/s | -48.2°C | 0% | 0hPa | 2.7V | 00:00:00 | 00:00:00 | 00:00:00 | |
| OE5DXL-15 | 2026-08-31 12:34:34 | 47.53247 | 19.80050 | 16° | 11km/h | 27464m | 9.7m/s | 0°C | 0% | 0hPa | 2.7V | 00:00:00 | 00:00:00 | 00:00:00 | |
| PETON7-10 | 2026-08-31 12:34:32 | 47.53247 | 19.80050 | 16° | 13km/h | 27464m | 9.7m/s | -48.2°C | 2.5% | 18.5hPa | 2.7V | 00:00:00 | 01:40:13 | 00:00:00 | |
| OE5DRO-10 | 2026-08-31 12:34:20 | 47.53207 | 19.80032 | 12° | 7km/h | 27381m | 7.0m/s | -48.6°C | 2.5% | 18.7hPa | 2.7V | 00:00:00 | 00:00:00 | 08:30:00 | |
| PETON7-10 | 2026-08-31 12:34:17 | 47.53203 | 19.80033 | 233° | 7km/h | 27360m | 7.6m/s | -48.7°C | 2.6% | 18.8hPa | 2.6V | 00:00:00 | 00:00:00 | 00:00:00 | |
| SQ9EZE-16 | 2026-08-31 12:34:03 | 47.53188 | 19.80017 | 111° | 2km/h | 27275m | 4.9m/s | -49.2°C | 0% | 0hPa | 2.6V | 00:00:00 | 00:00:00 | 00:00:00 | |
| PETON7-10 | 2026-08-31 12:34:02 | 47.53188 | 19.80015 | 108° | 15km/h | 27261m | 7.9m/s | -49.3°C | 2.7% | 19.1hPa | 2.6V | 00:00:00 | 00:00:00 | 00:00:00 | |
| OE5DRO-10 | 2026-08-31 12:34:01 | 47.53189 | 19.80013 | 127° | 15km/h | 27254m | 6.1m/s | -49.3°C | 2.6% | 19.1hPa | 2.6V | 00:00:00 | 00:00:00 | 00:00:00 | |
| PETON7-10 | 2026-08-31 12:33:47 | 47.53196 | 19.79941 | 81° | 16km/h | 27163m | 7.1m/s | -49.7°C | 2.8% | 19.4hPa | 2.6V | 00:00:00 | 01:39:28 | 00:00:00 | |
| SQ9EZE-16 | 2026-08-31 12:33:46 | 47.53196 | 19.79941 | 81° | 13km/h | 27163m | 7.2m/s | 0°C | 0% | 0hPa | 2.6V | 00:00:00 | 00:00:00 | 00:00:00 | |
| OE5DRO-10 | 2026-08-31 12:33:41 | 47.53190 | 19.79908 | 99° | 11km/h | 27118m | 7.8m/s | -49.7°C | 2.8% | 19.5hPa | 2.6V | 00:00:00 | 00:00:00 | 00:00:00 | |
| GYPAP8-17 | 2026-08-31 12:33:38 | 47.53193 | 19.79893 | 113° | 18km/h | 27106m | 6.7m/s | -49.7°C | 0.3% | 19.6hPa | 2.6V | 00:00:00 | 00:00:00 | 00:00:00 | |
| PETON7-10 | 2026-08-31 12:33:32 | 47.53185 | 19.79861 | 38° | 15km/h | 27056m | 9.6m/s | -49.5°C | 2.8% | 19.7hPa | 2.6V | 00:00:00 | 00:00:00 | 08:30:00 | |
| SQ9EZE-16 | 2026-08-31 12:33:31 | 47.53185 | 19.79861 | 38° | 18km/h | 27056m | 9.7m/s | 0°C | 0% | 0hPa | 2.6V | 00:00:00 | 00:00:00 | 00:00:00 | |
| PETON7-10 | 2026-08-31 12:33:17 | 47.53149 | 19.79823 | 9° | 7km/h | 26956m | 6.4m/s | -49.4°C | 2.7% | 20.0hPa | 2.6V | 00:00:00 | 00:00:00 | 00:00:00 | |
| SQ9EZE-16 | 2026-08-31 12:33:15 | 47.53145 | 19.79821 | 25° | 16km/h | 26947m | 10.1m/s | 0°C | 0% | 0hPa | 2.6V | 00:00:00 | 00:00:00 | 00:00:00 | |
| OE5DRO-10 | 2026-08-31 12:33:07 | 47.53139 | 19.79809 | 353° | 11km/h | 26887m | 7.3m/s | -49.1°C | 2.7% | 20.2hPa | 2.6V | 00:00:00 | 00:00:00 | 00:00:00 | |
| LZ4TU-5 | 2026-08-31 12:33:06 | 47.53137 | 19.79810 | 329° | 7km/h | 26879m | 8.4m/s | -49.0°C | 0% | 20.3hPa | 2.7V | 00:00:00 | 00:00:00 | 00:00:00 | |
| PETON7-10 | 2026-08-31 12:33:02 | 47.53130 | 19.79809 | 63° | 11km/h | 26851m | 5.7m/s | -48.9°C | 2.6% | 20.3hPa | 2.7V | 00:00:00 | 01:38:43 | 00:00:00 | |
| LZ4TU-5 | 2026-08-31 12:33:00 | 47.53129 | 19.79806 | 91° | 7km/h | 26846m | 5.8m/s | -48.9°C | 0% | 20.4hPa | 2.7V | 00:00:00 | 00:00:00 | 00:00:00 | |
| SQ9EZE-16 | 2026-08-31 12:32:59 | 47.53130 | 19.79803 | 122° | 7km/h | 26839m | 8.2m/s | 0°C | 0% | 0hPa | 2.7V | 00:00:00 | 00:00:00 | 00:00:00 | |
| PETON7-10 | 2026-08-31 12:32:48 | 47.53139 | 19.79770 | 116° | 15km/h | 26754m | 5.6m/s | -49.1°C | 2.6% | 20.7hPa | 2.7V | 00:00:00 | 00:00:00 | 00:00:00 | |
| OE5DRO-10 | 2026-08-31 12:32:46 | 47.53141 | 19.79766 | 126° | 9km/h | 26747m | 8.5m/s | -49.2°C | 2.6% | 20.6hPa | 2.6V | 00:00:00 | 00:00:00 | 00:00:00 | |
| SQ9EZE-16 | 2026-08-31 12:32:41 | 47.53152 | 19.79746 | 115° | 18km/h | 26719m | 6.2m/s | 0°C | 0% | 0hPa | 2.6V | 00:00:00 | 00:00:00 | 00:00:00 | |
| PETON7-10 | 2026-08-31 12:32:32 | 47.53132 | 19.79741 | 224° | 9km/h | 26651m | 6.3m/s | -49.6°C | 2.7% | 20.9hPa | 2.6V | 00:00:00 | 00:00:00 | 00:00:00 | |
| GYPAP8-17 | 2026-08-31 12:32:31 | 47.53132 | 19.79741 | 224° | 4km/h | 26651m | 6.4m/s | -49.7°C | 0.3% | 21.0hPa | 2.6V | 00:00:00 | 00:00:00 | 00:00:00 | |
| SQ9EZE-16 | 2026-08-31 12:32:22 | 47.53144 | 19.79730 | 15° | 11km/h | 26590m | 7.7m/s | 0°C | 0% | 0hPa | 2.6V | 00:00:00 | 00:00:00 | 00:00:00 | |
| PETON7-10 | 2026-08-31 12:32:17 | 47.53136 | 19.79736 | 161° | 4km/h | 26550m | 8.2m/s | -49.6°C | 2.8% | 21.3hPa | 2.6V | 00:00:00 | 01:37:58 | 00:00:00 | |
| SQ9EZE-15 | 2026-08-31 12:32:11 | 47.53140 | 19.79740 | 226° | 5km/h | 26517m | 6.5m/s | -49.6°C | 0.3% | 21.5hPa | 2.6V | 00:00:00 | 00:00:00 | 00:00:00 | |
| SQ9EZE-16 | 2026-08-31 12:32:05 | 47.53142 | 19.79740 | 0° | 0km/h | 26475m | 6.8m/s | 0°C | 0% | 0hPa | 2.6V | 00:00:00 | 00:00:00 | 00:00:00 | |
| PETON7-10 | 2026-08-31 12:32:02 | 47.53144 | 19.79739 | 218° | 7km/h | 26446m | 7.8m/s | -49.5°C | 2.8% | 21.7hPa | 2.6V | 00:00:00 | 00:00:00 | 00:00:00 | |
| SQ9EZE-15 | 2026-08-31 12:31:51 | 47.53144 | 19.79766 | 3° | 7km/h | 26375m | 6.7m/s | -49.6°C | 0.3% | 21.9hPa | 2.6V | 00:00:00 | 00:00:00 | 00:00:00 | |
| SQ9EZE-16 | 2026-08-31 12:31:49 | 47.53141 | 19.79765 | 23° | 4km/h | 26363m | 7.4m/s | 0°C | 0% | 0hPa | 2.6V | 00:00:00 | 00:00:00 | 00:00:00 | |
| PETON7-10 | 2026-08-31 12:31:47 | 47.53140 | 19.79765 | 5° | 5km/h | 26343m | 7.8m/s | -49.5°C | 2.8% | 21.9hPa | 2.6V | 00:00:00 | 00:00:00 | 00:00:00 | |
| OE3JTB-15 | 2026-08-31 12:31:35 | 47.53130 | 19.79749 | 104° | 16km/h | 26248m | 8.0m/s | -49.3°C | 2.7% | 22.3hPa | 2.6V | 00:00:00 | 00:00:00 | 00:00:00 | |
| PETON7-10 | 2026-08-31 12:31:32 | 47.53131 | 19.79745 | 112° | 9km/h | 26242m | 4.6m/s | -49.3°C | 2.7% | 22.4hPa | 2.6V | 00:00:00 | 01:37:13 | 00:00:00 | |
| OE5DRO-10 | 2026-08-31 12:31:26 | 47.53139 | 19.79743 | 301° | 9km/h | 26196m | 4.7m/s | -49.1°C | 2.7% | 22.5hPa | 2.6V | 00:00:00 | 00:00:00 | 00:00:00 | |
| GYPAP8-17 | 2026-08-31 12:31:20 | 47.53141 | 19.79746 | 128° | 9km/h | 26170m | 8.6m/s | -49.1°C | 0.2% | 22.6hPa | 2.6V | 00:00:00 | 00:00:00 | 00:00:00 | |
| PETON7-10 | 2026-08-31 12:31:17 | 47.53147 | 19.79727 | 123° | 15km/h | 26141m | 6.5m/s | -49.0°C | 2.7% | 22.7hPa | 2.6V | 00:00:00 | 00:00:00 | 08:30:00 | |
| LZ4TU-5 | 2026-08-31 12:31:10 | 47.53155 | 19.79714 | 211° | 9km/h | 26099m | 7.0m/s | -49.2°C | 0% | 22.9hPa | 2.6V | 00:00:00 | 00:00:00 | 00:00:00 | |
| LZ4TU-5 | 2026-08-31 12:31:05 | 47.53166 | 19.79702 | 126° | 24km/h | 26068m | 6.7m/s | -49.1°C | 0% | 23.0hPa | 2.6V | 00:00:00 | 00:00:00 | 00:00:00 | |
| PETON7-10 | 2026-08-31 12:31:02 | 47.53178 | 19.79666 | 99° | 15km/h | 26040m | 6.9m/s | -48.9°C | 2.7% | 23.1hPa | 2.6V | 00:00:00 | 00:00:00 | 00:00:00 | |
| OE5DRO-10 | 2026-08-31 12:30:54 | 47.53179 | 19.79625 | 70° | 16km/h | 25988m | 6.1m/s | -48.7°C | 2.5% | 23.2hPa | 2.6V | 00:00:00 | 00:00:00 | 00:00:00 | |
| PETON7-10 | 2026-08-31 12:30:47 | 47.53187 | 19.79586 | 103° | 16km/h | 25938m | 7.0m/s | -48.8°C | 2.6% | 23.4hPa | 2.7V | 00:00:00 | 01:36:28 | 00:00:00 | |
| OE5DRO-10 | 2026-08-31 12:30:35 | 47.53166 | 19.79526 | 84° | 18km/h | 25860m | 6.4m/s | -49.5°C | 2.6% | 23.7hPa | 2.7V | 00:00:00 | 00:00:00 | 00:00:00 | |
| PETON7-10 | 2026-08-31 12:30:32 | 47.53166 | 19.79505 | 89° | 18km/h | 25841m | 6.5m/s | -49.8°C | 2.7% | 23.7hPa | 2.7V | 00:00:00 | 00:00:00 | 00:00:00 | |
| GYPAP8-17 | 2026-08-31 12:30:21 | 47.53128 | 19.79476 | 26° | 15km/h | 25774m | 7.3m/s | -50.3°C | 0.3% | 24.1hPa | 2.7V | 00:00:00 | 00:00:00 | 00:00:00 | |
| OE5DRO-10 | 2026-08-31 12:30:17 | 47.53117 | 19.79449 | 34° | 9km/h | 25737m | 4.8m/s | -50.2°C | 2.7% | 24.1hPa | 2.7V | 00:00:00 | 00:00:00 | 00:00:00 | |
| SQ9EZE-15 | 2026-08-31 12:30:13 | 47.53108 | 19.79445 | 2° | 15km/h | 25725m | 7.3m/s | -50.3°C | 0.3% | 24.2hPa | 2.7V | 00:00:00 | 00:00:00 | 00:00:00 | |
| PETON7-10 | 2026-08-31 12:30:02 | 47.53092 | 19.79450 | 321° | 9km/h | 25646m | 8.8m/s | -50.4°C | 2.8% | 24.4hPa | 2.7V | 00:00:00 | 01:35:43 | 00:00:00 | |
| PETON7-10 | 2026-08-31 12:29:47 | 47.53066 | 19.79488 | 300° | 7km/h | 25541m | 5.4m/s | -51.1°C | 3.0% | 24.9hPa | 2.7V | 00:00:00 | 00:00:00 | 00:00:00 | |
| OE5DRO-10 | 2026-08-31 12:29:36 | 47.53045 | 19.79485 | 333° | 13km/h | 25450m | 5.8m/s | -50.9°C | 2.9% | 25.2hPa | 2.6V | 00:00:00 | 00:00:00 | 00:00:00 | |
| PETON7-10 | 2026-08-31 12:29:32 | 47.53046 | 19.79488 | 239° | 9km/h | 25435m | 4.9m/s | -50.8°C | 2.9% | 25.3hPa | 2.6V | 00:00:00 | 00:00:00 | 00:00:00 | |
| PETON7-10 | 2026-08-31 12:29:17 | 47.53040 | 19.79450 | 99° | 18km/h | 25337m | 6.2m/s | -50.4°C | 2.8% | 25.7hPa | 2.6V | 00:00:00 | 01:34:58 | 00:00:00 | |
| LZ4TU-5 | 2026-08-31 12:29:16 | 47.53040 | 19.79449 | 100° | 5km/h | 25337m | 6.3m/s | -50.4°C | 0% | 25.7hPa | 2.6V | 00:00:00 | 00:00:00 | 00:00:00 | |
| LZ4TU-5 | 2026-08-31 12:29:13 | 47.53033 | 19.79434 | 56° | 22km/h | 25312m | 5.1m/s | -50.4°C | 0% | 25.8hPa | 2.6V | 00:00:00 | 00:00:00 | 00:00:00 | |
| PETON7-10 | 2026-08-31 12:29:02 | 47.53002 | 19.79368 | 24° | 13km/h | 25238m | 8.8m/s | -50.4°C | 2.8% | 26.0hPa | 2.6V | 00:00:00 | 00:00:00 | 08:30:00 | |
| PETON7-10 | 2026-08-31 12:28:47 | 47.52968 | 19.79325 | 19° | 20km/h | 25137m | 8.5m/s | -50.4°C | 2.9% | 26.5hPa | 2.6V | 00:00:00 | 00:00:00 | 00:00:00 | |
| PETON7-10 | 2026-08-31 12:28:32 | 47.52894 | 19.79312 | 11° | 24km/h | 25034m | 7.4m/s | -50.2°C | 2.9% | 26.9hPa | 2.6V | 00:00:00 | 01:34:13 | 00:00:00 | |
| PETON7-10 | 2026-08-31 12:28:17 | 47.52806 | 19.79329 | 353° | 16km/h | 24939m | 5.3m/s | -50.1°C | 2.8% | 27.3hPa | 2.6V | 00:00:00 | 00:00:00 | 00:00:00 | |
| OE5DRO-10 | 2026-08-31 12:28:13 | 47.52786 | 19.79321 | 21° | 13km/h | 24912m | 6.5m/s | -50.4°C | 2.8% | 27.4hPa | 2.6V | 00:00:00 | 00:00:00 | 00:00:00 | |
| GYPAP8-17 | 2026-08-31 12:28:08 | 47.52769 | 19.79318 | 13° | 16km/h | 24885m | 8.1m/s | -50.7°C | 0.3% | 27.6hPa | 2.6V | 00:00:00 | 00:00:00 | 00:00:00 | |
| OE5DRO-10 | 2026-08-31 12:27:54 | 47.52734 | 19.79276 | 80° | 7km/h | 24782m | 7.6m/s | -50.6°C | 2.9% | 27.9hPa | 2.6V | 00:00:00 | 00:00:00 | 00:00:00 | |
| PETON7-10 | 2026-08-31 12:27:47 | 47.52726 | 19.79282 | 349° | 11km/h | 24731m | 8.2m/s | -50.6°C | 2.9% | 28.2hPa | 2.6V | 00:00:00 | 01:33:28 | 00:00:00 | |
| OE5DRO-10 | 2026-08-31 12:27:34 | 47.52701 | 19.79301 | 341° | 18km/h | 24639m | 8.9m/s | -50.9°C | 2.9% | 28.6hPa | 2.6V | 00:00:00 | 00:00:00 | 00:00:00 | |
| PETON7-10 | 2026-08-31 12:27:32 | 47.52690 | 19.79307 | 338° | 18km/h | 24626m | 6.0m/s | -50.9°C | 2.9% | 28.7hPa | 2.6V | 00:00:00 | 00:00:00 | 00:00:00 | |
| LZ4TU-5 | 2026-08-31 12:27:28 | 47.52678 | 19.79310 | 12° | 11km/h | 24607m | 7.0m/s | -51.0°C | 0% | 28.8hPa | 2.7V | 00:00:00 | 00:00:00 | 00:00:00 | |
| LZ4TU-5 | 2026-08-31 12:27:23 | 47.52668 | 19.79316 | 330° | 13km/h | 24571m | 10.6m/s | -50.9°C | 0% | 28.9hPa | 2.7V | 00:00:00 | 00:00:00 | 00:00:00 | |
| PETON7-10 | 2026-08-31 12:27:17 | 47.52633 | 19.79345 | 340° | 15km/h | 24523m | 4.4m/s | -50.9°C | 2.9% | 29.1hPa | 2.7V | 00:00:00 | 00:00:00 | 00:00:00 | |
| OE5DRO-10 | 2026-08-31 12:27:15 | 47.52624 | 19.79351 | 331° | 13km/h | 24510m | 6.8m/s | -50.9°C | 2.9% | 29.2hPa | 2.7V | 00:00:00 | 00:00:00 | 00:00:00 | |
| PETON7-10 | 2026-08-31 12:27:02 | 47.52593 | 19.79397 | 331° | 9km/h | 24426m | 5.9m/s | -50.8°C | 2.9% | 29.5hPa | 2.7V | 00:00:00 | 01:32:43 | 00:00:00 | |
| OE5DRO-10 | 2026-08-31 12:26:56 | 47.52580 | 19.79398 | 7° | 9km/h | 24386m | 6.8m/s | -50.9°C | 2.9% | 29.8hPa | 2.7V | 00:00:00 | 00:00:00 | 00:00:00 | |
| PETON7-10 | 2026-08-31 12:26:47 | 47.52564 | 19.79397 | 35° | 13km/h | 24327m | 7.7m/s | -51.5°C | 2.9% | 30.0hPa | 2.6V | 00:00:00 | 00:00:00 | 08:30:00 | |
| OE5DRO-10 | 2026-08-31 12:26:37 | 47.52543 | 19.79383 | 317° | 11km/h | 24263m | 4.8m/s | -51.8°C | 3.0% | 30.3hPa | 2.6V | 00:00:00 | 00:00:00 | 00:00:00 | |
| PETON7-10 | 2026-08-31 12:26:32 | 47.52531 | 19.79401 | 310° | 11km/h | 24230m | 7.9m/s | -51.9°C | 3.0% | 30.5hPa | 2.6V | 00:00:00 | 00:00:00 | 00:00:00 | |
| SQ9EZE-16 | 2026-08-31 12:26:31 | 47.52531 | 19.79400 | 311° | 7km/h | 24230m | 7.9m/s | -52.0°C | 0.3% | 30.5hPa | 2.6V | 00:00:00 | 00:00:00 | 00:00:00 | |
| SQ9EZE-15 | 2026-08-31 12:26:27 | 47.52529 | 19.79420 | 255° | 15km/h | 24187m | 4.9m/s | -51.9°C | 0.4% | 30.7hPa | 2.6V | 00:00:00 | 00:00:00 | 00:00:00 | |
| OE5DRO-10 | 2026-08-31 12:26:18 | 47.52530 | 19.79455 | 325° | 5km/h | 24144m | 7.4m/s | -52.0°C | 3.0% | 30.9hPa | 2.6V | 00:00:00 | 00:00:00 | 00:00:00 | |
| PETON7-10 | 2026-08-31 12:26:17 | 47.52529 | 19.79456 | 352° | 5km/h | 24138m | 5.3m/s | -52.0°C | 3.0% | 30.9hPa | 2.6V | 00:00:00 | 01:31:58 | 00:00:00 | |
| SQ9EZE-16 | 2026-08-31 12:26:16 | 47.52529 | 19.79456 | 352° | 7km/h | 24138m | 5.4m/s | -52.0°C | 0% | 31.0hPa | 2.6V | 00:00:00 | 00:00:00 | 00:00:00 | |
| SQ9EZE-15 | 2026-08-31 12:26:04 | 47.52529 | 19.79460 | 230° | 4km/h | 24063m | 4.7m/s | -52.0°C | 0.3% | 31.3hPa | 2.6V | 00:00:00 | 00:00:00 | 00:00:00 | |
| PETON7-10 | 2026-08-31 12:26:02 | 47.52534 | 19.79460 | 171° | 9km/h | 24044m | 5.1m/s | -52.2°C | 3.0% | 31.4hPa | 2.6V | 00:00:00 | 00:00:00 | 00:00:00 | |
| SQ9EZE-16 | 2026-08-31 12:26:00 | 47.52537 | 19.79460 | 178° | 11km/h | 24037m | 7.9m/s | -52.3°C | 0% | 31.4hPa | 2.6V | 00:00:00 | 00:00:00 | 00:00:00 | |
| OE5DRO-10 | 2026-08-31 12:25:59 | 47.52541 | 19.79459 | 164° | 9km/h | 24025m | 5.5m/s | -52.5°C | 3.1% | 31.4hPa | 2.6V | 00:00:00 | 00:00:00 | 08:30:00 | |
| PETON7-10 | 2026-08-31 12:25:47 | 47.52537 | 19.79427 | 109° | 7km/h | 23949m | 7.5m/s | -52.9°C | 3.2% | 31.8hPa | 2.6V | 00:00:00 | 00:00:00 | 00:00:00 | |
| SQ9EZE-16 | 2026-08-31 12:25:44 | 47.52538 | 19.79423 | 98° | 5km/h | 23936m | 6.0m/s | -52.9°C | 0% | 0hPa | 2.6V | 00:00:00 | 00:00:00 | 00:00:00 | |
| LZ4TU-5 | 2026-08-31 12:25:38 | 47.52532 | 19.79410 | 57° | 13km/h | 23901m | 4.8m/s | -52.8°C | 0% | 32.1hPa | 2.6V | 00:00:00 | 00:00:00 | 00:00:00 | |
| GYPAP8-17 | 2026-08-31 12:25:33 | 47.52523 | 19.79407 | 341° | 5km/h | 23870m | 7.8m/s | -52.8°C | 0.4% | 32.3hPa | 2.6V | 00:00:00 | 00:00:00 | 00:00:00 | |
| PETON7-10 | 2026-08-31 12:25:32 | 47.52522 | 19.79408 | 228° | 7km/h | 23858m | 5.3m/s | -52.8°C | 3.2% | 32.3hPa | 2.6V | 00:00:00 | 01:31:13 | 00:00:00 | |
| SQ9EZE-16 | 2026-08-31 12:25:29 | 47.52523 | 19.79411 | 239° | 7km/h | 23845m | 5.4m/s | -52.8°C | 0% | 0hPa | 2.6V | 00:00:00 | 00:00:00 | 00:00:00 | |
| PETON7-10 | 2026-08-31 12:25:17 | 47.52510 | 19.79428 | 248° | 9km/h | 23766m | 4.3m/s | -52.8°C | 3.2% | 32.7hPa | 2.6V | 00:00:00 | 00:00:00 | 00:00:00 | |
| SQ9EZE-16 | 2026-08-31 12:25:14 | 47.52512 | 19.79435 | 253° | 7km/h | 23754m | 8.0m/s | 0°C | 0% | 0hPa | 2.6V | 00:00:00 | 00:00:00 | 00:00:00 | |
| PETON7-10 | 2026-08-31 12:25:02 | 47.52520 | 19.79467 | 207° | 4km/h | 23672m | 6.0m/s | -53.0°C | 3.2% | 33.2hPa | 2.6V | 00:00:00 | 00:00:00 | 00:00:00 | |
| OE5DRO-10 | 2026-08-31 12:24:58 | 47.52523 | 19.79468 | 89° | 9km/h | 23648m | 8.7m/s | -53.1°C | 3.2% | 33.4hPa | 2.6V | 00:00:00 | 00:00:00 | 00:00:00 | |
| OE5DRO-10 | 2026-08-31 12:24:39 | 47.52520 | 19.79403 | 51° | 16km/h | 23521m | 6.5m/s | -52.8°C | 3.2% | 34.0hPa | 2.7V | 00:00:00 | 00:00:00 | 00:00:00 | |
| SQ9EZE-15 | 2026-08-31 12:24:29 | 47.52517 | 19.79382 | 59° | 18km/h | 23473m | 6.9m/s | -52.7°C | 0.4% | 34.3hPa | 2.7V | 00:00:00 | 00:00:00 | 00:00:00 | |
| PETON7-10 | 2026-08-31 12:24:16 | 47.52473 | 19.79306 | 83° | 11km/h | 23381m | 6.5m/s | -52.5°C | 3.1% | 34.8hPa | 2.7V | 00:00:00 | 00:00:00 | 00:00:00 | |
| SQ9EZE-15 | 2026-08-31 12:24:08 | 47.52458 | 19.79284 | 34° | 18km/h | 23336m | 4.7m/s | -52.7°C | 0.4% | 35.0hPa | 2.7V | 00:00:00 | 00:00:00 | 00:00:00 | |
| PETON7-10 | 2026-08-31 12:24:01 | 47.52442 | 19.79267 | 38° | 11km/h | 23291m | 5.4m/s | -52.9°C | 3.2% | 35.3hPa | 2.7V | 00:00:00 | 01:29:42 | 00:00:00 | |
| LZ4TU-5 | 2026-08-31 12:23:48 | 47.52409 | 19.79269 | 332° | 9km/h | 23217m | 5.6m/s | -52.9°C | 0% | 35.7hPa | 2.7V | 00:00:00 | 00:00:00 | 00:00:00 | |
| PETON7-10 | 2026-08-31 12:23:47 | 47.52403 | 19.79274 | 324° | 16km/h | 23197m | 5.9m/s | -53.0°C | 3.2% | 35.7hPa | 2.7V | 00:00:00 | 00:00:00 | 00:00:00 | |
| LZ4TU-5 | 2026-08-31 12:23:43 | 47.52401 | 19.79280 | 273° | 9km/h | 23184m | 6.3m/s | -53.1°C | 0% | 35.9hPa | 2.6V | 00:00:00 | 00:00:00 | 00:00:00 | |
| OE5DRO-10 | 2026-08-31 12:23:32 | 47.52400 | 19.79360 | 303° | 9km/h | 23108m | 4.9m/s | -53.4°C | 3.3% | 36.3hPa | 2.6V | 00:00:00 | 00:00:00 | 00:00:00 | |
| PETON7-10 | 2026-08-31 12:23:31 | 47.52397 | 19.79364 | 325° | 16km/h | 23102m | 7.7m/s | -53.5°C | 3.3% | 36.3hPa | 2.6V | 00:00:00 | 00:00:00 | 00:00:00 | |
| PETON7-10 | 2026-08-31 12:23:16 | 47.52368 | 19.79404 | 299° | 7km/h | 23008m | 7.7m/s | -53.7°C | 3.4% | 36.8hPa | 2.6V | 00:00:00 | 01:28:57 | 00:00:00 | |
| OE5DRO-10 | 2026-08-31 12:23:13 | 47.52362 | 19.79403 | 7° | 7km/h | 22989m | 6.8m/s | -53.7°C | 3.3% | 37.0hPa | 2.6V | 00:00:00 | 00:00:00 | 00:00:00 | |
| GYPAP8-17 | 2026-08-31 12:23:09 | 47.52356 | 19.79402 | 358° | 4km/h | 22969m | 5.6m/s | -53.6°C | 0.4% | 37.1hPa | 2.7V | 00:00:00 | 00:00:00 | 00:00:00 | |
| PETON7-10 | 2026-08-31 12:23:01 | 47.52356 | 19.79422 | 33° | 11km/h | 22914m | 5.6m/s | -53.5°C | 3.3% | 37.3hPa | 2.7V | 00:00:00 | 00:00:00 | 00:00:00 | |
| OE5DRO-10 | 2026-08-31 12:22:54 | 47.52344 | 19.79420 | 307° | 11km/h | 22862m | 4.8m/s | -53.4°C | 3.4% | 37.7hPa | 2.6V | 00:00:00 | 00:00:00 | 00:00:00 | |
| PETON7-10 | 2026-08-31 12:22:46 | 47.52324 | 19.79419 | 39° | 11km/h | 22819m | 6.8m/s | -53.2°C | 3.3% | 38.0hPa | 2.6V | 00:00:00 | 00:00:00 | 00:00:00 | |
| SQ9EZE-15 | 2026-08-31 12:22:33 | 47.52296 | 19.79401 | 36° | 11km/h | 22744m | 5.5m/s | -52.9°C | 0.4% | 38.5hPa | 2.6V | 00:00:00 | 00:00:00 | 00:00:00 | |
| PETON7-10 | 2026-08-31 12:22:31 | 47.52291 | 19.79391 | 62° | 13km/h | 22726m | 5.3m/s | -52.8°C | 3.2% | 38.5hPa | 2.6V | 00:00:00 | 01:28:12 | 00:00:00 | |
| PETON7-10 | 2026-08-31 12:22:16 | 47.52255 | 19.79351 | 75° | 15km/h | 22633m | 6.4m/s | -52.5°C | 3.1% | 39.1hPa | 2.6V | 00:00:00 | 00:00:00 | 08:30:00 | |
| OE5DRO-10 | 2026-08-31 12:22:15 | 47.52254 | 19.79345 | 81° | 13km/h | 22626m | 7.3m/s | -52.6°C | 3.1% | 39.1hPa | 2.6V | 00:00:00 | 00:00:00 | 08:30:00 | |
| SQ9EZE-15 | 2026-08-31 12:22:13 | 47.52252 | 19.79334 | 61° | 15km/h | 22614m | 6.4m/s | -52.6°C | 0% | 0hPa | 2.6V | 00:00:00 | 00:00:00 | 00:00:00 | |
| PETON7-10 | 2026-08-31 12:22:01 | 47.52218 | 19.79319 | 42° | 20km/h | 22539m | 7.3m/s | -53.0°C | 3.2% | 39.6hPa | 2.6V | 00:00:00 | 00:00:00 | 00:00:00 | |
| LZ4TU-5 | 2026-08-31 12:21:59 | 47.52216 | 19.79316 | 21° | 15km/h | 22533m | 4.5m/s | -53.0°C | 0% | 39.7hPa | 2.6V | 00:00:00 | 00:00:00 | 00:00:00 | |
| OE5DRO-10 | 2026-08-31 12:21:56 | 47.52202 | 19.79318 | 333° | 24km/h | 22509m | 7.4m/s | -53.1°C | 3.2% | 39.8hPa | 2.6V | 00:00:00 | 00:00:00 | 00:00:00 | |
| LZ4TU-5 | 2026-08-31 12:21:54 | 47.52197 | 19.79322 | 336° | 26km/h | 22502m | 7.1m/s | 0°C | 0% | 39.9hPa | 2.6V | 00:00:00 | 00:00:00 | 00:00:00 | |
| PETON7-10 | 2026-08-31 12:21:46 | 47.52150 | 19.79345 | 12° | 26km/h | 22445m | 6.2m/s | -53.1°C | 3.2% | 40.2hPa | 2.6V | 00:00:00 | 01:27:27 | 00:00:00 | |
| OE5DRO-10 | 2026-08-31 12:21:37 | 47.52099 | 19.79370 | 339° | 24km/h | 22390m | 5.1m/s | -53.1°C | 3.3% | 40.6hPa | 2.6V | 00:00:00 | 00:00:00 | 00:00:00 | |
| PETON7-10 | 2026-08-31 12:21:30 | 47.52055 | 19.79386 | 352° | 22km/h | 22349m | 4.8m/s | -53.1°C | 3.3% | 40.8hPa | 2.6V | 00:00:00 | 00:00:00 | 00:00:00 | |
| OE5DRO-10 | 2026-08-31 12:21:18 | 47.52001 | 19.79433 | 322° | 16km/h | 22278m | 5.9m/s | -52.8°C | 3.1% | 41.3hPa | 2.7V | 00:00:00 | 00:00:00 | 00:00:00 | |
| PETON7-10 | 2026-08-31 12:21:15 | 47.51987 | 19.79454 | 306° | 15km/h | 22260m | 5.9m/s | -52.8°C | 3.1% | 41.4hPa | 2.7V | 00:00:00 | 00:00:00 | 00:00:00 | |
| PETON7-10 | 2026-08-31 12:21:00 | 47.51952 | 19.79522 | 312° | 15km/h | 22172m | 6.6m/s | -53.3°C | 3.2% | 42.0hPa | 2.7V | 00:00:00 | 01:26:41 | 00:00:00 | |
| OE5DRO-10 | 2026-08-31 12:20:59 | 47.51949 | 19.79527 | 313° | 15km/h | 22167m | 4.9m/s | -53.3°C | 3.2% | 42.1hPa | 2.7V | 00:00:00 | 00:00:00 | 00:00:00 | |
| GYPAP8-17 | 2026-08-31 12:20:49 | 47.51933 | 19.79576 | 272° | 16km/h | 22114m | 5.0m/s | -53.5°C | 0.4% | 42.4hPa | 2.7V | 00:00:00 | 00:00:00 | 00:00:00 | |
| PETON7-10 | 2026-08-31 12:20:45 | 47.51933 | 19.79595 | 261° | 11km/h | 22083m | 4.9m/s | -53.3°C | 3.3% | 42.5hPa | 2.7V | 00:00:00 | 00:00:00 | 00:00:00 | |
| OE5DRO-10 | 2026-08-31 12:20:34 | 47.51933 | 19.79643 | 265° | 7km/h | 22018m | 4.8m/s | -53.1°C | 3.2% | 43.0hPa | 2.6V | 00:00:00 | 00:00:00 | 00:00:00 | |
| PETON7-10 | 2026-08-31 12:20:30 | 47.51933 | 19.79650 | 129° | 9km/h | 21996m | 5.4m/s | -53.0°C | 3.2% | 43.1hPa | 2.6V | 00:00:00 | 00:00:00 | 00:00:00 | |
| PETON7-10 | 2026-08-31 12:20:15 | 47.51962 | 19.79663 | 165° | 15km/h | 21905m | 6.8m/s | -52.6°C | 3.1% | 43.7hPa | 2.6V | 00:00:00 | 01:25:56 | 00:00:00 | |
| SQ9EZE-15 | 2026-08-31 12:20:13 | 47.51965 | 19.79662 | 169° | 11km/h | 21899m | 5.5m/s | -52.8°C | 0% | 0hPa | 2.6V | 00:00:00 | 00:00:00 | 00:00:00 | |
| PETON7-10 | 2026-08-31 12:20:00 | 47.52016 | 19.79637 | 150° | 13km/h | 21811m | 5.2m/s | -52.8°C | 3.2% | 44.4hPa | 2.6V | 00:00:00 | 00:00:00 | 08:30:00 | |
| OE5DRO-10 | 2026-08-31 12:19:56 | 47.52031 | 19.79625 | 158° | 11km/h | 21787m | 6.0m/s | -52.8°C | 3.2% | 44.5hPa | 2.7V | 00:00:00 | 00:00:00 | 00:00:00 | |
| LZ4TU-5 | 2026-08-31 12:19:55 | 47.52031 | 19.79625 | 158° | 18km/h | 21787m | 6.1m/s | 0°C | 0% | 0hPa | 2.7V | 00:00:00 | 00:00:00 | 00:00:00 | |
| PETON7-10 | 2026-08-31 12:19:44 | 47.52056 | 19.79600 | 131° | 13km/h | 21712m | 6.7m/s | -52.9°C | 3.1% | 45.1hPa | 2.7V | 00:00:00 | 00:00:00 | 00:00:00 | |
| GYPAP8-17 | 2026-08-31 12:19:35 | 47.52052 | 19.79560 | 44° | 13km/h | 21656m | 5.9m/s | -52.9°C | 0.4% | 45.5hPa | 2.7V | 00:00:00 | 00:00:00 | 00:00:00 | |
| PETON7-10 | 2026-08-31 12:19:29 | 47.52035 | 19.79544 | 60° | 13km/h | 21621m | 4.3m/s | -52.7°C | 3.1% | 45.7hPa | 2.7V | 00:00:00 | 01:25:10 | 00:00:00 | |
| SQ9EZE-16 | 2026-08-31 12:19:21 | 47.52016 | 19.79510 | 39° | 15km/h | 21580m | 6.8m/s | 0°C | 0% | 0hPa | 2.7V | 00:00:00 | 00:00:00 | 00:00:00 | |
| OE5DRO-10 | 2026-08-31 12:19:16 | 47.52002 | 19.79510 | 331° | 9km/h | 21543m | 6.8m/s | -53.0°C | 3.1% | 46.2hPa | 2.7V | 00:00:00 | 00:00:00 | 08:30:00 | |
| PETON7-10 | 2026-08-31 12:19:14 | 47.52000 | 19.79512 | 339° | 7km/h | 21532m | 4.7m/s | 0°C | 0% | 0hPa | 2.6V | 00:00:00 | 00:00:00 | 00:00:00 | |
| OE3JTB-15 | 2026-08-31 12:19:06 | 47.51982 | 19.79513 | 319° | 16km/h | 21468m | 4.7m/s | -53.8°C | 3.3% | 46.8hPa | 2.6V | 00:00:00 | 00:00:00 | 08:30:00 | |
| PETON7-10 | 2026-08-31 12:18:59 | 47.51976 | 19.79517 | 69° | 15km/h | 21446m | 6.7m/s | -53.9°C | 3.3% | 46.9hPa | 2.7V | 00:00:00 | 00:00:00 | 00:00:00 | |
| OE5DRO-10 | 2026-08-31 12:18:57 | 47.51972 | 19.79506 | 61° | 15km/h | 21435m | 5.0m/s | -53.9°C | 3.3% | 47.1hPa | 2.7V | 00:00:00 | 00:00:00 | 00:00:00 | |
| PETON7-10 | 2026-08-31 12:18:44 | 47.51936 | 19.79467 | 12° | 15km/h | 21360m | 6.3m/s | -54.4°C | 3.4% | 47.6hPa | 2.7V | 00:00:00 | 01:24:25 | 00:00:00 | |
| SQ9EZE-15 | 2026-08-31 12:18:42 | 47.51932 | 19.79466 | 13° | 13km/h | 21353m | 6.4m/s | -54.4°C | 0% | 0hPa | 2.7V | 00:00:00 | 00:00:00 | 00:00:00 | |
| OE5DRO-10 | 2026-08-31 12:18:38 | 47.51910 | 19.79465 | 354° | 15km/h | 21324m | 6.4m/s | -54.3°C | 3.4% | 47.9hPa | 2.7V | 00:00:00 | 00:00:00 | 00:00:00 | |
| PETON7-10 | 2026-08-31 12:18:29 | 47.51880 | 19.79476 | 344° | 16km/h | 21268m | 6.7m/s | -54.2°C | 3.4% | 48.3hPa | 2.7V | 00:00:00 | 00:00:00 | 00:00:00 | |
| GYPAP8-17 | 2026-08-31 12:18:21 | 47.51851 | 19.79498 | 326° | 16km/h | 21228m | 6.6m/s | -54.2°C | 0.5% | 48.7hPa | 2.7V | 00:00:00 | 00:00:00 | 00:00:00 | |
| OE5DRO-10 | 2026-08-31 12:18:19 | 47.51844 | 19.79506 | 325° | 16km/h | 21210m | 6.2m/s | -54.4°C | 3.5% | 48.7hPa | 2.7V | 00:00:00 | 00:00:00 | 00:00:00 | |
| PETON7-10 | 2026-08-31 12:18:14 | 47.51832 | 19.79535 | 294° | 18km/h | 21182m | 4.8m/s | -54.2°C | 3.5% | 49.0hPa | 2.6V | 00:00:00 | 00:00:00 | 00:00:00 | |
| LZ4TU-5 | 2026-08-31 12:18:12 | 47.51830 | 19.79544 | 300° | 24km/h | 21177m | 5.4m/s | 0°C | 0% | 0hPa | 2.6V | 00:00:00 | 00:00:00 | 00:00:00 | |
| LZ4TU-5 | 2026-08-31 12:18:07 | 47.51819 | 19.79568 | 309° | 11km/h | 21147m | 6.0m/s | 0°C | 0% | 0hPa | 2.6V | 00:00:00 | 00:00:00 | 00:00:00 | |
| SQ9EZE-15 | 2026-08-31 12:18:01 | 47.51800 | 19.79597 | 313° | 24km/h | 21110m | 6.6m/s | 0°C | 0% | 0hPa | 2.6V | 00:00:00 | 00:00:00 | 00:00:00 | |
| PETON7-10 | 2026-08-31 12:17:59 | 47.51790 | 19.79616 | 297° | 15km/h | 21094m | 6.6m/s | -53.8°C | 3.3% | 49.6hPa | 2.6V | 00:00:00 | 01:23:40 | 00:00:00 | |
| OE5DRO-10 | 2026-08-31 12:17:46 | 47.51749 | 19.79653 | 316° | 15km/h | 21017m | 5.7m/s | -53.8°C | 3.3% | 50.2hPa | 2.6V | 00:00:00 | 00:00:00 | 00:00:00 | |
| PETON7-10 | 2026-08-31 12:17:44 | 47.51744 | 19.79659 | 325° | 15km/h | 21003m | 6.9m/s | -53.8°C | 3.4% | 50.3hPa | 2.6V | 00:00:00 | 00:00:00 | 08:30:00 | |
| SQ9EZE-16 | 2026-08-31 12:17:36 | 47.51722 | 19.79662 | 13° | 20km/h | 20962m | 6.6m/s | -53.8°C | 0.5% | 50.7hPa | 2.6V | 00:00:00 | 00:00:00 | 00:00:00 | |
| SQ9EZE-14 | 2026-08-31 12:17:32 | 47.51702 | 19.79658 | 4° | 22km/h | 20938m | 5.7m/s | 0°C | 0% | 0hPa | 2.6V | 00:00:00 | 00:00:00 | 00:00:00 | |
| PETON7-10 | 2026-08-31 12:17:30 | 47.51687 | 19.79660 | 357° | 16km/h | 20913m | 7.2m/s | -53.8°C | 3.3% | 51.1hPa | 2.6V | 00:00:00 | 00:00:00 | 00:00:00 | |
| OE5DRO-10 | 2026-08-31 12:17:27 | 47.51681 | 19.79658 | 24° | 18km/h | 20902m | 6.1m/s | -53.8°C | 3.3% | 51.1hPa | 2.6V | 00:00:00 | 00:00:00 | 00:00:00 | |
| SQ9EZE-16 | 2026-08-31 12:17:20 | 47.51659 | 19.79638 | 33° | 18km/h | 20864m | 6.3m/s | -54.0°C | 0.5% | 51.5hPa | 2.6V | 00:00:00 | 00:00:00 | 00:00:00 | |
| GYPAP8-17 | 2026-08-31 12:17:15 | 47.51636 | 19.79623 | 19° | 16km/h | 20833m | 7.3m/s | -54.0°C | 0.5% | 51.8hPa | 2.6V | 00:00:00 | 00:00:00 | 00:00:00 | |
| PETON7-10 | 2026-08-31 12:17:14 | 47.51628 | 19.79620 | 10° | 16km/h | 20822m | 5.6m/s | -54.0°C | 3.4% | 51.8hPa | 2.6V | 00:00:00 | 01:22:55 | 00:00:00 | |
| OE5DRO-10 | 2026-08-31 12:17:08 | 47.51593 | 19.79603 | 33° | 15km/h | 20777m | 4.5m/s | -53.9°C | 3.3% | 52.2hPa | 2.6V | 00:00:00 | 00:00:00 | 00:00:00 | |
| SQ9EZE-16 | 2026-08-31 12:17:05 | 47.51593 | 19.79603 | 33° | 15km/h | 20777m | 4.6m/s | -54.0°C | 0.5% | 52.2hPa | 2.7V | 00:00:00 | 00:00:00 | 00:00:00 | |
| PETON7-10 | 2026-08-31 12:16:59 | 47.51570 | 19.79608 | 324° | 15km/h | 20735m | 5.5m/s | -54.2°C | 3.4% | 52.5hPa | 2.7V | 00:00:00 | 00:00:00 | 00:00:00 | |
| OE5DRO-10 | 2026-08-31 12:16:49 | 47.51537 | 19.79646 | 310° | 15km/h | 20665m | 7.0m/s | -54.2°C | 3.4% | 53.0hPa | 2.6V | 00:00:00 | 00:00:00 | 00:00:00 | |
| PETON7-10 | 2026-08-31 12:16:44 | 47.51529 | 19.79656 | 316° | 15km/h | 20649m | 5.5m/s | -54.3°C | 3.4% | 53.2hPa | 2.6V | 00:00:00 | 00:00:00 | 00:00:00 | |
| SQ9EZE-16 | 2026-08-31 12:16:34 | 47.51510 | 19.79708 | 298° | 13km/h | 20596m | 5.6m/s | -54.4°C | 0.5% | 53.7hPa | 2.6V | 00:00:00 | 00:00:00 | 00:00:00 | |
| OE5DRO-10 | 2026-08-31 12:16:30 | 47.51509 | 19.79729 | 281° | 5km/h | 20567m | 5.9m/s | -54.3°C | 3.4% | 53.9hPa | 2.6V | 00:00:00 | 00:00:00 | 00:00:00 | |
| PETON7-10 | 2026-08-31 12:16:29 | 47.51508 | 19.79734 | 283° | 7km/h | 20562m | 4.6m/s | -54.3°C | 3.4% | 53.9hPa | 2.6V | 00:00:00 | 01:22:10 | 00:00:00 | |
| SQ9EZE-15 | 2026-08-31 12:16:27 | 47.51507 | 19.79743 | 284° | 11km/h | 20550m | 4.8m/s | 0°C | 0% | 0hPa | 2.6V | 00:00:00 | 00:00:00 | 00:00:00 | |
| LZ4TU-5 | 2026-08-31 12:16:18 | 47.51502 | 19.79758 | 0° | 0km/h | 20505m | 6.6m/s | 0°C | 0% | 0hPa | 2.6V | 00:00:00 | 00:00:00 | 00:00:00 | |
| PETON7-10 | 2026-08-31 12:16:14 | 47.51501 | 19.79757 | 356° | 7km/h | 20475m | 7.0m/s | -54.6°C | 3.5% | 54.6hPa | 2.6V | 00:00:00 | 00:00:00 | 00:00:00 | |
| GYPAP8-17 | 2026-08-31 12:16:13 | 47.51501 | 19.79757 | 357° | 4km/h | 20475m | 7.0m/s | -54.7°C | 0.5% | 54.7hPa | 2.7V | 00:00:00 | 00:00:00 | 00:00:00 | |
| OE5DRO-10 | 2026-08-31 12:16:12 | 47.51498 | 19.79759 | 261° | 7km/h | 20458m | 5.4m/s | -54.6°C | 3.5% | 54.8hPa | 2.7V | 00:00:00 | 00:00:00 | 08:30:00 | |
| SQ9EZE-15 | 2026-08-31 12:16:05 | 47.51498 | 19.79755 | 103° | 9km/h | 20428m | 5.1m/s | 0°C | 0% | 0hPa | 2.7V | 00:00:00 | 00:00:00 | 00:00:00 | |
| SQ9EZE-16 | 2026-08-31 12:16:03 | 47.51498 | 19.79747 | 80° | 11km/h | 20419m | 5.9m/s | -54.6°C | 0% | 55.2hPa | 2.7V | 00:00:00 | 00:00:00 | 00:00:00 | |
| PETON7-10 | 2026-08-31 12:15:59 | 47.51492 | 19.79728 | 56° | 13km/h | 20390m | 5.9m/s | -54.5°C | 3.4% | 55.4hPa | 2.7V | 00:00:00 | 00:00:00 | 00:00:00 | |
| OE5DRO-10 | 2026-08-31 12:15:52 | 47.51484 | 19.79710 | 64° | 20km/h | 20343m | 7.5m/s | -54.5°C | 3.5% | 55.8hPa | 2.7V | 00:00:00 | 00:00:00 | 00:00:00 | |
| SQ9EZE-16 | 2026-08-31 12:15:49 | 47.51482 | 19.79699 | 75° | 18km/h | 20331m | 4.4m/s | 0°C | 0% | 56.0hPa | 2.7V | 00:00:00 | 00:00:00 | 00:00:00 | |
| PETON7-10 | 2026-08-31 12:15:44 | 47.51466 | 19.79671 | 45° | 18km/h | 20303m | 5.7m/s | -54.5°C | 3.4% | 56.1hPa | 2.7V | 00:00:00 | 01:21:25 | 00:00:00 | |
| OE3JTB-15 | 2026-08-31 12:15:35 | 47.51439 | 19.79627 | 56° | 20km/h | 20242m | 6.8m/s | -54.6°C | 3.4% | 56.7hPa | 2.7V | 00:00:00 | 00:00:00 | 00:00:00 | |
| SQ9EZE-16 | 2026-08-31 12:15:31 | 47.51436 | 19.79619 | 61° | 27km/h | 20236m | 5.3m/s | 0°C | 0% | 0hPa | 2.7V | 00:00:00 | 00:00:00 | 00:00:00 | |
| PETON7-10 | 2026-08-31 12:15:29 | 47.51424 | 19.79594 | 47° | 18km/h | 20219m | 5.3m/s | -54.5°C | 3.3% | 56.9hPa | 2.7V | 00:00:00 | 00:00:00 | 08:30:00 | |
| SQ9EZE-16 | 2026-08-31 12:15:15 | 47.51389 | 19.79529 | 47° | 26km/h | 20142m | 7.6m/s | 0°C | 0% | 0hPa | 2.6V | 00:00:00 | 00:00:00 | 00:00:00 | |
| PETON7-10 | 2026-08-31 12:15:14 | 47.51378 | 19.79515 | 38° | 22km/h | 20130m | 5.6m/s | -55.2°C | 3.5% | 57.7hPa | 2.6V | 00:00:00 | 00:00:00 | 00:00:00 | |
| GYPAP8-17 | 2026-08-31 12:15:05 | 47.51339 | 19.79483 | 20° | 16km/h | 20083m | 4.5m/s | -55.0°C | 0.5% | 58.2hPa | 2.6V | 00:00:00 | 00:00:00 | 00:00:00 | |
| SQ9EZE-14 | 2026-08-31 12:15:04 | 47.51335 | 19.79481 | 29° | 18km/h | 20078m | 5.7m/s | 0°C | 0% | 0hPa | 2.6V | 00:00:00 | 00:00:00 | 00:00:00 | |
| OE5DRO-10 | 2026-08-31 12:15:00 | 47.51308 | 19.79464 | 16° | 22km/h | 20051m | 4.4m/s | -55.2°C | 3.5% | 58.4hPa | 2.6V | 00:00:00 | 00:00:00 | 00:00:00 | |
| PETON7-10 | 2026-08-31 12:14:59 | 47.51301 | 19.79461 | 20° | 22km/h | 20046m | 6.1m/s | -55.2°C | 3.5% | 58.5hPa | 2.6V | 00:00:00 | 01:20:40 | 00:00:00 | |
| PETON7-10 | 2026-08-31 12:14:44 | 47.51225 | 19.79430 | 18° | 15km/h | 19963m | 6.2m/s | -55.4°C | 3.6% | 59.3hPa | 2.6V | 00:00:00 | 00:00:00 | 00:00:00 | |
| SQ9EZE-16 | 2026-08-31 12:14:43 | 47.51225 | 19.79430 | 19° | 24km/h | 19963m | 6.2m/s | 0°C | 0% | 0hPa | 2.7V | 00:00:00 | 00:00:00 | 00:00:00 | |
| OE5DRO-10 | 2026-08-31 12:14:41 | 47.51210 | 19.79420 | 41° | 13km/h | 19946m | 5.3m/s | 0°C | 0% | 0hPa | 2.7V | 00:00:00 | 00:00:00 | 00:00:00 | |
| PETON7-10 | 2026-08-31 12:14:29 | 47.51193 | 19.79384 | 30° | 13km/h | 19878m | 4.3m/s | -55.4°C | 3.7% | 60.0hPa | 2.7V | 00:00:00 | 00:00:00 | 00:00:00 | |
| OE3JTB-15 | 2026-08-31 12:14:28 | 47.51178 | 19.79372 | 42° | 13km/h | 19857m | 5.6m/s | -55.2°C | 3.6% | 60.2hPa | 2.7V | 00:00:00 | 01:20:06 | 00:00:00 | |
| OE5DRO-10 | 2026-08-31 12:14:22 | 47.51173 | 19.79358 | 65° | 11km/h | 19841m | 6.4m/s | 0°C | 0% | 0hPa | 2.7V | 00:00:00 | 00:00:00 | 00:00:00 | |
| PETON7-10 | 2026-08-31 12:14:14 | 47.51160 | 19.79335 | 56° | 11km/h | 19796m | 5.9m/s | -55.0°C | 3.6% | 60.8hPa | 2.7V | 00:00:00 | 01:19:55 | 00:00:00 | |
| OE5DRO-10 | 2026-08-31 12:14:03 | 47.51143 | 19.79297 | 87° | 13km/h | 19733m | 6.1m/s | 0°C | 0% | 0hPa | 2.7V | 00:00:00 | 00:00:00 | 00:00:00 | |
| PETON7-10 | 2026-08-31 12:13:59 | 47.51141 | 19.79285 | 32° | 15km/h | 19710m | 5.4m/s | -54.6°C | 3.4% | 61.6hPa | 2.7V | 00:00:00 | 00:00:00 | 00:00:00 | |
| GYPAP8-17 | 2026-08-31 12:13:53 | 47.51125 | 19.79271 | 27° | 18km/h | 19682m | 5.6m/s | -54.5°C | 0.5% | 61.9hPa | 2.6V | 00:00:00 | 00:00:00 | 00:00:00 | |
| PETON7-10 | 2026-08-31 12:13:44 | 47.51110 | 19.79226 | 46° | 15km/h | 19625m | 6.5m/s | -54.6°C | 3.4% | 62.5hPa | 2.6V | 00:00:00 | 00:00:00 | 00:00:00 | |
| PETON7-10 | 2026-08-31 12:13:29 | 47.51085 | 19.79163 | 85° | 15km/h | 19545m | 3.7m/s | -54.9°C | 3.4% | 63.3hPa | 2.6V | 00:00:00 | 01:19:10 | 00:00:00 | |
| OE5DRO-10 | 2026-08-31 12:13:25 | 47.51076 | 19.79160 | 23° | 15km/h | 19518m | 5.5m/s | 0°C | 0% | 0hPa | 2.6V | 00:00:00 | 00:00:00 | 00:00:00 | |
| OE3JTB-15 | 2026-08-31 12:13:16 | 47.51079 | 19.79095 | 71° | 9km/h | 19462m | 4.5m/s | -55.5°C | 3.6% | 64.1hPa | 2.6V | 00:00:00 | 00:00:00 | 00:00:00 | |
| PETON7-10 | 2026-08-31 12:13:14 | 47.51079 | 19.79095 | 71° | 13km/h | 19462m | 4.5m/s | -55.5°C | 3.6% | 64.1hPa | 2.6V | 00:00:00 | 00:00:00 | 08:30:00 | |
| OE5DRO-10 | 2026-08-31 12:13:06 | 47.51070 | 19.79071 | 87° | 18km/h | 19418m | 5.4m/s | 0°C | 0% | 0hPa | 2.7V | 00:00:00 | 00:00:00 | 00:00:00 | |
| PETON7-10 | 2026-08-31 12:12:59 | 47.51065 | 19.79021 | 75° | 16km/h | 19377m | 6.6m/s | -56.0°C | 3.7% | 65.0hPa | 2.7V | 00:00:00 | 00:00:00 | 00:00:00 | |
| GYPAP8-17 | 2026-08-31 12:12:46 | 47.51029 | 19.78967 | 34° | 15km/h | 19307m | 4.8m/s | -55.9°C | 0.6% | 65.7hPa | 2.7V | 00:00:00 | 00:00:00 | 00:00:00 | |
| PETON7-10 | 2026-08-31 12:12:44 | 47.51023 | 19.78961 | 28° | 18km/h | 19297m | 4.7m/s | -55.7°C | 3.7% | 65.7hPa | 2.7V | 00:00:00 | 01:18:25 | 00:00:00 | |
| PETON7-10 | 2026-08-31 12:12:29 | 47.50973 | 19.78897 | 38° | 22km/h | 19211m | 5.4m/s | -56.1°C | 3.7% | 66.6hPa | 2.7V | 00:00:00 | 00:00:00 | 00:00:00 | |
| OE3JTB-15 | 2026-08-31 12:12:18 | 47.50917 | 19.78864 | 41° | 20km/h | 19148m | 6.6m/s | -55.8°C | 3.7% | 67.3hPa | 2.7V | 00:00:00 | 00:00:00 | 08:30:00 | |
| PETON7-10 | 2026-08-31 12:12:13 | 47.50892 | 19.78842 | 15° | 18km/h | 19121m | 6.0m/s | -55.8°C | 3.7% | 67.6hPa | 2.7V | 00:00:00 | 00:00:00 | 00:00:00 | |
| PETON7-10 | 2026-08-31 12:11:57 | 47.50834 | 19.78788 | 23° | 22km/h | 19031m | 5.6m/s | -55.3°C | 3.6% | 68.6hPa | 2.7V | 00:00:00 | 01:17:38 | 00:00:00 | |
| OE3JTB-15 | 2026-08-31 12:11:46 | 47.50777 | 19.78769 | 34° | 24km/h | 18970m | 5.2m/s | -54.9°C | 3.5% | 69.2hPa | 2.7V | 00:00:00 | 00:00:00 | 00:00:00 | |
| PETON7-10 | 2026-08-31 12:11:43 | 47.50758 | 19.78756 | 19° | 24km/h | 18946m | 6.1m/s | -55.0°C | 3.5% | 69.5hPa | 2.7V | 00:00:00 | 00:00:00 | 00:00:00 | |
| GYPAP8-17 | 2026-08-31 12:11:37 | 47.50734 | 19.78745 | 26° | 22km/h | 18924m | 4.1m/s | -55.1°C | 0.5% | 69.8hPa | 2.7V | 00:00:00 | 00:00:00 | 00:00:00 | |
| PETON7-10 | 2026-08-31 12:11:27 | 47.50675 | 19.78702 | 30° | 24km/h | 18862m | 5.6m/s | -54.9°C | 3.4% | 70.4hPa | 2.7V | 00:00:00 | 00:00:00 | 00:00:00 | |
| OE3JTB-15 | 2026-08-31 12:11:17 | 47.50615 | 19.78682 | 13° | 22km/h | 18806m | 5.4m/s | -55.4°C | 3.6% | 71.1hPa | 2.7V | 00:00:00 | 01:16:58 | 00:00:00 | |
| PETON7-10 | 2026-08-31 12:11:12 | 47.50586 | 19.78668 | 24° | 22km/h | 18777m | 5.2m/s | -55.6°C | 3.6% | 71.4hPa | 2.7V | 00:00:00 | 01:16:53 | 00:00:00 | |
| PETON7-10 | 2026-08-31 12:10:57 | 47.50508 | 19.78622 | 10° | 20km/h | 18695m | 6.2m/s | -55.6°C | 3.6% | 72.3hPa | 2.7V | 00:00:00 | 00:00:00 | 08:30:00 | |
| OE3JTB-15 | 2026-08-31 12:10:48 | 47.50478 | 19.78582 | 39° | 27km/h | 18646m | 6.7m/s | -55.5°C | 3.5% | 72.9hPa | 2.6V | 00:00:00 | 00:00:00 | 00:00:00 | |
| PETON7-10 | 2026-08-31 12:10:42 | 47.50456 | 19.78550 | 60° | 31km/h | 18614m | 5.0m/s | -56.1°C | 3.8% | 73.2hPa | 2.6V | 00:00:00 | 00:00:00 | 00:00:00 | |
| GYPAP8-17 | 2026-08-31 12:10:35 | 47.50428 | 19.78495 | 49° | 33km/h | 18581m | 5.0m/s | -56.1°C | 0.6% | 73.7hPa | 2.6V | 00:00:00 | 00:00:00 | 00:00:00 | |
| PETON7-10 | 2026-08-31 12:10:27 | 47.50374 | 19.78427 | 44° | 27km/h | 18530m | 5.2m/s | -55.7°C | 3.6% | 74.2hPa | 2.6V | 00:00:00 | 01:16:08 | 00:00:00 | |
| OE3JTB-15 | 2026-08-31 12:10:19 | 47.50331 | 19.78383 | 20° | 27km/h | 18486m | 5.8m/s | -55.8°C | 3.6% | 74.8hPa | 2.6V | 00:00:00 | 00:00:00 | 00:00:00 | |
| PETON7-10 | 2026-08-31 12:10:11 | 47.50279 | 19.78358 | 15° | 27km/h | 18446m | 4.5m/s | -56.0°C | 3.7% | 75.2hPa | 2.6V | 00:00:00 | 00:00:00 | 00:00:00 | |
| PETON7-10 | 2026-08-31 12:09:56 | 47.50176 | 19.78335 | 352° | 31km/h | 18365m | 4.4m/s | -56.3°C | 3.9% | 76.1hPa | 2.7V | 00:00:00 | 00:00:00 | 00:00:00 | |
| OE3JTB-15 | 2026-08-31 12:09:50 | 47.50126 | 19.78332 | 13° | 26km/h | 18333m | 5.8m/s | -56.2°C | 3.8% | 76.5hPa | 2.7V | 00:00:00 | 01:15:31 | 00:00:00 | |
| PETON7-10 | 2026-08-31 12:09:41 | 47.50060 | 19.78311 | 351° | 26km/h | 18283m | 3.8m/s | -55.9°C | 3.7% | 77.2hPa | 2.7V | 00:00:00 | 01:15:22 | 00:00:00 | |
| GYPAP8-17 | 2026-08-31 12:09:28 | 47.49981 | 19.78296 | 359° | 18km/h | 18217m | 5.3m/s | -56.1°C | 0.7% | 78.0hPa | 2.7V | 00:00:00 | 00:00:00 | 00:00:00 | |
| PETON7-10 | 2026-08-31 12:09:26 | 47.49964 | 19.78299 | 351° | 15km/h | 18201m | 3.6m/s | -56.2°C | 3.7% | 78.1hPa | 2.7V | 00:00:00 | 00:00:00 | 00:00:00 | |
| OE3JTB-15 | 2026-08-31 12:09:21 | 47.49944 | 19.78296 | 37° | 18km/h | 18175m | 6.6m/s | -56.4°C | 3.7% | 78.5hPa | 2.7V | 00:00:00 | 00:00:00 | 00:00:00 | |
| PETON7-10 | 2026-08-31 12:09:11 | 47.49914 | 19.78277 | 10° | 22km/h | 18118m | 6.3m/s | -56.3°C | 3.7% | 79.2hPa | 2.7V | 00:00:00 | 00:00:00 | 00:00:00 | |
| PETON7-10 | 2026-08-31 12:08:56 | 47.49834 | 19.78261 | 4° | 13km/h | 18034m | 5.0m/s | -57.0°C | 4.0% | 80.3hPa | 2.7V | 00:00:00 | 01:14:37 | 00:00:00 | |
| OE3JTB-15 | 2026-08-31 12:08:52 | 47.49814 | 19.78259 | 5° | 9km/h | 18012m | 6.9m/s | -57.1°C | 4.1% | 80.5hPa | 2.7V | 00:00:00 | 00:00:00 | 00:00:00 | |
| PETON7-10 | 2026-08-31 12:08:41 | 47.49788 | 19.78253 | 330° | 9km/h | 17949m | 5.5m/s | -56.6°C | 4.0% | 81.3hPa | 2.7V | 00:00:00 | 00:00:00 | 08:30:00 | |
| PETON7-10 | 2026-08-31 12:08:26 | 47.49778 | 19.78226 | 329° | 9km/h | 17862m | 3.7m/s | -55.9°C | 3.8% | 82.4hPa | 2.7V | 00:00:00 | 00:00:00 | 00:00:00 | |
| OE3JTB-15 | 2026-08-31 12:08:22 | 47.49774 | 19.78227 | 110° | 29km/h | 17839m | 4.0m/s | -55.7°C | 3.7% | 82.8hPa | 2.7V | 00:00:00 | 01:14:03 | 00:00:00 | |
| GYPAP8-17 | 2026-08-31 12:08:13 | 47.49783 | 19.78193 | 97° | 9km/h | 17790m | 5.7m/s | -55.3°C | 0.7% | 83.4hPa | 2.7V | 00:00:00 | 00:00:00 | 00:00:00 | |
| PETON7-10 | 2026-08-31 12:08:11 | 47.49783 | 19.78183 | 80° | 13km/h | 17772m | 7.0m/s | -55.2°C | 3.7% | 83.5hPa | 2.7V | 00:00:00 | 01:13:52 | 00:00:00 | |
| PETON7-10 | 2026-08-31 12:07:56 | 47.49802 | 19.78114 | 115° | 26km/h | 17684m | 7.5m/s | -55.0°C | 3.4% | 84.7hPa | 2.7V | 00:00:00 | 00:00:00 | 00:00:00 | |
| PETON7-10 | 2026-08-31 12:07:41 | 47.49834 | 19.77974 | 105° | 33km/h | 17607m | 4.8m/s | -55.8°C | 3.5% | 85.8hPa | 2.7V | 00:00:00 | 00:00:00 | 00:00:00 | |
| PETON7-10 | 2026-08-31 12:07:26 | 47.49846 | 19.77791 | 81° | 37km/h | 17528m | 4.7m/s | -57.1°C | 4.0% | 86.8hPa | 2.7V | 00:00:00 | 01:13:07 | 00:00:00 | |
| PETON7-10 | 2026-08-31 12:07:11 | 47.49818 | 19.77596 | 76° | 35km/h | 17449m | 6.2m/s | -57.0°C | 4.0% | 87.9hPa | 2.7V | 00:00:00 | 00:00:00 | 00:00:00 | |
| PETON7-10 | 2026-08-31 12:06:56 | 47.49766 | 19.77420 | 71° | 40km/h | 17368m | 5.6m/s | -56.9°C | 4.0% | 89.0hPa | 2.7V | 00:00:00 | 00:00:00 | 00:00:00 | |
| PETON7-10 | 2026-08-31 12:06:41 | 47.49697 | 19.77223 | 64° | 37km/h | 17288m | 6.1m/s | -56.3°C | 3.8% | 90.2hPa | 2.7V | 00:00:00 | 01:12:22 | 00:00:00 | |
| PETON7-10 | 2026-08-31 12:06:26 | 47.49633 | 19.77042 | 59° | 33km/h | 17207m | 4.2m/s | -56.0°C | 3.9% | 91.4hPa | 2.7V | 00:00:00 | 00:00:00 | 08:30:00 | |
| PETON7-10 | 2026-08-31 12:06:11 | 47.49579 | 19.76878 | 76° | 35km/h | 17127m | 6.1m/s | -55.7°C | 3.7% | 92.6hPa | 2.7V | 00:00:00 | 00:00:00 | 00:00:00 | |
| GYPAP8-17 | 2026-08-31 12:06:07 | 47.49573 | 19.76848 | 69° | 26km/h | 17111m | 4.6m/s | -55.7°C | 0.8% | 92.8hPa | 2.7V | 00:00:00 | 00:00:00 | 00:00:00 | |
| PETON7-10 | 2026-08-31 12:05:56 | 47.49539 | 19.76697 | 81° | 35km/h | 17051m | 4.7m/s | -55.9°C | 3.8% | 93.6hPa | 2.7V | 00:00:00 | 01:11:37 | 00:00:00 | |
| PETON7-10 | 2026-08-31 12:05:41 | 47.49505 | 19.76512 | 77° | 40km/h | 16971m | 6.4m/s | -56.1°C | 3.9% | 94.8hPa | 2.7V | 00:00:00 | 00:00:00 | 00:00:00 | |
| PETON7-10 | 2026-08-31 12:05:26 | 47.49453 | 19.76302 | 78° | 44km/h | 16893m | 5.8m/s | -56.5°C | 3.9% | 96.0hPa | 2.7V | 00:00:00 | 00:00:00 | 00:00:00 | |
| PETON7-10 | 2026-08-31 12:05:11 | 47.49387 | 19.76077 | 65° | 38km/h | 16814m | 4.4m/s | -56.9°C | 4.1% | 97.1hPa | 2.7V | 00:00:00 | 01:10:52 | 00:00:00 | |
| PETON7-10 | 2026-08-31 12:04:55 | 47.49317 | 19.75870 | 70° | 33km/h | 16729m | 6.5m/s | -56.5°C | 4.2% | 98.5hPa | 2.7V | 00:00:00 | 00:00:00 | 00:00:00 | |
| PETON7-10 | 2026-08-31 12:04:40 | 47.49289 | 19.75693 | 89° | 29km/h | 16649m | 4.9m/s | -56.3°C | 4.1% | 99.8hPa | 2.7V | 00:00:00 | 00:00:00 | 00:00:00 | |
| GYPAP8-17 | 2026-08-31 12:04:31 | 47.49286 | 19.75614 | 91° | 31km/h | 16605m | 4.6m/s | -56.6°C | 1.1% | 100.5hPa | 2.7V | 00:00:00 | 00:00:00 | 00:00:00 | |
| PETON7-10 | 2026-08-31 12:04:25 | 47.49294 | 19.75525 | 109° | 38km/h | 16566m | 3.4m/s | -56.7°C | 4.3% | 101.1hPa | 2.7V | 00:00:00 | 01:10:06 | 00:00:00 | |
| PETON7-10 | 2026-08-31 12:03:55 | 47.49317 | 19.75053 | 90° | 53km/h | 16404m | 5.7m/s | -57.7°C | 4.7% | 103.7hPa | 2.7V | 00:00:00 | 00:00:00 | 00:00:00 | |
| PETON7-10 | 2026-08-31 12:03:40 | 47.49299 | 19.74765 | 79° | 53km/h | 16326m | 6.3m/s | -58.1°C | 4.9% | 105.1hPa | 2.7V | 00:00:00 | 01:09:21 | 00:00:00 | |
| GYPAP8-17 | 2026-08-31 12:03:27 | 47.49273 | 19.74537 | 83° | 53km/h | 16265m | 5.4m/s | -58.8°C | 1.6% | 106.1hPa | 2.7V | 00:00:00 | 00:00:00 | 00:00:00 | |
| PETON7-10 | 2026-08-31 12:03:25 | 47.49266 | 19.74476 | 78° | 53km/h | 16251m | 4.8m/s | -58.7°C | 5.2% | 106.3hPa | 2.7V | 00:00:00 | 00:00:00 | 00:00:00 | |
| PETON7-10 | 2026-08-31 12:03:10 | 47.49212 | 19.74192 | 70° | 51km/h | 16171m | 5.9m/s | -58.7°C | 5.1% | 107.6hPa | 2.7V | 00:00:00 | 00:00:00 | 00:00:00 | |
| PETON7-10 | 2026-08-31 12:02:55 | 47.49142 | 19.73924 | 64° | 51km/h | 16089m | 3.3m/s | -58.9°C | 5.5% | 109.0hPa | 2.7V | 00:00:00 | 01:08:36 | 00:00:00 | |
| PETON7-10 | 2026-08-31 12:02:40 | 47.49058 | 19.73665 | 63° | 47km/h | 16008m | 5.3m/s | -58.8°C | 5.4% | 110.5hPa | 2.7V | 00:00:00 | 00:00:00 | 00:00:00 | |
| PETON7-10 | 2026-08-31 12:02:25 | 47.48979 | 19.73424 | 68° | 47km/h | 15928m | 5.8m/s | -58.7°C | 5.5% | 111.9hPa | 2.7V | 00:00:00 | 00:00:00 | 00:00:00 | |
| GYPAP8-17 | 2026-08-31 12:02:19 | 47.48951 | 19.73339 | 67° | 53km/h | 15903m | 5.1m/s | -58.7°C | 1.8% | 112.3hPa | 2.7V | 00:00:00 | 00:00:00 | 00:00:00 | |
| PETON7-10 | 2026-08-31 12:02:10 | 47.48899 | 19.73181 | 59° | 44km/h | 15851m | 5.8m/s | -58.4°C | 5.5% | 113.2hPa | 2.7V | 00:00:00 | 01:07:51 | 00:00:00 | |
| PETON7-10 | 2026-08-31 12:01:55 | 47.48810 | 19.72972 | 64° | 42km/h | 15775m | 5.1m/s | -58.7°C | 5.7% | 114.6hPa | 2.7V | 00:00:00 | 00:00:00 | 08:30:00 | |
| PETON7-10 | 2026-08-31 12:01:40 | 47.48745 | 19.72764 | 72° | 42km/h | 15696m | 5.3m/s | -58.1°C | 5.7% | 116.1hPa | 2.7V | 00:00:00 | 00:00:00 | 00:00:00 | |
| PETON7-10 | 2026-08-31 12:01:25 | 47.48677 | 19.72553 | 74° | 42km/h | 15616m | 5.1m/s | -57.9°C | 5.8% | 117.5hPa | 2.7V | 00:00:00 | 01:07:06 | 00:00:00 | |
| GYPAP8-17 | 2026-08-31 12:01:15 | 47.48634 | 19.72417 | 71° | 44km/h | 15573m | 5.0m/s | -58.1°C | 2.4% | 118.5hPa | 2.7V | 00:00:00 | 00:00:00 | 00:00:00 | |
| PETON7-10 | 2026-08-31 12:01:10 | 47.48611 | 19.72341 | 61° | 42km/h | 15543m | 5.0m/s | -58.6°C | 6.1% | 118.9hPa | 2.7V | 00:00:00 | 00:00:00 | 00:00:00 | |
| PETON7-10 | 2026-08-31 12:00:55 | 47.48562 | 19.72116 | 68° | 44km/h | 15468m | 5.8m/s | -59.0°C | 6.4% | 120.4hPa | 2.7V | 00:00:00 | 00:00:00 | 00:00:00 | |
| PETON7-10 | 2026-08-31 12:00:41 | 47.48492 | 19.71893 | 67° | 42km/h | 15390m | 6.4m/s | -58.9°C | 6.3% | 121.9hPa | 2.7V | 00:00:00 | 01:06:21 | 00:00:00 | |
| PETON7-10 | 2026-08-31 12:00:24 | 47.48435 | 19.71665 | 75° | 37km/h | 15305m | 5.0m/s | -58.4°C | 6.2% | 123.6hPa | 2.7V | 00:00:00 | 00:00:00 | 00:00:00 | |
| GYPAP8-17 | 2026-08-31 12:00:10 | 47.48403 | 19.71489 | 75° | 35km/h | 15239m | 4.5m/s | -58.4°C | 2.5% | 125.0hPa | 2.7V | 00:00:00 | 00:00:00 | 00:00:00 | |
| PETON7-10 | 2026-08-31 12:00:09 | 47.48399 | 19.71466 | 79° | 35km/h | 15228m | 7.4m/s | -58.4°C | 6.3% | 125.1hPa | 2.7V | 00:00:00 | 00:00:00 | 00:00:00 | |
| OE3JTB-15 | 2026-08-31 11:59:55 | 47.48387 | 19.71293 | 98° | 46km/h | 15156m | 4.8m/s | -58.3°C | 6.4% | 126.5hPa | 2.7V | 00:00:00 | 00:00:00 | 08:30:00 | |
| PETON7-10 | 2026-08-31 11:59:54 | 47.48389 | 19.71280 | 104° | 38km/h | 15150m | 5.9m/s | -58.3°C | 6.5% | 126.6hPa | 2.7V | 00:00:00 | 01:05:35 | 00:00:00 | |
| PETON7-10 | 2026-08-31 11:59:39 | 47.48403 | 19.71066 | 99° | 53km/h | 15073m | 6.7m/s | -59.1°C | 6.8% | 128.2hPa | 2.7V | 00:00:00 | 00:00:00 | 08:30:00 | |
| OE3JTB-15 | 2026-08-31 11:59:26 | 47.48419 | 19.70811 | 99° | 64km/h | 15010m | 4.7m/s | -59.2°C | 7.1% | 129.5hPa | 2.7V | 00:00:00 | 00:00:00 | 00:00:00 | |
| PETON7-10 | 2026-08-31 11:59:24 | 47.48425 | 19.70771 | 106° | 58km/h | 15001m | 4.4m/s | -59.3°C | 7.2% | 129.7hPa | 2.7V | 00:00:00 | 00:00:00 | 00:00:00 | |
| PETON7-10 | 2026-08-31 11:59:09 | 47.48462 | 19.70450 | 100° | 69km/h | 14926m | 5.5m/s | -59.2°C | 7.3% | 131.2hPa | 2.7V | 00:00:00 | 01:04:50 | 00:00:00 | |
| GYPAP8-17 | 2026-08-31 11:59:06 | 47.48467 | 19.70400 | 99° | 71km/h | 14915m | 4.7m/s | -59.2°C | 3.4% | 131.5hPa | 2.7V | 00:00:00 | 00:00:00 | 00:00:00 | |
| OE3JTB-15 | 2026-08-31 11:58:55 | 47.48474 | 19.70091 | 91° | 68km/h | 14850m | 4.2m/s | -59.1°C | 7.8% | 132.8hPa | 2.7V | 00:00:00 | 01:04:36 | 00:00:00 | |
| PETON7-10 | 2026-08-31 11:58:54 | 47.48474 | 19.70066 | 91° | 66km/h | 14845m | 5.3m/s | -59.2°C | 7.7% | 132.9hPa | 2.7V | 00:00:00 | 00:00:00 | 00:00:00 | |
| PETON7-10 | 2026-08-31 11:58:39 | 47.48472 | 19.69694 | 84° | 68km/h | 14770m | 5.1m/s | -59.1°C | 8.0% | 134.6hPa | 2.7V | 00:00:00 | 00:00:00 | 00:00:00 | |
| OE3JTB-15 | 2026-08-31 11:58:26 | 47.48436 | 19.69317 | 81° | 64km/h | 14697m | 4.9m/s | -59.9°C | 8.8% | 136.1hPa | 2.7V | 00:00:00 | 00:00:00 | 00:00:00 | |
| PETON7-10 | 2026-08-31 11:58:24 | 47.48436 | 19.69317 | 81° | 66km/h | 14697m | 4.9m/s | -59.9°C | 8.8% | 136.1hPa | 2.7V | 00:00:00 | 01:04:05 | 00:00:00 | |
| PETON7-10 | 2026-08-31 11:58:08 | 47.48369 | 19.68934 | 79° | 60km/h | 14617m | 3.9m/s | -59.9°C | 9.6% | 138.0hPa | 2.7V | 00:00:00 | 00:00:00 | 00:00:00 | |
| GYPAP8-17 | 2026-08-31 11:58:03 | 47.48351 | 19.68821 | 75° | 60km/h | 14587m | 5.6m/s | -59.9°C | 5.2% | 138.7hPa | 2.7V | 00:00:00 | 00:00:00 | 00:00:00 | |
| OE3JTB-15 | 2026-08-31 11:57:57 | 47.48318 | 19.68653 | 83° | 58km/h | 14531m | 8.8m/s | -59.7°C | 10.5% | 139.8hPa | 2.7V | 00:00:00 | 00:00:00 | 00:00:00 | |
| PETON7-10 | 2026-08-31 11:57:53 | 47.48316 | 19.68609 | 87° | 58km/h | 14518m | 3.0m/s | -59.7°C | 10.4% | 140.0hPa | 2.7V | 00:00:00 | 00:00:00 | 00:00:00 | |
| PETON7-10 | 2026-08-31 11:57:38 | 47.48313 | 19.68280 | 93° | 60km/h | 14429m | 7.3m/s | -59.9°C | 11.2% | 142.3hPa | 2.7V | 00:00:00 | 01:03:19 | 00:00:00 | |
| OE3JTB-15 | 2026-08-31 11:57:27 | 47.48328 | 19.67995 | 94° | 71km/h | 14344m | 7.3m/s | -60.0°C | 12.4% | 144.2hPa | 2.7V | 00:00:00 | 01:03:06 | 00:00:00 | |
| PETON7-10 | 2026-08-31 11:57:23 | 47.48329 | 19.67946 | 91° | 66km/h | 14333m | 6.4m/s | -60.1°C | 12.1% | 144.5hPa | 2.7V | 00:00:00 | 00:00:00 | 08:30:00 | |
| PETON7-10 | 2026-08-31 11:57:08 | 47.48351 | 19.67582 | 95° | 73km/h | 14225m | 6.3m/s | -60.3°C | 14.3% | 146.7hPa | 2.7V | 00:00:00 | 00:00:00 | 00:00:00 | |
| GYPAP8-17 | 2026-08-31 11:57:02 | 47.48368 | 19.67459 | 108° | 77km/h | 14195m | 6.5m/s | -60.6°C | 8.9% | 147.6hPa | 2.7V | 00:00:00 | 00:00:00 | 00:00:00 | |
| OE3OSB-13 | 2026-08-31 11:56:57 | 47.48393 | 19.67265 | 94° | 73km/h | 14148m | 4.1m/s | -60.5°C | 9.8% | 148.8hPa | 2.7V | 00:00:00 | 00:00:00 | 00:00:00 | |
| PETON7-10 | 2026-08-31 11:56:53 | 47.48399 | 19.67181 | 98° | 82km/h | 14131m | 8.2m/s | -60.3°C | 15.5% | 149.2hPa | 2.7V | 00:00:00 | 01:02:34 | 00:00:00 | |
| PETON7-10 | 2026-08-31 11:56:38 | 47.48427 | 19.66723 | 94° | 86km/h | 14035m | 7.0m/s | -60.3°C | 17.0% | 151.6hPa | 2.7V | 00:00:00 | 00:00:00 | 00:00:00 | |
| OE3JTB-15 | 2026-08-31 11:56:29 | 47.48439 | 19.66367 | 87° | 86km/h | 13955m | 5.4m/s | -60.3°C | 16.7% | 153.4hPa | 2.7V | 00:00:00 | 00:00:00 | 00:00:00 | |
| OE3OSB-13 | 2026-08-31 11:56:26 | 47.48437 | 19.66309 | 89° | 77km/h | 13942m | 4.6m/s | -60.3°C | 11.0% | 153.8hPa | 2.7V | 00:00:00 | 00:00:00 | 00:00:00 | |
| PETON7-10 | 2026-08-31 11:56:23 | 47.48438 | 19.66248 | 95° | 88km/h | 13931m | 6.9m/s | -60.3°C | 16.9% | 154.0hPa | 2.7V | 00:00:00 | 00:00:00 | 00:00:00 | |
| PETON7-10 | 2026-08-31 11:56:08 | 47.48436 | 19.65761 | 95° | 84km/h | 13843m | 7.7m/s | -60.9°C | 18.9% | 156.3hPa | 2.7V | 00:00:00 | 01:01:49 | 00:00:00 | |
| OE3OSB-13 | 2026-08-31 11:55:55 | 47.48421 | 19.65326 | 87° | 97km/h | 13747m | 4.1m/s | -60.7°C | 13.7% | 158.6hPa | 2.7V | 00:00:00 | 00:00:00 | 00:00:00 | |
| PETON7-10 | 2026-08-31 11:55:53 | 47.48420 | 19.65289 | 88° | 89km/h | 13742m | 7.8m/s | -60.7°C | 20.3% | 158.6hPa | 2.7V | 00:00:00 | 00:00:00 | 00:00:00 | |
| PETON7-10 | 2026-08-31 11:55:38 | 47.48415 | 19.64788 | 86° | 97km/h | 13648m | 7.4m/s | -60.2°C | 20.4% | 160.9hPa | 2.7V | 00:00:00 | 00:00:00 | 00:00:00 | |
| OE3JTB-15 | 2026-08-31 11:55:31 | 47.48411 | 19.64542 | 93° | 102km/h | 13606m | 7.1m/s | -60.2°C | 20.9% | 162.1hPa | 2.7V | 00:00:00 | 00:00:00 | 08:30:00 | |
| OE3OSB-13 | 2026-08-31 11:55:24 | 47.48425 | 19.64255 | 91° | 102km/h | 13554m | 3.9m/s | -60.5°C | 15.3% | 163.6hPa | 2.7V | 00:00:00 | 00:00:00 | 00:00:00 | |
| PETON7-10 | 2026-08-31 11:55:22 | 47.48425 | 19.64216 | 90° | 106km/h | 13547m | 9.1m/s | -60.5°C | 21.9% | 163.7hPa | 2.7V | 00:00:00 | 01:01:03 | 00:00:00 | |
| PETON7-10 | 2026-08-31 11:55:07 | 47.48454 | 19.63627 | 90° | 108km/h | 13443m | 9.2m/s | -60.7°C | 25.2% | 166.4hPa | 2.7V | 00:00:00 | 00:00:00 | 08:30:00 | |
| OE3OSB-13 | 2026-08-31 11:54:53 | 47.48441 | 19.63030 | 86° | 104km/h | 13342m | 10.6m/s | -60.0°C | 17.2% | 169.1hPa | 2.7V | 00:00:00 | 00:00:00 | 00:00:00 | |
| PETON7-10 | 2026-08-31 11:54:52 | 47.48441 | 19.63030 | 87° | 110km/h | 13342m | 10.5m/s | -60.0°C | 24.1% | 169.1hPa | 2.7V | 00:00:00 | 00:00:00 | 00:00:00 | |
| GYPAP8-17 | 2026-08-31 11:54:51 | 47.48441 | 19.63030 | 87° | 106km/h | 13342m | 10.6m/s | -60.0°C | 17.2% | 169.1hPa | 2.7V | 00:00:00 | 00:00:00 | 00:00:00 | |
| PETON7-10 | 2026-08-31 11:54:37 | 47.48438 | 19.62422 | 88° | 102km/h | 13246m | 6.0m/s | -59.6°C | 23.7% | 171.7hPa | 2.7V | 00:00:00 | 01:00:18 | 00:00:00 | |
| OE3OSB-13 | 2026-08-31 11:54:22 | 47.48427 | 19.61817 | 87° | 97km/h | 13138m | 6.6m/s | -59.4°C | 15.8% | 174.6hPa | 2.7V | 00:00:00 | 00:00:00 | 00:00:00 | |
| OE3JTB-15 | 2026-08-31 11:54:19 | 47.48424 | 19.61707 | 88° | 100km/h | 13123m | 3.8m/s | -59.1°C | 21.7% | 175.1hPa | 2.7V | 00:00:00 | 00:00:00 | 00:00:00 | |
| PETON7-10 | 2026-08-31 11:54:07 | 47.48425 | 19.61295 | 91° | 102km/h | 13055m | 5.2m/s | -59.2°C | 21.5% | 177.2hPa | 2.7V | 00:00:00 | 00:00:00 | 00:00:00 | |
| OE3OSB-13 | 2026-08-31 11:53:51 | 47.48436 | 19.60650 | 95° | 100km/h | 12941m | 6.9m/s | -58.6°C | 14.9% | 180.4hPa | 2.7V | 00:00:00 | 00:00:00 | 00:00:00 | |
| OE3JTB-15 | 2026-08-31 11:53:50 | 47.48436 | 19.60649 | 96° | 106km/h | 12941m | 6.8m/s | -58.6°C | 21.1% | 180.3hPa | 2.7V | 00:00:00 | 00:59:31 | 00:00:00 | |
| GYPAP8-17 | 2026-08-31 11:53:48 | 47.48440 | 19.60573 | 94° | 102km/h | 12927m | 4.7m/s | -58.5°C | 14.6% | 180.7hPa | 2.7V | 00:00:00 | 00:00:00 | 00:00:00 | |
| PETON7-10 | 2026-08-31 11:53:37 | 47.48467 | 19.60132 | 96° | 106km/h | 12852m | 8.8m/s | -58.2°C | 20.6% | 182.9hPa | 2.7V | 00:00:00 | 00:00:00 | 00:00:00 | |
| PETON7-10 | 2026-08-31 11:53:22 | 47.48509 | 19.59545 | 95° | 108km/h | 12756m | 3.9m/s | -57.8°C | 21.2% | 185.9hPa | 2.7V | 00:00:00 | 00:00:00 | 00:00:00 | |
| OE3JTB-15 | 2026-08-31 11:53:21 | 47.48511 | 19.59504 | 94° | 108km/h | 12750m | 9.7m/s | -57.8°C | 21.2% | 186.0hPa | 2.7V | 00:00:00 | 00:00:00 | 00:00:00 | |
| OE3OSB-13 | 2026-08-31 11:53:20 | 47.48514 | 19.59421 | 92° | 110km/h | 12735m | 10.4m/s | -57.8°C | 15.3% | 186.5hPa | 2.9V | 00:00:00 | 00:00:00 | 00:00:00 | |
| PETON7-10 | 2026-08-31 11:53:07 | 47.48548 | 19.58948 | 98° | 108km/h | 12654m | 9.6m/s | -57.6°C | 22.1% | 188.8hPa | 2.9V | 00:00:00 | 00:58:48 | 00:00:00 | |
| OE3OSB-13 | 2026-08-31 11:52:49 | 47.48595 | 19.58184 | 91° | 104km/h | 12526m | 5.1m/s | -57.0°C | 17.5% | 192.8hPa | 2.9V | 00:00:00 | 00:00:00 | 00:00:00 | |
| PETON7-10 | 2026-08-31 11:52:37 | 47.48618 | 19.57742 | 93° | 113km/h | 12447m | 3.4m/s | -56.5°C | 24.6% | 195.0hPa | 2.9V | 00:00:00 | 00:00:00 | 00:00:00 | |
| GYPAP8-17 | 2026-08-31 11:52:31 | 47.48623 | 19.57526 | 92° | 117km/h | 12413m | 4.3m/s | -56.4°C | 18.7% | 196.2hPa | 2.9V | 00:00:00 | 00:00:00 | 00:00:00 | |
| PETON7-10 | 2026-08-31 11:52:22 | 47.48650 | 19.57107 | 94° | 113km/h | 12343m | 6.7m/s | -56.0°C | 25.4% | 198.2hPa | 2.9V | 00:00:00 | 00:58:03 | 00:00:00 | |
| OE3OSB-13 | 2026-08-31 11:52:17 | 47.48655 | 19.56905 | 91° | 110km/h | 12313m | 4.3m/s | -55.9°C | 19.5% | 199.3hPa | 2.9V | 00:00:00 | 00:00:00 | 00:00:00 | |
| PETON7-10 | 2026-08-31 11:52:07 | 47.48669 | 19.56475 | 96° | 115km/h | 12243m | 5.0m/s | -55.5°C | 27.4% | 201.5hPa | 2.9V | 00:00:00 | 00:00:00 | 00:00:00 | |
| OE3OSB-13 | 2026-08-31 11:51:46 | 47.48714 | 19.55577 | 91° | 115km/h | 12092m | 7.7m/s | -55.0°C | 23.6% | 206.2hPa | 2.9V | 00:00:00 | 00:00:00 | 00:00:00 | |
| S52SK | 2026-08-31 11:51:41 | 47.48719 | 19.55400 | 94° | 120km/h | 12065m | 8.9m/s | -54.9°C | 0% | 0hPa | 2.9V | 00:00:00 | 00:00:00 | 00:00:00 | |
| PETON7-10 | 2026-08-31 11:51:37 | 47.48726 | 19.55170 | 94° | 120km/h | 12028m | 4.8m/s | -54.5°C | 29.6% | 208.2hPa | 2.9V | 00:00:00 | 00:57:18 | 00:00:00 | |
| S52SK | 2026-08-31 11:51:35 | 47.48727 | 19.55127 | 94° | 115km/h | 12023m | 4.9m/s | -54.6°C | 0% | 0hPa | 2.9V | 00:00:00 | 00:00:00 | 00:00:00 | |
| S52SK | 2026-08-31 11:51:31 | 47.48736 | 19.54910 | 96° | 120km/h | 11989m | 5.2m/s | -54.3°C | 0% | 0hPa | 2.9V | 00:00:00 | 00:00:00 | 00:00:00 | |
| GYPAP8-17 | 2026-08-31 11:51:28 | 47.48742 | 19.54821 | 95° | 120km/h | 11976m | 5.4m/s | -54.3°C | 22.7% | 210.0hPa | 2.9V | 00:00:00 | 00:00:00 | 00:00:00 | |
| PETON7-10 | 2026-08-31 11:51:22 | 47.48762 | 19.54497 | 96° | 122km/h | 11929m | 7.2m/s | -54.0°C | 29.0% | 211.5hPa | 2.9V | 00:00:00 | 00:00:00 | 00:00:00 | |
| S52SK | 2026-08-31 11:51:18 | 47.48770 | 19.54361 | 95° | 120km/h | 11909m | 6.9m/s | -53.9°C | 0% | 0hPa | 2.9V | 00:00:00 | 00:00:00 | 00:00:00 | |
| OE3OSB-13 | 2026-08-31 11:51:15 | 47.48776 | 19.54181 | 89° | 120km/h | 11885m | 2.5m/s | -53.7°C | 23.1% | 213.1hPa | 2.9V | 00:00:00 | 00:00:00 | 00:00:00 | |
| S52SK | 2026-08-31 11:51:13 | 47.48775 | 19.54090 | 90° | 124km/h | 11873m | 6.9m/s | -53.7°C | 0% | 0hPa | 2.9V | 00:00:00 | 00:00:00 | 00:00:00 | |
| PETON7-10 | 2026-08-31 11:51:07 | 47.48767 | 19.53816 | 91° | 119km/h | 11834m | 6.2m/s | -53.4°C | 28.8% | 214.7hPa | 2.9V | 00:00:00 | 00:00:00 | 00:00:00 | |
| PETON7-10 | 2026-08-31 11:50:52 | 47.48770 | 19.53157 | 92° | 117km/h | 11735m | 5.0m/s | -52.7°C | 28.1% | 218.1hPa | 2.9V | 00:00:00 | 00:56:33 | 00:00:00 | |
| OE3OSB-13 | 2026-08-31 11:50:44 | 47.48771 | 19.52798 | 88° | 117km/h | 11681m | 3.9m/s | -52.5°C | 21.4% | 220.1hPa | 2.9V | 00:00:00 | 00:00:00 | 00:00:00 | |
| PETON7-10 | 2026-08-31 11:50:37 | 47.48777 | 19.52500 | 90° | 117km/h | 11633m | 8.4m/s | -52.1°C | 26.7% | 221.6hPa | 2.9V | 00:00:00 | 00:00:00 | 08:30:00 | |
| S52SK | 2026-08-31 11:50:28 | 47.48777 | 19.52162 | 90° | 119km/h | 11572m | 10.6m/s | -51.7°C | 0% | 0hPa | 2.7V | 00:00:00 | 00:00:00 | 00:00:00 | |
| GYPAP8-17 | 2026-08-31 11:50:25 | 47.48777 | 19.52024 | 90° | 124km/h | 11550m | 9.7m/s | -51.5°C | 18.9% | 224.5hPa | 2.7V | 00:00:00 | 00:00:00 | 00:00:00 | |
| PETON7-10 | 2026-08-31 11:50:22 | 47.48779 | 19.51849 | 94° | 115km/h | 11522m | 7.4m/s | -51.3°C | 23.7% | 225.3hPa | 2.7V | 00:00:00 | 00:00:00 | 00:00:00 | |
| OE3OSB-13 | 2026-08-31 11:50:13 | 47.48783 | 19.51472 | 87° | 113km/h | 11473m | 5.7m/s | -51.0°C | 20.3% | 227.1hPa | 2.7V | 00:00:00 | 00:00:00 | 00:00:00 | |
| PETON7-10 | 2026-08-31 11:50:07 | 47.48782 | 19.51199 | 91° | 122km/h | 11440m | 6.3m/s | -50.7°C | 28.1% | 228.2hPa | 2.7V | 00:00:00 | 00:55:48 | 00:00:00 | |
| PETON7-10 | 2026-08-31 11:49:52 | 47.48784 | 19.50520 | 93° | 126km/h | 11348m | 5.4m/s | -50.2°C | 37.7% | 231.4hPa | 2.7V | 00:00:00 | 00:00:00 | 00:00:00 | |
| OE3OSB-13 | 2026-08-31 11:49:42 | 47.48785 | 19.50010 | 90° | 126km/h | 11286m | 5.8m/s | -49.7°C | 31.7% | 233.6hPa | 2.7V | 00:00:00 | 00:00:00 | 00:00:00 | |
| PETON7-10 | 2026-08-31 11:49:37 | 47.48789 | 19.49818 | 93° | 130km/h | 11257m | 5.0m/s | -49.4°C | 39.7% | 234.6hPa | 2.7V | 00:00:00 | 00:00:00 | 00:00:00 | |
| S52SK | 2026-08-31 11:49:33 | 47.48789 | 19.49668 | 89° | 133km/h | 11242m | 6.5m/s | -49.3°C | 0% | 0hPa | 2.7V | 00:00:00 | 00:00:00 | 00:00:00 | |
| S52SK | 2026-08-31 11:49:28 | 47.48784 | 19.49426 | 90° | 128km/h | 11215m | 4.7m/s | -49.2°C | 0% | 0hPa | 2.7V | 00:00:00 | 00:00:00 | 00:00:00 | |
| PETON7-10 | 2026-08-31 11:49:22 | 47.48782 | 19.49094 | 90° | 128km/h | 11175m | 4.2m/s | -48.8°C | 40.7% | 237.8hPa | 2.7V | 00:00:00 | 00:55:03 | 00:00:00 | |
| GYPAP8-17 | 2026-08-31 11:49:14 | 47.48781 | 19.48758 | 91° | 131km/h | 11133m | 8.5m/s | -48.5°C | 32.8% | 239.4hPa | 2.7V | 00:00:00 | 00:00:00 | 00:00:00 | |
| OE3OSB-13 | 2026-08-31 11:49:11 | 47.48783 | 19.48525 | 88° | 124km/h | 11098m | 6.2m/s | -48.3°C | 32.3% | 240.6hPa | 2.7V | 00:00:00 | 00:00:00 | 00:00:00 | |
| PETON7-10 | 2026-08-31 11:49:07 | 47.48785 | 19.48380 | 93° | 126km/h | 11077m | 5.9m/s | -48.1°C | 38.6% | 241.3hPa | 2.7V | 00:00:00 | 00:00:00 | 00:00:00 | |
| PETON7-10 | 2026-08-31 11:48:52 | 47.48786 | 19.47671 | 87° | 120km/h | 10979m | 8.8m/s | -47.3°C | 34.4% | 245.0hPa | 2.9V | 00:00:00 | 00:00:00 | 00:00:00 | |
| OE3OSB-13 | 2026-08-31 11:48:40 | 47.48781 | 19.47130 | 92° | 113km/h | 10900m | 8.2m/s | -46.8°C | 26.7% | 247.8hPa | 2.9V | 00:00:00 | 00:00:00 | 00:00:00 | |
| PETON7-10 | 2026-08-31 11:48:37 | 47.48778 | 19.47000 | 87° | 124km/h | 10879m | 4.9m/s | -46.7°C | 33.2% | 248.6hPa | 2.9V | 00:00:00 | 00:54:18 | 00:00:00 | |
| S52SK | 2026-08-31 11:48:36 | 47.48778 | 19.47000 | 87° | 122km/h | 10879m | 5.0m/s | -46.7°C | 0% | 0hPa | 2.9V | 00:00:00 | 00:00:00 | 00:00:00 | |
| S52SK | 2026-08-31 11:48:30 | 47.48766 | 19.46720 | 90° | 124km/h | 10841m | 8.3m/s | -46.6°C | 0% | 0hPa | 2.9V | 00:00:00 | 00:00:00 | 00:00:00 | |
| PETON7-10 | 2026-08-31 11:48:22 | 47.48759 | 19.46308 | 91° | 115km/h | 10777m | 8.0m/s | -46.0°C | 31.9% | 252.4hPa | 2.9V | 00:00:00 | 00:00:00 | 08:30:00 | |
| GYPAP8-17 | 2026-08-31 11:48:10 | 47.48740 | 19.45796 | 89° | 111km/h | 10706m | 8.7m/s | -45.5°C | 27.6% | 255.3hPa | 2.7V | 00:00:00 | 00:00:00 | 00:00:00 | |
| OE3OSB-13 | 2026-08-31 11:48:09 | 47.48738 | 19.45710 | 89° | 115km/h | 10691m | 5.0m/s | -45.3°C | 27.5% | 255.8hPa | 2.7V | 00:00:00 | 00:00:00 | 00:00:00 | |
| PETON7-10 | 2026-08-31 11:48:07 | 47.48739 | 19.45668 | 91° | 117km/h | 10685m | 8.7m/s | -45.3°C | 32.8% | 256.1hPa | 2.7V | 00:00:00 | 00:00:00 | 00:00:00 | |
| PETON7-10 | 2026-08-31 11:47:52 | 47.48733 | 19.45015 | 93° | 113km/h | 10592m | 10.1m/s | -44.3°C | 29.6% | 259.8hPa | 2.7V | 00:00:00 | 00:53:33 | 00:00:00 | |
| OE3OSB-13 | 2026-08-31 11:47:38 | 47.48707 | 19.44384 | 86° | 111km/h | 10478m | 7.9m/s | -43.4°C | 22.3% | 264.0hPa | 2.7V | 00:00:00 | 00:00:00 | 00:00:00 | |
| PETON7-10 | 2026-08-31 11:47:37 | 47.48707 | 19.44384 | 87° | 117km/h | 10478m | 7.9m/s | -43.4°C | 26.7% | 263.9hPa | 2.7V | 00:00:00 | 00:00:00 | 00:00:00 | |
| PETON7-10 | 2026-08-31 11:47:22 | 47.48669 | 19.43730 | 84° | 115km/h | 10377m | 9.0m/s | -42.6°C | 29.2% | 267.9hPa | 2.7V | 00:00:00 | 00:00:00 | 00:00:00 | |
| S52SK | 2026-08-31 11:47:21 | 47.48669 | 19.43730 | 85° | 115km/h | 10377m | 9.1m/s | -42.7°C | 0% | 0hPa | 2.7V | 00:00:00 | 00:00:00 | 00:00:00 | |
| S52SK | 2026-08-31 11:47:15 | 47.48654 | 19.43462 | 87° | 126km/h | 10332m | 8.0m/s | -42.4°C | 0% | 0hPa | 2.7V | 00:00:00 | 00:00:00 | 00:00:00 | |
| GYPAP8-17 | 2026-08-31 11:47:08 | 47.48645 | 19.43121 | 87° | 111km/h | 10279m | 7.0m/s | -41.9°C | 26.0% | 271.8hPa | 2.7V | 00:00:00 | 00:00:00 | 00:00:00 | |
| OE3OSB-13 | 2026-08-31 11:47:07 | 47.48640 | 19.43037 | 82° | 111km/h | 10267m | 5.9m/s | -41.9°C | -1.0% | 272.2hPa | 2.7V | 00:00:00 | 00:00:00 | 00:00:00 | |
| PETON7-10 | 2026-08-31 11:47:06 | 47.48640 | 19.43037 | 83° | 115km/h | 10267m | 5.8m/s | -41.8°C | 30.6% | 272.1hPa | 2.7V | 00:00:00 | 00:52:47 | 00:00:00 | |
| PETON7-10 | 2026-08-31 11:46:51 | 47.48591 | 19.42393 | 88° | 108km/h | 10178m | 4.7m/s | -41.2°C | 32.2% | 275.8hPa | 2.7V | 00:00:00 | 00:00:00 | 00:00:00 | |
| PETON7-10 | 2026-08-31 11:46:35 | 47.48562 | 19.41751 | 86° | 100km/h | 10071m | 6.5m/s | -40.3°C | 29.8% | 280.2hPa | 2.9V | 00:00:00 | 00:00:00 | 00:00:00 | |
| ATIDSZ-14 | 2026-08-31 11:46:31 | 47.48554 | 19.41603 | 87° | 110km/h | 10043m | 6.4m/s | -40.2°C | 24.4% | 281.3hPa | 2.9V | 00:00:00 | 00:00:00 | 00:00:00 | |
| PETON7-10 | 2026-08-31 11:46:20 | 47.48517 | 19.41192 | 88° | 106km/h | 9972m | 5.7m/s | -39.5°C | 26.9% | 284.2hPa | 2.9V | 00:00:00 | 00:52:01 | 00:00:00 | |
| OE3OSB-13 | 2026-08-31 11:46:05 | 47.48484 | 19.40558 | 86° | 102km/h | 9854m | 4.4m/s | -38.5°C | -1.0% | 289.4hPa | 2.9V | 00:00:00 | 00:00:00 | 00:00:00 | |
| PETON7-10 | 2026-08-31 11:45:50 | 47.48447 | 19.40066 | 89° | 99km/h | 9763m | 8.4m/s | -37.8°C | 20.4% | 293.1hPa | 2.9V | 00:00:00 | 00:00:00 | 00:00:00 | |
| ATIDSZ-14 | 2026-08-31 11:45:49 | 47.48447 | 19.40066 | 89° | 91km/h | 9763m | 8.4m/s | -37.8°C | 17.3% | 293.1hPa | 2.9V | 00:00:00 | 00:00:00 | 00:00:00 | |
| PETON7-10 | 2026-08-31 11:45:35 | 47.48449 | 19.39516 | 94° | 89km/h | 9665m | 6.0m/s | -37.0°C | 19.0% | 297.3hPa | 2.9V | 00:00:00 | 00:51:16 | 00:00:00 | |
| ATIDSZ-14 | 2026-08-31 11:45:27 | 47.48442 | 19.39280 | 84° | 93km/h | 9618m | 7.7m/s | -36.7°C | 16.9% | 299.5hPa | 2.9V | 00:00:00 | 00:00:00 | 00:00:00 | |
| S52SK | 2026-08-31 11:45:25 | 47.48439 | 19.39214 | 91° | 88km/h | 9602m | 6.2m/s | -36.6°C | 0% | 0hPa | 2.9V | 00:00:00 | 00:00:00 | 00:00:00 | |
| S52SK | 2026-08-31 11:45:20 | 47.48430 | 19.39022 | 80° | 86km/h | 9561m | 6.5m/s | -36.4°C | 0% | 0hPa | 2.9V | 00:00:00 | 00:00:00 | 00:00:00 | |
| ATIDSZ-14 | 2026-08-31 11:45:06 | 47.48398 | 19.38574 | 88° | 100km/h | 9475m | 5.5m/s | -35.7°C | 18.9% | 305.5hPa | 2.9V | 00:00:00 | 00:00:00 | 00:00:00 | |
| PETON7-10 | 2026-08-31 11:45:05 | 47.48394 | 19.38500 | 84° | 89km/h | 9465m | 4.8m/s | -35.6°C | 21.5% | 305.9hPa | 2.9V | 00:00:00 | 00:00:00 | 00:00:00 | |
| GYPAP8-17 | 2026-08-31 11:45:02 | 47.48388 | 19.38432 | 83° | 89km/h | 9454m | 6.7m/s | -35.6°C | 18.1% | 306.6hPa | 2.9V | 00:00:00 | 00:00:00 | 00:00:00 | |
| PETON7-10 | 2026-08-31 11:44:50 | 47.48354 | 19.38008 | 81° | 84km/h | 9369m | 3.5m/s | -34.8°C | 20.2% | 310.2hPa | 2.9V | 00:00:00 | 00:50:31 | 00:00:00 | |
| ATIDSZ-14 | 2026-08-31 11:44:45 | 47.48348 | 19.37902 | 93° | 69km/h | 9345m | 8.8m/s | -34.7°C | 17.3% | 311.3hPa | 2.9V | 00:00:00 | 00:00:00 | 00:00:00 | |
| PETON7-10 | 2026-08-31 11:44:35 | 47.48335 | 19.37527 | 84° | 80km/h | 9260m | 6.5m/s | -34.1°C | 20.1% | 315.1hPa | 2.9V | 00:00:00 | 00:00:00 | 00:00:00 | |
| ATIDSZ-14 | 2026-08-31 11:44:22 | 47.48326 | 19.37181 | 96° | 88km/h | 9177m | 5.1m/s | -33.6°C | 17.8% | 318.9hPa | 2.9V | 00:00:00 | 00:00:00 | 00:00:00 | |
| S52SK | 2026-08-31 11:44:20 | 47.48331 | 19.37086 | 92° | 82km/h | 9160m | 6.1m/s | -33.5°C | 0% | 0hPa | 2.9V | 00:00:00 | 00:00:00 | 00:00:00 | |
| PETON7-10 | 2026-08-31 11:44:19 | 47.48331 | 19.37056 | 89° | 82km/h | 9153m | 8.4m/s | -33.4°C | 21.4% | 319.9hPa | 2.9V | 00:00:00 | 00:00:00 | 00:00:00 | |
| PETON7-10 | 2026-08-31 11:44:04 | 47.48296 | 19.36605 | 95° | 73km/h | 9059m | 7.0m/s | -32.8°C | 24.3% | 324.4hPa | 2.9V | 00:00:00 | 00:49:45 | 00:00:00 | |
| ATIDSZ-14 | 2026-08-31 11:44:02 | 47.48298 | 19.36577 | 96° | 77km/h | 9051m | 8.0m/s | -32.8°C | 22.0% | 324.7hPa | 2.9V | 00:00:00 | 00:00:00 | 00:00:00 | |
| GYPAP8-17 | 2026-08-31 11:44:01 | 47.48299 | 19.36520 | 87° | 75km/h | 9035m | 7.6m/s | -32.7°C | 0% | 0hPa | 2.9V | 00:00:00 | 00:00:00 | 00:00:00 | |
| OE3JTB-15 | 2026-08-31 11:43:52 | 47.48269 | 19.36280 | 81° | 71km/h | 8980m | 8.7m/s | 0°C | 0% | 0hPa | 2.9V | 00:00:00 | 00:00:00 | 00:00:00 | |
| PETON7-10 | 2026-08-31 11:43:50 | 47.48258 | 19.36200 | 79° | 77km/h | 8959m | 6.9m/s | -32.2°C | 35.5% | 329.2hPa | 2.9V | 00:00:00 | 00:00:00 | 08:30:00 | |
| OM5KV | 2026-08-31 11:43:45 | 47.48250 | 19.36128 | 88° | 62km/h | 8936m | 7.2m/s | -32.1°C | 31.8% | 330.3hPa | 2.9V | 00:00:00 | 00:00:00 | 00:00:00 | |
| S52SK | 2026-08-31 11:43:41 | 47.48244 | 19.36031 | 83° | 68km/h | 8912m | 5.6m/s | -31.9°C | 0% | 0hPa | 2.9V | 00:00:00 | 00:00:00 | 00:00:00 | |
| OM5KV | 2026-08-31 11:43:39 | 47.48240 | 19.35981 | 86° | 68km/h | 8898m | 8.1m/s | -31.7°C | 32.9% | 332.1hPa | 2.9V | 00:00:00 | 00:00:00 | 00:00:00 | |
| S52SK | 2026-08-31 11:43:35 | 47.48232 | 19.35868 | 82° | 84km/h | 8875m | 5.1m/s | 0°C | 0% | 0hPa | 2.9V | 00:00:00 | 00:00:00 | 00:00:00 | |
| OM5KV | 2026-08-31 11:43:34 | 47.48228 | 19.35837 | 79° | 84km/h | 8870m | 4.9m/s | -31.5°C | 33.7% | 333.4hPa | 2.9V | 00:00:00 | 00:00:00 | 00:00:00 | |
| PETON7-10 | 2026-08-31 11:43:31 | 47.48205 | 19.35725 | 72° | 71km/h | 8850m | 7.2m/s | -31.3°C | 37.3% | 334.4hPa | 2.9V | 00:00:00 | 00:00:00 | 00:00:00 | |
| OE3OSB-13 | 2026-08-31 11:43:30 | 47.48193 | 19.35673 | 71° | 71km/h | 8834m | 7.4m/s | -31.2°C | -1.0% | 335.1hPa | 2.9V | 00:00:00 | 00:00:00 | 00:00:00 | |
| OE3JTB-15 | 2026-08-31 11:43:23 | 47.48169 | 19.35522 | 77° | 71km/h | 8790m | 7.1m/s | 0°C | 0% | 0hPa | 2.9V | 00:00:00 | 00:49:04 | 00:00:00 | |
| PETON7-10 | 2026-08-31 11:43:15 | 47.48134 | 19.35317 | 79° | 71km/h | 8737m | 4.7m/s | -30.3°C | 40.7% | 339.7hPa | 2.9V | 00:00:00 | 00:48:56 | 00:00:00 | |
| ATIDSZ-14 | 2026-08-31 11:43:14 | 47.48134 | 19.35317 | 80° | 75km/h | 8737m | 4.8m/s | -30.4°C | 36.9% | 339.8hPa | 2.9V | 00:00:00 | 00:00:00 | 00:00:00 | |
| PETON7-10 | 2026-08-31 11:42:58 | 47.48081 | 19.34869 | 80° | 69km/h | 8615m | 5.1m/s | -29.2°C | 36.3% | 345.3hPa | 2.9V | 00:00:00 | 00:00:00 | 00:00:00 | |
| GYPAP8-17 | 2026-08-31 11:42:56 | 47.48076 | 19.34818 | 84° | 66km/h | 8602m | 9.1m/s | -29.1°C | 0% | 0hPa | 2.9V | 00:00:00 | 00:00:00 | 00:00:00 | |
| ATIDSZ-14 | 2026-08-31 11:42:53 | 47.48071 | 19.34771 | 79° | 66km/h | 8587m | 5.3m/s | -28.9°C | 32.1% | 346.9hPa | 2.9V | 00:00:00 | 00:00:00 | 00:00:00 | |
| S52SK | 2026-08-31 11:42:42 | 47.48034 | 19.34516 | 86° | 60km/h | 8532m | 5.8m/s | 0°C | 0% | 0hPa | 2.9V | 00:00:00 | 00:00:00 | 00:00:00 | |
| S52SK | 2026-08-31 11:42:36 | 47.48028 | 19.34385 | 76° | 49km/h | 8489m | 7.2m/s | 0°C | 0% | 0hPa | 2.9V | 00:00:00 | 00:00:00 | 00:00:00 | |
| ATIDSZ-14 | 2026-08-31 11:42:33 | 47.48014 | 19.34328 | 69° | 60km/h | 8470m | 6.7m/s | -27.9°C | 26.6% | 352.5hPa | 2.9V | 00:00:00 | 00:00:00 | 00:00:00 | |
| OE3OSB-13 | 2026-08-31 11:42:27 | 47.47977 | 19.34148 | 80° | 64km/h | 8424m | 5.2m/s | 0°C | -1.0% | -1.0hPa | 2.9V | 00:00:00 | 00:00:00 | 00:00:00 | |
| PETON7-10 | 2026-08-31 11:42:15 | 47.47953 | 19.33861 | 86° | 62km/h | 8351m | 4.6m/s | -26.6°C | 20.2% | 358.4hPa | 2.9V | 00:00:00 | 00:00:00 | 00:00:00 | |
| ATIDSZ-14 | 2026-08-31 11:42:13 | 47.47951 | 19.33838 | 82° | 64km/h | 8345m | 8.0m/s | -26.6°C | 18.2% | 358.8hPa | 2.9V | 00:00:00 | 00:00:00 | 00:00:00 | |
| PETON7-10 | 2026-08-31 11:42:00 | 47.47882 | 19.33526 | 71° | 68km/h | 8250m | 7.1m/s | -25.8°C | 11.9% | 363.6hPa | 2.9V | 00:00:00 | 00:47:41 | 00:00:00 | |
| S52SK | 2026-08-31 11:41:59 | 47.47882 | 19.33526 | 72° | 71km/h | 8250m | 7.2m/s | 0°C | 0% | 0hPa | 2.9V | 00:00:00 | 00:00:00 | 00:00:00 | |
| GYPAP8-17 | 2026-08-31 11:41:53 | 47.47855 | 19.33375 | 89° | 64km/h | 8217m | 6.7m/s | 0°C | 0% | 0hPa | 2.9V | 00:00:00 | 00:00:00 | 00:00:00 | |
| ATIDSZ-14 | 2026-08-31 11:41:52 | 47.47853 | 19.33352 | 85° | 64km/h | 8211m | 5.7m/s | -25.9°C | 10.2% | 365.6hPa | 2.9V | 00:00:00 | 00:00:00 | 00:00:00 | |
| PETON7-10 | 2026-08-31 11:41:45 | 47.47822 | 19.33160 | 66° | 69km/h | 8159m | 7.6m/s | -25.7°C | 15.2% | 368.3hPa | 2.9V | 00:00:00 | 00:00:00 | 00:00:00 | |
| PETON7-10 | 2026-08-31 11:41:30 | 47.47746 | 19.32800 | 63° | 69km/h | 8058m | 6.7m/s | -25.1°C | 17.6% | 373.2hPa | 2.9V | 00:00:00 | 00:00:00 | 00:00:00 | |
| ATIDSZ-14 | 2026-08-31 11:41:29 | 47.47746 | 19.32800 | 63° | 66km/h | 8058m | 6.7m/s | -25.2°C | 15.8% | 373.3hPa | 2.9V | 00:00:00 | 00:00:00 | 00:00:00 | |
| S52SK | 2026-08-31 11:41:20 | 47.47686 | 19.32596 | 64° | 73km/h | 7997m | 4.9m/s | 0°C | 0% | 0hPa | 2.9V | 00:00:00 | 00:00:00 | 00:00:00 | |
| PETON7-10 | 2026-08-31 11:41:15 | 47.47638 | 19.32441 | 66° | 66km/h | 7960m | 9.0m/s | -24.4°C | 18.0% | 378.3hPa | 2.9V | 00:00:00 | 00:46:56 | 00:00:00 | |
| S52SK | 2026-08-31 11:41:09 | 47.47610 | 19.32317 | 80° | 60km/h | 7927m | 7.7m/s | 0°C | 0% | 0hPa | 2.9V | 00:00:00 | 00:00:00 | 00:00:00 | |
| ATIDSZ-14 | 2026-08-31 11:41:08 | 47.47606 | 19.32295 | 77° | 58km/h | 7920m | 6.1m/s | -24.1°C | 15.7% | 380.5hPa | 2.9V | 00:00:00 | 00:00:00 | 00:00:00 | |
| S52SK | 2026-08-31 11:41:00 | 47.47563 | 19.32116 | 70° | 66km/h | 7867m | 9.0m/s | 0°C | 0% | 0hPa | 2.9V | 00:00:00 | 00:00:00 | 00:00:00 | |
| PETON7-10 | 2026-08-31 11:40:59 | 47.47551 | 19.32069 | 69° | 68km/h | 7851m | 8.6m/s | -23.5°C | 17.2% | 383.8hPa | 2.9V | 00:00:00 | 00:00:00 | 08:30:00 | |
| GYPAP8-17 | 2026-08-31 11:40:49 | 47.47491 | 19.31861 | 69° | 69km/h | 7788m | 6.8m/s | 0°C | 0% | 0hPa | 2.7V | 00:00:00 | 00:00:00 | 00:00:00 | |
| ATIDSZ-14 | 2026-08-31 11:40:48 | 47.47484 | 19.31836 | 71° | 73km/h | 7781m | 7.5m/s | -22.9°C | 15.0% | 387.3hPa | 2.7V | 00:00:00 | 00:00:00 | 00:00:00 | |
| PETON7-10 | 2026-08-31 11:40:44 | 47.47455 | 19.31724 | 68° | 69km/h | 7750m | 3.1m/s | -22.6°C | 15.8% | 389.1hPa | 2.7V | 00:00:00 | 00:00:00 | 00:00:00 | |
| PETON7-10 | 2026-08-31 11:40:29 | 47.47358 | 19.31374 | 62° | 62km/h | 7653m | 6.4m/s | -21.8°C | 15.5% | 394.1hPa | 2.7V | 00:00:00 | 00:46:10 | 00:00:00 | |
| ATIDSZ-14 | 2026-08-31 11:40:27 | 47.47349 | 19.31353 | 62° | 66km/h | 7646m | 6.6m/s | -21.8°C | 13.8% | 394.4hPa | 2.7V | 00:00:00 | 00:00:00 | 00:00:00 | |
| PETON7-10 | 2026-08-31 11:40:14 | 47.47267 | 19.31050 | 70° | 57km/h | 7566m | 5.6m/s | 0°C | 0% | 0hPa | 2.7V | 00:00:00 | 00:00:00 | 00:00:00 | |
| ATIDSZ-14 | 2026-08-31 11:40:05 | 47.47203 | 19.30889 | 51° | 58km/h | 7509m | 7.1m/s | -20.8°C | 13.6% | 401.9hPa | 2.7V | 00:00:00 | 00:00:00 | 00:00:00 | |
| PETON7-10 | 2026-08-31 11:39:44 | 47.47034 | 19.30484 | 66° | 62km/h | 7378m | 6.0m/s | 0°C | 0% | 0hPa | 2.7V | 00:00:00 | 00:45:25 | 00:00:00 | |
| GYPAP8-17 | 2026-08-31 11:39:37 | 47.46984 | 19.30356 | 64° | 64km/h | 7345m | 3.8m/s | 0°C | 0% | 0hPa | 2.7V | 00:00:00 | 00:00:00 | 00:00:00 | |
| PETON7-10 | 2026-08-31 11:39:29 | 47.46940 | 19.30156 | 69° | 68km/h | 7294m | 6.7m/s | 0°C | 0% | 0hPa | 2.7V | 00:00:00 | 00:00:00 | 00:00:00 | |
| ATIDSZ-14 | 2026-08-31 11:39:23 | 47.46898 | 19.30033 | 63° | 69km/h | 7265m | 3.5m/s | -19.4°C | 26.7% | 415.6hPa | 2.7V | 00:00:00 | 00:00:00 | 00:00:00 | |
| PETON7-10 | 2026-08-31 11:39:13 | 47.46814 | 19.29803 | 75° | 60km/h | 7184m | 7.5m/s | 0°C | 0% | 0hPa | 2.7V | 00:00:00 | 00:00:00 | 00:00:00 | |
| ATIDSZ-14 | 2026-08-31 11:39:03 | 47.46770 | 19.29612 | 64° | 69km/h | 7127m | 6.2m/s | -18.8°C | 27.3% | 423.3hPa | 2.7V | 00:00:00 | 00:00:00 | 00:00:00 | |
| PETON7-10 | 2026-08-31 11:38:58 | 47.46735 | 19.29484 | 59° | 62km/h | 7091m | 6.6m/s | 0°C | 0% | 0hPa | 2.7V | 00:00:00 | 00:44:39 | 00:00:00 | |
| PETON7-10 | 2026-08-31 11:38:43 | 47.46638 | 19.29174 | 55° | 55km/h | 7002m | 4.2m/s | 0°C | 0% | 0hPa | 2.7V | 00:00:00 | 00:00:00 | 00:00:00 | |
| ATIDSZ-14 | 2026-08-31 11:38:42 | 47.46638 | 19.29174 | 55° | 62km/h | 7002m | 4.3m/s | -17.8°C | 39.2% | 430.6hPa | 2.7V | 00:00:00 | 00:00:00 | 00:00:00 | |
| ATIDSZ-14 | 2026-08-31 11:38:21 | 47.46473 | 19.28773 | 69° | 58km/h | 6861m | 7.7m/s | -16.5°C | 34.2% | 438.6hPa | 2.7V | 00:00:00 | 00:00:00 | 00:00:00 | |
| ATIDSZ-14 | 2026-08-31 11:38:02 | 47.46343 | 19.28337 | 62° | 66km/h | 6741m | 6.4m/s | -15.5°C | 34.5% | 445.7hPa | 2.7V | 00:00:00 | 00:00:00 | 00:00:00 | |
| ATIDSZ-14 | 2026-08-31 11:37:40 | 47.46204 | 19.27880 | 61° | 62km/h | 6608m | 4.9m/s | -14.4°C | 36.3% | 453.5hPa | 2.7V | 00:00:00 | 00:00:00 | 00:00:00 | |
| ATIDSZ-14 | 2026-08-31 11:37:20 | 47.46081 | 19.27487 | 77° | 66km/h | 6493m | 4.6m/s | -13.4°C | 36.2% | 460.7hPa | 2.7V | 00:00:00 | 00:00:00 | 00:00:00 | |
| ATIDSZ-14 | 2026-08-31 11:37:01 | 47.45987 | 19.27123 | 59° | 57km/h | 6369m | 5.4m/s | -12.3°C | 31.5% | 468.4hPa | 2.7V | 00:00:00 | 00:00:00 | 00:00:00 | |
| ATIDSZ-14 | 2026-08-31 11:36:19 | 47.45708 | 19.26399 | 77° | 46km/h | 6117m | 5.1m/s | -10.4°C | 27.2% | 483.9hPa | 2.7V | 00:00:00 | 00:00:00 | 00:00:00 | |
| ATIDSZ-14 | 2026-08-31 11:35:58 | 47.45630 | 19.25977 | 71° | 55km/h | 5977m | 5.9m/s | -9.4°C | 27.9% | 492.5hPa | 2.7V | 00:00:00 | 00:00:00 | 00:00:00 | |
| ATIDSZ-14 | 2026-08-31 11:35:35 | 47.45512 | 19.25547 | 74° | 60km/h | 5841m | 4.3m/s | -8.5°C | 27.7% | 501.3hPa | 2.7V | 00:00:00 | 00:00:00 | 00:00:00 | |
| OM5KV | 2026-08-31 11:35:28 | 47.45502 | 19.25421 | 81° | 55km/h | 5807m | 4.3m/s | -8.2°C | 26.9% | 503.5hPa | 2.7V | 00:00:00 | 00:00:00 | 00:00:00 | |
| OM5KV | 2026-08-31 11:35:24 | 47.45480 | 19.25307 | 70° | 58km/h | 5779m | 7.2m/s | -7.9°C | 26.7% | 505.5hPa | 2.7V | 00:00:00 | 00:00:00 | 00:00:00 | |
| OM5KV | 2026-08-31 11:35:18 | 47.45456 | 19.25193 | 82° | 55km/h | 5745m | 3.8m/s | -7.6°C | 27.0% | 507.5hPa | 2.7V | 00:00:00 | 00:00:00 | 00:00:00 | |
| ATIDSZ-14 | 2026-08-31 11:35:14 | 47.45449 | 19.25124 | 80° | 68km/h | 5728m | 6.0m/s | -7.5°C | 26.8% | 508.6hPa | 2.7V | 00:00:00 | 00:00:00 | 00:00:00 | |
| OM5KV | 2026-08-31 11:35:12 | 47.45441 | 19.25080 | 71° | 55km/h | 5714m | 6.4m/s | -7.4°C | 24.6% | 509.6hPa | 2.7V | 00:00:00 | 00:00:00 | 00:00:00 | |
| OM5KV | 2026-08-31 11:35:06 | 47.45413 | 19.24981 | 72° | 44km/h | 5681m | 6.0m/s | -7.1°C | 21.1% | 511.8hPa | 2.7V | 00:00:00 | 00:00:00 | 00:00:00 | |
| OM5KV | 2026-08-31 11:35:02 | 47.45402 | 19.24911 | 75° | 42km/h | 5654m | 3.9m/s | -6.8°C | 10.1% | 513.5hPa | 2.7V | 00:00:00 | 00:00:00 | 00:00:00 | |
| ATIDSZ-14 | 2026-08-31 11:34:53 | 47.45374 | 19.24740 | 83° | 53km/h | 5619m | 4.1m/s | -6.7°C | 3.2% | 515.9hPa | 2.7V | 00:00:00 | 00:00:00 | 00:00:00 | |
| OM5KV | 2026-08-31 11:34:50 | 47.45365 | 19.24690 | 64° | 42km/h | 5603m | 5.1m/s | -6.7°C | 2.1% | 517.0hPa | 2.7V | 00:00:00 | 00:00:00 | 00:00:00 | |
| OM5KV | 2026-08-31 11:34:38 | 47.45311 | 19.24467 | 77° | 53km/h | 5540m | 4.0m/s | -6.5°C | 2.5% | 521.2hPa | 2.7V | 00:00:00 | 00:00:00 | 00:00:00 | |
| ATIDSZ-14 | 2026-08-31 11:34:33 | 47.45282 | 19.24367 | 65° | 62km/h | 5516m | 4.0m/s | -6.6°C | 3.4% | 522.8hPa | 2.7V | 00:00:00 | 00:00:00 | 00:00:00 | |
| OM5KV | 2026-08-31 11:34:15 | 47.45214 | 19.24028 | 64° | 47km/h | 5418m | 4.0m/s | -7.1°C | 15.0% | 529.2hPa | 2.7V | 00:00:00 | 00:00:00 | 00:00:00 | |
| ATIDSZ-14 | 2026-08-31 11:34:13 | 47.45201 | 19.23995 | 58° | 57km/h | 5408m | 6.7m/s | -7.3°C | 28.9% | 530.0hPa | 2.7V | 00:00:00 | 00:00:00 | 00:00:00 | |
| OM5KV | 2026-08-31 11:34:10 | 47.45179 | 19.23936 | 69° | 66km/h | 5393m | 4.5m/s | -7.2°C | 14.4% | 530.9hPa | 2.7V | 00:00:00 | 00:00:00 | 00:00:00 | |
| OM5KV | 2026-08-31 11:34:04 | 47.45141 | 19.23800 | 53° | 62km/h | 5369m | 4.5m/s | -7.2°C | 10.7% | 532.6hPa | 2.7V | 00:00:00 | 00:00:00 | 00:00:00 | |
| OM5KV | 2026-08-31 11:33:58 | 47.45093 | 19.23694 | 66° | 37km/h | 5330m | 4.4m/s | -7.1°C | 17.5% | 535.1hPa | 2.7V | 00:00:00 | 00:00:00 | 00:00:00 | |
| ATIDSZ-14 | 2026-08-31 11:33:52 | 47.45056 | 19.23631 | 47° | 55km/h | 5310m | 4.2m/s | -7.0°C | 20.8% | 536.6hPa | 2.7V | 00:00:00 | 00:00:00 | 00:00:00 | |
| OM5KV | 2026-08-31 11:33:42 | 47.44988 | 19.23479 | 48° | 46km/h | 5269m | 4.4m/s | -6.8°C | 35.3% | 539.5hPa | 2.7V | 00:00:00 | 00:00:00 | 00:00:00 | |
| OM5KV | 2026-08-31 11:33:36 | 47.44957 | 19.23391 | 62° | 47km/h | 5239m | 3.2m/s | -6.7°C | 25.8% | 541.6hPa | 2.7V | 00:00:00 | 00:00:00 | 00:00:00 | |
| ATIDSZ-14 | 2026-08-31 11:33:32 | 47.44924 | 19.23331 | 48° | 49km/h | 5219m | 6.9m/s | -6.7°C | 12.2% | 542.9hPa | 2.7V | 00:00:00 | 00:00:00 | 00:00:00 | |
| OM5KV | 2026-08-31 11:33:30 | 47.44907 | 19.23307 | 48° | 42km/h | 5209m | 6.4m/s | -6.7°C | 11.9% | 543.6hPa | 2.7V | 00:00:00 | 00:00:00 | 00:00:00 | |
| OM5KV | 2026-08-31 11:33:25 | 47.44868 | 19.23237 | 59° | 53km/h | 5178m | 7.7m/s | -6.6°C | 13.8% | 546.0hPa | 2.7V | 00:00:00 | 00:00:00 | 00:00:00 | |
| OM5KV | 2026-08-31 11:33:14 | 47.44809 | 19.23087 | 66° | 26km/h | 5119m | 2.7m/s | -7.4°C | 22.6% | 549.8hPa | 2.7V | 00:00:00 | 00:00:00 | 00:00:00 | |
| ATIDSZ-14 | 2026-08-31 11:33:12 | 47.44802 | 19.23069 | 66° | 31km/h | 5113m | 4.6m/s | -7.4°C | 0% | 0hPa | 2.7V | 00:00:00 | 00:00:00 | 00:00:00 | |
| OM5KV | 2026-08-31 11:33:08 | 47.44780 | 19.23020 | 58° | 49km/h | 5090m | 6.3m/s | -7.3°C | 27.4% | 551.8hPa | 2.7V | 00:00:00 | 00:00:00 | 00:00:00 | |
| OM5KV | 2026-08-31 11:33:03 | 47.44758 | 19.22930 | 77° | 49km/h | 5066m | 5.2m/s | -7.3°C | 34.1% | 553.4hPa | 2.7V | 00:00:00 | 00:00:00 | 00:00:00 | |
| OM5KV | 2026-08-31 11:32:58 | 47.44737 | 19.22854 | 65° | 42km/h | 5038m | 3.0m/s | -7.6°C | 44.4% | 555.5hPa | 2.7V | 00:00:00 | 00:00:00 | 00:00:00 | |
| ATIDSZ-14 | 2026-08-31 11:32:51 | 47.44695 | 19.22756 | 56° | 47km/h | 4996m | 4.8m/s | -8.5°C | 0% | 0hPa | 2.7V | 00:00:00 | 00:00:00 | 00:00:00 | |
| OM5KV | 2026-08-31 11:32:40 | 47.44636 | 19.22619 | 47° | 51km/h | 4935m | 6.8m/s | -8.0°C | 92.3% | 562.7hPa | 2.7V | 00:00:00 | 00:00:00 | 00:00:00 | |
| OM5KV | 2026-08-31 11:32:28 | 47.44595 | 19.22462 | 65° | 42km/h | 4873m | 3.9m/s | -7.2°C | 98.2% | 567.3hPa | 2.7V | 00:00:00 | 00:00:00 | 00:00:00 | |
| ATIDSZ-14 | 2026-08-31 11:32:27 | 47.44591 | 19.22447 | 78° | 40km/h | 4869m | 4.3m/s | -7.2°C | 0% | 0hPa | 2.7V | 00:00:00 | 00:00:00 | 00:00:00 | |
| OM5KV | 2026-08-31 11:32:10 | 47.44541 | 19.22246 | 62° | 31km/h | 4774m | 5.3m/s | -6.3°C | 98.0% | 574.5hPa | 2.7V | 00:00:00 | 00:00:00 | 00:00:00 | |
| ATIDSZ-14 | 2026-08-31 11:31:58 | 47.44519 | 19.22128 | 48° | 37km/h | 4704m | 6.1m/s | -5.7°C | 0% | 0hPa | 2.7V | 00:00:00 | 00:00:00 | 00:00:00 | |
| OM5KV | 2026-08-31 11:31:42 | 47.44469 | 19.21980 | 91° | 26km/h | 4605m | 6.8m/s | -4.8°C | 81.6% | 587.1hPa | 2.7V | 00:00:00 | 00:00:00 | 00:00:00 | |
| OM5KV | 2026-08-31 11:31:36 | 47.44464 | 19.21926 | 51° | 20km/h | 4570m | 5.6m/s | -4.5°C | 77.4% | 589.5hPa | 2.7V | 00:00:00 | 00:00:00 | 00:00:00 | |
| OM5KV | 2026-08-31 11:31:30 | 47.44445 | 19.21863 | 64° | 42km/h | 4532m | 6.5m/s | -4.2°C | 65.2% | 592.5hPa | 2.7V | 00:00:00 | 00:00:00 | 00:00:00 | |
| ATIDSZ-14 | 2026-08-31 11:31:29 | 47.44439 | 19.21849 | 60° | 40km/h | 4526m | 5.9m/s | -4.1°C | 0% | 0hPa | 2.7V | 00:00:00 | 00:00:00 | 00:00:00 | |
| OM5KV | 2026-08-31 11:31:26 | 47.44429 | 19.21818 | 67° | 24km/h | 4510m | 6.3m/s | -4.0°C | 62.5% | 594.1hPa | 2.7V | 00:00:00 | 00:00:00 | 00:00:00 | |
| OM5KV | 2026-08-31 11:31:24 | 47.44424 | 19.21799 | 73° | 35km/h | 4495m | 8.7m/s | -3.9°C | 61.2% | 595.2hPa | 2.7V | 00:00:00 | 00:00:00 | 00:00:00 | |
| OM5KV | 2026-08-31 11:31:18 | 47.44411 | 19.21729 | 57° | 24km/h | 4459m | 5.3m/s | -3.6°C | 59.9% | 597.8hPa | 2.7V | 00:00:00 | 00:00:00 | 00:00:00 | |
| OM5KV | 2026-08-31 11:31:14 | 47.44384 | 19.21685 | 49° | 35km/h | 4431m | 4.2m/s | -3.4°C | 61.8% | 599.9hPa | 2.7V | 00:00:00 | 00:00:00 | 00:00:00 | |
| OM5KV | 2026-08-31 11:31:09 | 47.44361 | 19.21656 | 8° | 20km/h | 4404m | 5.7m/s | -3.2°C | 63.2% | 601.9hPa | 2.7V | 00:00:00 | 00:00:00 | 00:00:00 | |
| ATIDSZ-14 | 2026-08-31 11:31:08 | 47.44361 | 19.21656 | 8° | 20km/h | 4404m | 5.7m/s | -3.2°C | 0% | 0hPa | 2.7V | 00:00:00 | 00:00:00 | 00:00:00 | |
| OM5KV | 2026-08-31 11:31:03 | 47.44334 | 19.21634 | 61° | 33km/h | 4376m | 7.0m/s | -3.0°C | 63.8% | 604.2hPa | 2.7V | 00:00:00 | 00:00:00 | 00:00:00 | |
| OM5KV | 2026-08-31 11:31:01 | 47.44326 | 19.21610 | 76° | 38km/h | 4364m | 6.9m/s | -2.9°C | 63.2% | 604.9hPa | 2.7V | 00:00:00 | 00:00:00 | 00:00:00 | |
| OM5KV | 2026-08-31 11:30:58 | 47.44321 | 19.21575 | 80° | 24km/h | 4348m | 4.2m/s | -2.7°C | 63.0% | 606.2hPa | 2.7V | 00:00:00 | 00:00:00 | 00:00:00 | |
| OM5KV | 2026-08-31 11:30:55 | 47.44315 | 19.21553 | 46° | 22km/h | 4330m | 5.4m/s | -2.6°C | 62.9% | 607.5hPa | 2.7V | 00:00:00 | 00:00:00 | 00:00:00 | |
| ATIDSZ-14 | 2026-08-31 11:30:48 | 47.44275 | 19.21482 | 61° | 26km/h | 4290m | 7.2m/s | 0°C | 0% | 0hPa | 2.7V | 00:00:00 | 00:00:00 | 00:00:00 | |
| OM5KV | 2026-08-31 11:30:40 | 47.44230 | 19.21442 | 42° | 42km/h | 4239m | 5.6m/s | -1.9°C | 59.3% | 614.6hPa | 2.7V | 00:00:00 | 00:00:00 | 00:00:00 | |
| OM5KV | 2026-08-31 11:30:35 | 47.44195 | 19.21398 | 25° | 31km/h | 4213m | 6.4m/s | -1.7°C | 58.3% | 616.6hPa | 2.7V | 00:00:00 | 00:00:00 | 00:00:00 | |
| OM5KV | 2026-08-31 11:30:29 | 47.44144 | 19.21361 | 29° | 37km/h | 4182m | 6.0m/s | -1.3°C | 57.1% | 619.1hPa | 2.7V | 00:00:00 | 00:00:00 | 00:00:00 | |
| OM5KV | 2026-08-31 11:30:23 | 47.44103 | 19.21322 | 21° | 35km/h | 4144m | 7.7m/s | -1.0°C | 55.9% | 622.1hPa | 2.7V | 00:00:00 | 00:00:00 | 00:00:00 | |
| OM5KV | 2026-08-31 11:30:21 | 47.44087 | 19.21314 | 20° | 35km/h | 4132m | 7.4m/s | -0.9°C | 54.2% | 623.0hPa | 2.7V | 00:00:00 | 00:00:00 | 00:00:00 | |
| ATIDSZ-14 | 2026-08-31 11:30:16 | 47.44053 | 19.21268 | 83° | 26km/h | 4100m | 5.4m/s | 0°C | 0% | 0hPa | 2.7V | 00:00:00 | 00:00:00 | 00:00:00 | |
| OM5KV | 2026-08-31 11:30:08 | 47.44040 | 19.21228 | 39° | 22km/h | 4058m | 6.0m/s | -0.4°C | 51.4% | 628.8hPa | 2.7V | 00:00:00 | 00:00:00 | 00:00:00 | |
| OM5KV | 2026-08-31 11:30:04 | 47.44019 | 19.21201 | 50° | 26km/h | 4032m | 8.1m/s | -0.2°C | 58.7% | 630.9hPa | 2.7V | 00:00:00 | 00:00:00 | 00:00:00 | |
| OM5KV | 2026-08-31 11:29:57 | 47.44011 | 19.21136 | 80° | 31km/h | 3997m | 5.0m/s | 0.1°C | 56.6% | 633.7hPa | 2.7V | 00:00:00 | 00:00:00 | 00:00:00 | |
| OM5KV | 2026-08-31 11:29:52 | 47.44001 | 19.21096 | 51° | 13km/h | 3967m | 4.9m/s | 0.4°C | 55.0% | 636.1hPa | 2.7V | 00:00:00 | 00:00:00 | 00:00:00 | |
| ATIDSZ-14 | 2026-08-31 11:29:51 | 47.43999 | 19.21094 | 30° | 9km/h | 3962m | 4.8m/s | 0°C | 0% | 0hPa | 2.7V | 00:00:00 | 00:00:00 | 00:00:00 | |
| OM5KV | 2026-08-31 11:29:45 | 47.43973 | 19.21057 | 35° | 37km/h | 3921m | 5.6m/s | 0.8°C | 49.4% | 639.7hPa | 2.7V | 00:00:00 | 00:00:00 | 00:00:00 | |
| OM5KV | 2026-08-31 11:29:39 | 47.43957 | 19.21019 | 90° | 22km/h | 3885m | 7.1m/s | 1.2°C | 49.1% | 642.5hPa | 2.7V | 00:00:00 | 00:00:00 | 00:00:00 | |
| OM5KV | 2026-08-31 11:29:35 | 47.43941 | 19.20977 | 45° | 24km/h | 3857m | 3.8m/s | 1.5°C | 47.6% | 644.8hPa | 2.7V | 00:00:00 | 00:00:00 | 00:00:00 | |
| OM5KV | 2026-08-31 11:29:27 | 47.43924 | 19.20915 | 50° | 33km/h | 3814m | 6.0m/s | 1.8°C | 45.5% | 648.1hPa | 2.7V | 00:00:00 | 00:00:00 | 00:00:00 | |
| ATIDSZ-14 | 2026-08-31 11:29:26 | 47.43918 | 19.20906 | 39° | 35km/h | 3808m | 6.0m/s | 0°C | 0% | 0hPa | 2.7V | 00:00:00 | 00:00:00 | 00:00:00 | |
| OM5KV | 2026-08-31 11:29:22 | 47.43897 | 19.20873 | 70° | 24km/h | 3788m | 5.6m/s | 2.1°C | 43.4% | 650.3hPa | 2.7V | 00:00:00 | 00:00:00 | 00:00:00 | |
| OM5KV | 2026-08-31 11:29:19 | 47.43893 | 19.20856 | 59° | 7km/h | 3767m | 4.6m/s | 2.3°C | 41.4% | 651.9hPa | 2.7V | 00:00:00 | 00:00:00 | 00:00:00 | |
| OM5KV | 2026-08-31 11:29:17 | 47.43889 | 19.20850 | 27° | 16km/h | 3755m | 5.7m/s | 2.4°C | 40.6% | 652.9hPa | 2.7V | 00:00:00 | 00:00:00 | 00:00:00 | |
| OM5KV | 2026-08-31 11:29:13 | 47.43875 | 19.20822 | 74° | 26km/h | 3732m | 4.9m/s | 2.5°C | 33.4% | 654.8hPa | 2.7V | 00:00:00 | 00:00:00 | 00:00:00 | |
| OM5KV | 2026-08-31 11:29:11 | 47.43873 | 19.20806 | 84° | 18km/h | 3722m | 4.4m/s | 2.6°C | 32.9% | 655.6hPa | 2.7V | 00:00:00 | 00:00:00 | 00:00:00 | |
| OM5KV | 2026-08-31 11:29:06 | 47.43860 | 19.20764 | 74° | 31km/h | 3693m | 5.9m/s | 2.7°C | 32.4% | 658.0hPa | 2.7V | 00:00:00 | 00:00:00 | 00:00:00 | |
| OM5KV | 2026-08-31 11:29:03 | 47.43856 | 19.20728 | 87° | 15km/h | 3670m | 5.6m/s | 2.8°C | 31.7% | 659.9hPa | 2.7V | 00:00:00 | 00:00:00 | 00:00:00 | |
| ATIDSZ-14 | 2026-08-31 11:29:01 | 47.43856 | 19.20723 | 104° | 15km/h | 3663m | 6.6m/s | 0°C | 0% | 0hPa | 2.7V | 00:00:00 | 00:00:00 | 00:00:00 | |
| OM5KV | 2026-08-31 11:28:56 | 47.43849 | 19.20687 | 29° | 24km/h | 3634m | 6.0m/s | 3.0°C | 28.7% | 662.8hPa | 2.7V | 00:00:00 | 00:00:00 | 00:00:00 | |
| OM5KV | 2026-08-31 11:28:51 | 47.43829 | 19.20689 | 31° | 4km/h | 3606m | 4.9m/s | 3.3°C | 27.6% | 665.4hPa | 2.7V | 00:00:00 | 00:00:00 | 00:00:00 | |
| OM5KV | 2026-08-31 11:28:45 | 47.43822 | 19.20655 | 52° | 20km/h | 3573m | 5.6m/s | 3.5°C | 24.9% | 667.7hPa | 2.7V | 00:00:00 | 00:00:00 | 00:00:00 | |
| ATIDSZ-14 | 2026-08-31 11:28:40 | 47.43799 | 19.20627 | 45° | 27km/h | 3546m | 2.4m/s | 0°C | 0% | 0hPa | 2.7V | 00:00:00 | 00:00:00 | 00:00:00 | |
| OM5KV | 2026-08-31 11:28:39 | 47.43793 | 19.20619 | 46° | 29km/h | 3543m | 4.2m/s | 3.7°C | 22.1% | 670.4hPa | 2.7V | 00:00:00 | 00:00:00 | 00:00:00 | |
| OM5KV | 2026-08-31 11:28:34 | 47.43777 | 19.20587 | 64° | 16km/h | 3510m | 8.3m/s | 3.9°C | 21.5% | 672.9hPa | 2.7V | 00:00:00 | 00:00:00 | 00:00:00 | |
| OM5KV | 2026-08-31 11:28:33 | 47.43775 | 19.20582 | 57° | 11km/h | 3503m | 6.5m/s | 4.0°C | 21.5% | 673.6hPa | 2.7V | 00:00:00 | 00:00:00 | 00:00:00 | |
| OM5KV | 2026-08-31 11:28:28 | 47.43764 | 19.20562 | 62° | 15km/h | 3470m | 6.0m/s | 3.9°C | 21.6% | 676.2hPa | 2.7V | 00:00:00 | 00:00:00 | 00:00:00 | |
| OM5KV | 2026-08-31 11:28:27 | 47.43762 | 19.20558 | 56° | 13km/h | 3464m | 6.5m/s | 3.9°C | 21.6% | 676.7hPa | 2.7V | 00:00:00 | 00:00:00 | 00:00:00 | |
| ATIDSZ-14 | 2026-08-31 11:28:19 | 47.43737 | 19.20524 | 25° | 16km/h | 3415m | 6.6m/s | 0°C | 0% | 0hPa | 2.7V | 00:00:00 | 00:00:00 | 00:00:00 | |
| OM5KV | 2026-08-31 11:28:15 | 47.43719 | 19.20502 | 52° | 22km/h | 3392m | 5.8m/s | 4.4°C | 24.1% | 682.8hPa | 2.7V | 00:00:00 | 00:00:00 | 00:00:00 | |
| OM5KV | 2026-08-31 11:28:10 | 47.43698 | 19.20478 | 57° | 22km/h | 3364m | 4.7m/s | 4.5°C | 25.2% | 685.2hPa | 2.7V | 00:00:00 | 00:00:00 | 00:00:00 | |
| OM5KV | 2026-08-31 11:28:05 | 47.43689 | 19.20463 | 4° | 15km/h | 3334m | 6.0m/s | 4.8°C | 24.9% | 687.8hPa | 2.7V | 00:00:00 | 00:00:00 | 00:00:00 | |
| OM5KV | 2026-08-31 11:28:04 | 47.43686 | 19.20461 | 32° | 18km/h | 3329m | 4.4m/s | 4.8°C | 24.9% | 688.3hPa | 2.7V | 00:00:00 | 00:00:00 | 00:00:00 | |
| OM5KV | 2026-08-31 11:28:00 | 47.43671 | 19.20435 | 81° | 24km/h | 3304m | 5.7m/s | 5.0°C | 25.2% | 690.4hPa | 2.7V | 00:00:00 | 00:00:00 | 00:00:00 | |
| ATIDSZ-14 | 2026-08-31 11:27:58 | 47.43668 | 19.20419 | 80° | 20km/h | 3294m | 4.4m/s | 0°C | 0% | 0hPa | 2.7V | 00:00:00 | 00:00:00 | 00:00:00 | |
| OM5KV | 2026-08-31 11:27:54 | 47.43658 | 19.20398 | 46° | 16km/h | 3273m | 5.9m/s | 5.2°C | 25.9% | 693.1hPa | 2.7V | 00:00:00 | 00:00:00 | 00:00:00 | |
| OM5KV | 2026-08-31 11:27:52 | 47.43652 | 19.20387 | 66° | 16km/h | 3259m | 5.5m/s | 5.3°C | 25.9% | 694.3hPa | 2.7V | 00:00:00 | 00:00:00 | 00:00:00 | |
| OM5KV | 2026-08-31 11:27:48 | 47.43650 | 19.20375 | 73° | 9km/h | 3235m | 5.1m/s | 5.4°C | 26.9% | 696.3hPa | 2.7V | 00:00:00 | 00:00:00 | 00:00:00 | |
| OM5KV | 2026-08-31 11:27:47 | 47.43649 | 19.20370 | 86° | 15km/h | 3229m | 6.7m/s | 5.5°C | 26.8% | 696.7hPa | 2.7V | 00:00:00 | 00:00:00 | 00:00:00 | |
| OM5KV | 2026-08-31 11:27:42 | 47.43651 | 19.20353 | 0° | 0km/h | 3199m | 5.0m/s | 5.7°C | 26.5% | 699.3hPa | 2.7V | 00:00:00 | 00:00:00 | 00:00:00 | |
| OM5KV | 2026-08-31 11:27:41 | 47.43651 | 19.20352 | 80° | 4km/h | 3194m | 5.1m/s | 5.8°C | 26.5% | 699.7hPa | 2.7V | 00:00:00 | 00:00:00 | 00:00:00 | |
| ATIDSZ-14 | 2026-08-31 11:27:37 | 47.43645 | 19.20340 | 31° | 13km/h | 3171m | 8.9m/s | 0°C | 0% | 0hPa | 2.7V | 00:00:00 | 00:00:00 | 00:00:00 | |
| OM5KV | 2026-08-31 11:27:35 | 47.43638 | 19.20333 | 43° | 20km/h | 3157m | 7.7m/s | 6.0°C | 25.9% | 702.9hPa | 2.7V | 00:00:00 | 00:00:00 | 00:00:00 | |
| OM5KV | 2026-08-31 11:27:31 | 47.43625 | 19.20300 | 71° | 33km/h | 3132m | 7.2m/s | 6.0°C | 25.2% | 704.9hPa | 2.7V | 00:00:00 | 00:00:00 | 00:00:00 | |
| OM5KV | 2026-08-31 11:27:30 | 47.43623 | 19.20289 | 65° | 31km/h | 3126m | 5.6m/s | 6.1°C | 25.2% | 705.6hPa | 2.7V | 00:00:00 | 00:00:00 | 00:00:00 | |
| OM5KV | 2026-08-31 11:27:26 | 47.43599 | 19.20258 | 10° | 20km/h | 3100m | 7.2m/s | 6.2°C | 24.8% | 707.7hPa | 2.7V | 00:00:00 | 00:00:00 | 00:00:00 | |
| OM5KV | 2026-08-31 11:27:24 | 47.43595 | 19.20257 | 14° | 16km/h | 3093m | 6.4m/s | 6.2°C | 24.7% | 708.4hPa | 2.7V | 00:00:00 | 00:00:00 | 00:00:00 | |
| OM5KV | 2026-08-31 11:27:19 | 47.43587 | 19.20253 | 248° | 4km/h | 3067m | 7.0m/s | 6.3°C | 25.0% | 710.6hPa | 2.7V | 00:00:00 | 00:00:00 | 00:00:00 | |
| ATIDSZ-14 | 2026-08-31 11:27:17 | 47.43586 | 19.20255 | 345° | 5km/h | 3058m | 3.3m/s | 0°C | 0% | 0hPa | 2.7V | 00:00:00 | 00:00:00 | 00:00:00 | |
| OM5KV | 2026-08-31 11:27:13 | 47.43574 | 19.20247 | 43° | 18km/h | 3038m | 4.7m/s | 6.0°C | 29.2% | 713.0hPa | 2.7V | 00:00:00 | 00:00:00 | 00:00:00 | |
| OM5KV | 2026-08-31 11:27:07 | 47.43578 | 19.20222 | 148° | 13km/h | 2998m | 6.8m/s | 6.4°C | 28.3% | 716.5hPa | 2.7V | 00:00:00 | 00:00:00 | 00:00:00 | |
| OM5KV | 2026-08-31 11:27:06 | 47.43579 | 19.20218 | 101° | 9km/h | 2992m | 5.5m/s | 6.5°C | 28.1% | 717.1hPa | 2.7V | 00:00:00 | 00:00:00 | 00:00:00 | |
| OM5KV | 2026-08-31 11:27:00 | 47.43585 | 19.20198 | 78° | 2km/h | 2955m | 6.3m/s | 6.8°C | 27.6% | 720.2hPa | 2.7V | 00:00:00 | 00:00:00 | 00:00:00 | |
| OM5KV | 2026-08-31 11:26:57 | 47.43575 | 19.20180 | 74° | 24km/h | 2935m | 5.5m/s | 7.0°C | 27.3% | 722.1hPa | 2.7V | 00:00:00 | 00:00:00 | 00:00:00 | |
| ATIDSZ-14 | 2026-08-31 11:26:44 | 47.43574 | 19.20122 | 45° | 16km/h | 2862m | 5.7m/s | 0°C | 0% | 0hPa | 2.7V | 00:00:00 | 00:00:00 | 00:00:00 | |
| OM5KV | 2026-08-31 11:26:43 | 47.43571 | 19.20117 | 57° | 15km/h | 2857m | 4.6m/s | 7.7°C | 28.1% | 729.0hPa | 2.7V | 00:00:00 | 00:00:00 | 00:00:00 | |
| OM5KV | 2026-08-31 11:26:39 | 47.43564 | 19.20097 | 55° | 15km/h | 2830m | 8.3m/s | 7.8°C | 28.6% | 731.6hPa | 2.7V | 00:00:00 | 00:00:00 | 00:00:00 | |
| OM5KV | 2026-08-31 11:26:37 | 47.43560 | 19.20085 | 74° | 24km/h | 2815m | 8.5m/s | 7.9°C | 29.0% | 733.0hPa | 2.7V | 00:00:00 | 00:00:00 | 00:00:00 | |
| OM5KV | 2026-08-31 11:26:31 | 47.43566 | 19.20046 | 73° | 13km/h | 2777m | 5.1m/s | 8.3°C | 29.2% | 736.4hPa | 2.7V | 00:00:00 | 00:00:00 | 00:00:00 | |
| OM5KV | 2026-08-31 11:26:27 | 47.43564 | 19.20022 | 97° | 18km/h | 2753m | 5.0m/s | 8.6°C | 28.8% | 738.6hPa | 2.7V | 00:00:00 | 00:00:00 | 00:00:00 | |
| OM5KV | 2026-08-31 11:26:26 | 47.43564 | 19.20016 | 84° | 16km/h | 2747m | 8.1m/s | 8.6°C | 28.9% | 739.0hPa | 2.7V | 00:00:00 | 00:00:00 | 00:00:00 | |
| OM5KV | 2026-08-31 11:26:22 | 47.43559 | 19.19992 | 73° | 18km/h | 2716m | 7.0m/s | 8.9°C | 28.7% | 741.9hPa | 2.7V | 00:00:00 | 00:00:00 | 00:00:00 | |
| OM5KV | 2026-08-31 11:26:20 | 47.43558 | 19.19982 | 89° | 13km/h | 2702m | 5.7m/s | 9.0°C | 28.4% | 743.1hPa | 2.7V | 00:00:00 | 00:00:00 | 00:00:00 | |
| OM5KV | 2026-08-31 11:26:16 | 47.43557 | 19.19961 | 101° | 15km/h | 2677m | 8.4m/s | 9.0°C | 32.3% | 745.4hPa | 2.7V | 00:00:00 | 00:00:00 | 00:00:00 | |
| OM5KV | 2026-08-31 11:26:05 | 47.43547 | 19.19906 | 96° | 9km/h | 2608m | 5.4m/s | 9.5°C | 32.6% | 751.7hPa | 2.7V | 00:00:00 | 00:00:00 | 00:00:00 | |
| OM5KV | 2026-08-31 11:25:59 | 47.43544 | 19.19866 | 99° | 22km/h | 2570m | 4.9m/s | 10.0°C | 31.2% | 755.0hPa | 2.7V | 00:00:00 | 00:00:00 | 00:00:00 | |
| OM5KV | 2026-08-31 11:25:56 | 47.43547 | 19.19848 | 84° | 9km/h | 2555m | 5.5m/s | 10.0°C | 34.1% | 756.2hPa | 2.7V | 00:00:00 | 00:00:00 | 00:00:00 | |
| OM5KV | 2026-08-31 11:25:54 | 47.43545 | 19.19837 | 68° | 18km/h | 2543m | 6.4m/s | 10.1°C | 34.1% | 757.4hPa | 2.7V | 00:00:00 | 00:00:00 | 00:00:00 | |
| OM5KV | 2026-08-31 11:25:43 | 47.43535 | 19.19775 | 50° | 16km/h | 2484m | 4.6m/s | 10.4°C | 40.2% | 762.8hPa | 2.7V | 00:00:00 | 00:00:00 | 00:00:00 | |
| OM5KV | 2026-08-31 11:25:38 | 47.43530 | 19.19742 | 107° | 20km/h | 2457m | 7.9m/s | 10.8°C | 35.3% | 765.3hPa | 2.7V | 00:00:00 | 00:00:00 | 00:00:00 | |
| OM5KV | 2026-08-31 11:25:37 | 47.43531 | 19.19735 | 95° | 18km/h | 2449m | 8.1m/s | 10.9°C | 34.4% | 766.2hPa | 2.7V | 00:00:00 | 00:00:00 | 00:00:00 | |
| OM5KV | 2026-08-31 11:25:34 | 47.43527 | 19.19705 | 78° | 24km/h | 2424m | 6.8m/s | 10.8°C | 43.0% | 768.3hPa | 2.7V | 00:00:00 | 00:00:00 | 00:00:00 | |
| OM5KV | 2026-08-31 11:25:31 | 47.43526 | 19.19689 | 83° | 22km/h | 2412m | 5.3m/s | 10.8°C | 44.2% | 769.4hPa | 2.7V | 00:00:00 | 00:00:00 | 00:00:00 | |
| OM5KV | 2026-08-31 11:25:26 | 47.43521 | 19.19644 | 93° | 26km/h | 2380m | 6.0m/s | 11.0°C | 44.6% | 772.4hPa | 2.7V | 00:00:00 | 00:00:00 | 00:00:00 | |
| OM5KV | 2026-08-31 11:25:22 | 47.43521 | 19.19619 | 56° | 16km/h | 2358m | 4.6m/s | 11.0°C | 48.2% | 774.4hPa | 2.7V | 00:00:00 | 00:00:00 | 00:00:00 | |
| OM5KV | 2026-08-31 11:25:20 | 47.43516 | 19.19604 | 69° | 26km/h | 2348m | 5.0m/s | 11.1°C | 48.5% | 775.4hPa | 2.7V | 00:00:00 | 00:00:00 | 00:00:00 | |
| OM5KV | 2026-08-31 11:25:16 | 47.43513 | 19.19553 | 97° | 38km/h | 2323m | 6.0m/s | 11.3°C | 48.1% | 777.5hPa | 2.7V | 00:00:00 | 00:00:00 | 00:00:00 | |
| OM5KV | 2026-08-31 11:25:15 | 47.43514 | 19.19539 | 95° | 37km/h | 2316m | 7.2m/s | 11.4°C | 47.8% | 778.2hPa | 2.7V | 00:00:00 | 00:00:00 | 00:00:00 | |
| OM5KV | 2026-08-31 11:25:10 | 47.43505 | 19.19476 | 73° | 27km/h | 2286m | 7.0m/s | 11.6°C | 47.6% | 780.9hPa | 2.7V | 00:00:00 | 00:00:00 | 00:00:00 | |
| OM5KV | 2026-08-31 11:25:09 | 47.43503 | 19.19466 | 85° | 26km/h | 2279m | 7.4m/s | 11.7°C | 48.4% | 781.6hPa | 2.7V | 00:00:00 | 00:00:00 | 00:00:00 | |
| OM5KV | 2026-08-31 11:25:04 | 47.43499 | 19.19412 | 84° | 37km/h | 2245m | 6.2m/s | 11.8°C | 50.9% | 784.7hPa | 2.7V | 00:00:00 | 00:00:00 | 00:00:00 | |
| OM5KV | 2026-08-31 11:24:59 | 47.43495 | 19.19356 | 71° | 29km/h | 2213m | 5.4m/s | 12.1°C | 49.8% | 787.7hPa | 2.7V | 00:00:00 | 00:00:00 | 00:00:00 | |
| OM5KV | 2026-08-31 11:24:58 | 47.43493 | 19.19345 | 67° | 29km/h | 2206m | 6.9m/s | 12.1°C | 49.7% | 788.2hPa | 2.7V | 00:00:00 | 00:00:00 | 00:00:00 | |
| OM5KV | 2026-08-31 11:24:53 | 47.43486 | 19.19304 | 52° | 20km/h | 2173m | 6.1m/s | 12.3°C | 52.7% | 791.3hPa | 2.7V | 00:00:00 | 00:00:00 | 00:00:00 | |
| OM5KV | 2026-08-31 11:24:48 | 47.43475 | 19.19266 | 80° | 22km/h | 2143m | 6.1m/s | 12.5°C | 53.4% | 794.2hPa | 2.7V | 00:00:00 | 00:00:00 | 00:00:00 | |
| OM5KV | 2026-08-31 11:24:46 | 47.43471 | 19.19250 | 65° | 26km/h | 2128m | 7.6m/s | 12.6°C | 54.0% | 795.5hPa | 2.7V | 00:00:00 | 00:00:00 | 00:00:00 | |
| OM5KV | 2026-08-31 11:24:43 | 47.43462 | 19.19217 | 79° | 33km/h | 2111m | 5.4m/s | 12.7°C | 0% | 0hPa | 2.7V | 00:00:00 | 00:00:00 | 00:00:00 | |
| OM5KV | 2026-08-31 11:24:41 | 47.43461 | 19.19195 | 90° | 24km/h | 2100m | 5.5m/s | 12.8°C | 0% | 0hPa | 2.7V | 00:00:00 | 00:00:00 | 00:00:00 | |
| OM5KV | 2026-08-31 11:24:37 | 47.43455 | 19.19177 | 26° | 20km/h | 2080m | 4.8m/s | 13.0°C | 0% | 0hPa | 2.7V | 00:00:00 | 00:00:00 | 00:00:00 | |
| OM5KV | 2026-08-31 11:24:36 | 47.43449 | 19.19172 | 32° | 26km/h | 2076m | 4.3m/s | 13.0°C | 0% | 0hPa | 2.7V | 00:00:00 | 00:00:00 | 00:00:00 | |
| OM5KV | 2026-08-31 11:24:32 | 47.43434 | 19.19141 | 83° | 27km/h | 2053m | 4.0m/s | 13.2°C | 0% | 0hPa | 2.7V | 00:00:00 | 00:00:00 | 00:00:00 | |
| OM5KV | 2026-08-31 11:24:27 | 47.43436 | 19.19089 | 91° | 33km/h | 2024m | 5.2m/s | 13.5°C | 0% | 0hPa | 2.7V | 00:00:00 | 00:00:00 | 00:00:00 | |
| OM5KV | 2026-08-31 11:24:25 | 47.43434 | 19.19066 | 76° | 29km/h | 2014m | 5.7m/s | 13.6°C | 0% | 0hPa | 2.7V | 00:00:00 | 00:00:00 | 00:00:00 | |
| OM5KV | 2026-08-31 11:24:21 | 47.43425 | 19.19038 | 42° | 20km/h | 1994m | 6.9m/s | 13.8°C | 0% | 0hPa | 2.7V | 00:00:00 | 00:00:00 | 00:00:00 | |
| OM5KV | 2026-08-31 11:24:15 | 47.43414 | 19.18983 | 97° | 29km/h | 1957m | 8.7m/s | 14.1°C | 0% | 0hPa | 2.7V | 00:00:00 | 00:00:00 | 00:00:00 | |
| OM5KV | 2026-08-31 11:24:13 | 47.43415 | 19.18959 | 97° | 31km/h | 1941m | 7.2m/s | 14.2°C | 0% | 0hPa | 2.7V | 00:00:00 | 00:00:00 | 00:00:00 | |
| OM5KV | 2026-08-31 11:24:09 | 47.43419 | 19.18917 | 100° | 26km/h | 1917m | 5.5m/s | 0°C | 0% | 0hPa | 2.7V | 00:00:00 | 00:00:00 | 00:00:00 | |
| OM5KV | 2026-08-31 11:24:08 | 47.43419 | 19.18907 | 94° | 26km/h | 1912m | 5.5m/s | 0°C | 0% | 0hPa | 2.7V | 00:00:00 | 00:00:00 | 00:00:00 | |
| OM5KV | 2026-08-31 11:24:04 | 47.43414 | 19.18872 | 58° | 20km/h | 1889m | 5.3m/s | 0°C | 0% | 0hPa | 2.7V | 00:00:00 | 00:00:00 | 00:00:00 | |
| OM5KV | 2026-08-31 11:23:58 | 47.43402 | 19.18840 | 47° | 20km/h | 1851m | 6.6m/s | 0°C | 0% | 0hPa | 2.7V | 00:00:00 | 00:00:00 | 00:00:00 | |
| OM5KV | 2026-08-31 11:23:47 | 47.43369 | 19.18807 | 34° | 13km/h | 1784m | 6.3m/s | 0°C | 0% | 0hPa | 2.7V | 00:00:00 | 00:00:00 | 00:00:00 | |
| OM5KV | 2026-08-31 11:23:45 | 47.43360 | 19.18800 | 31° | 22km/h | 1771m | 7.6m/s | 0°C | 0% | 0hPa | 2.7V | 00:00:00 | 00:00:00 | 00:00:00 |